<?xml version="1.0" encoding="UTF-8" standalone="no" ?>
<gpx xmlns="http://www.topografix.com/GPX/1/1" xmlns:xsi="http://www.w3.org/2001/XMLSchema-instance" xsi:schemaLocation="http://www.topografix.com/GPX/1/1 http://www.topografix.com/GPX/1/1/gpx.xsd" version="1.1" creator="VisuGPX - https://www.visugpx.com">
  <metadata>
    <name>Magné c1 7,3km</name>
  </metadata>
  <wpt lat="46.31428" lon="-0.54276">
    <ele>5.5</ele>
  </wpt>
  <trk>
    <name><![CDATA[Magné c1 7,3km_1]]></name>
    <trkseg>
      <trkpt lat="46.31355" lon="-0.54222">
        <ele>54</ele>
        <time>2012-05-03T14:02:23Z</time>
      </trkpt>
      <trkpt lat="46.31352" lon="-0.54225">
        <ele>54</ele>
        <time>2012-05-03T14:02:27Z</time>
      </trkpt>
      <trkpt lat="46.31349" lon="-0.54228">
        <ele>55</ele>
        <time>2012-05-03T14:02:32Z</time>
      </trkpt>
      <trkpt lat="46.31347" lon="-0.54233">
        <ele>56</ele>
        <time>2012-05-03T14:02:37Z</time>
      </trkpt>
      <trkpt lat="46.31342" lon="-0.5424">
        <ele>57</ele>
        <time>2012-05-03T14:02:42Z</time>
      </trkpt>
      <trkpt lat="46.3134" lon="-0.54248">
        <ele>58</ele>
        <time>2012-05-03T14:02:47Z</time>
      </trkpt>
      <trkpt lat="46.31339" lon="-0.54254">
        <ele>57</ele>
        <time>2012-05-03T14:02:52Z</time>
      </trkpt>
      <trkpt lat="46.3134" lon="-0.54259">
        <ele>57</ele>
        <time>2012-05-03T14:02:57Z</time>
      </trkpt>
      <trkpt lat="46.31339" lon="-0.54265">
        <ele>56</ele>
        <time>2012-05-03T14:03:02Z</time>
      </trkpt>
      <trkpt lat="46.31339" lon="-0.5427">
        <ele>56</ele>
        <time>2012-05-03T14:03:07Z</time>
      </trkpt>
      <trkpt lat="46.3134" lon="-0.54276">
        <ele>56</ele>
        <time>2012-05-03T14:03:12Z</time>
      </trkpt>
      <trkpt lat="46.31341" lon="-0.54278">
        <ele>56</ele>
        <time>2012-05-03T14:03:17Z</time>
      </trkpt>
      <trkpt lat="46.31342" lon="-0.5428">
        <ele>55</ele>
        <time>2012-05-03T14:03:22Z</time>
      </trkpt>
      <trkpt lat="46.31341" lon="-0.5428">
        <ele>54</ele>
        <time>2012-05-03T14:03:27Z</time>
      </trkpt>
      <trkpt lat="46.31339" lon="-0.54281">
        <ele>55</ele>
        <time>2012-05-03T14:03:32Z</time>
      </trkpt>
      <trkpt lat="46.3134" lon="-0.54288">
        <ele>55</ele>
        <time>2012-05-03T14:03:37Z</time>
      </trkpt>
      <trkpt lat="46.31342" lon="-0.54294">
        <ele>57</ele>
        <time>2012-05-03T14:03:42Z</time>
      </trkpt>
      <trkpt lat="46.31343" lon="-0.54302">
        <ele>57</ele>
        <time>2012-05-03T14:03:47Z</time>
      </trkpt>
      <trkpt lat="46.31342" lon="-0.54307">
        <ele>57</ele>
        <time>2012-05-03T14:03:52Z</time>
      </trkpt>
      <trkpt lat="46.31343" lon="-0.54313">
        <ele>56</ele>
        <time>2012-05-03T14:03:57Z</time>
      </trkpt>
      <trkpt lat="46.31344" lon="-0.54322">
        <ele>55</ele>
        <time>2012-05-03T14:04:02Z</time>
      </trkpt>
      <trkpt lat="46.31342" lon="-0.54325">
        <ele>52</ele>
        <time>2012-05-03T14:04:07Z</time>
      </trkpt>
      <trkpt lat="46.31342" lon="-0.54332">
        <ele>52</ele>
        <time>2012-05-03T14:04:12Z</time>
      </trkpt>
      <trkpt lat="46.3134" lon="-0.54338">
        <ele>53</ele>
        <time>2012-05-03T14:04:17Z</time>
      </trkpt>
      <trkpt lat="46.3134" lon="-0.54342">
        <ele>53</ele>
        <time>2012-05-03T14:04:22Z</time>
      </trkpt>
      <trkpt lat="46.31341" lon="-0.54343">
        <ele>54</ele>
        <time>2012-05-03T14:04:27Z</time>
      </trkpt>
      <trkpt lat="46.3134" lon="-0.54346">
        <ele>56</ele>
        <time>2012-05-03T14:04:32Z</time>
      </trkpt>
      <trkpt lat="46.31338" lon="-0.54355">
        <ele>54</ele>
        <time>2012-05-03T14:04:37Z</time>
      </trkpt>
      <trkpt lat="46.3134" lon="-0.54358">
        <ele>55</ele>
        <time>2012-05-03T14:04:42Z</time>
      </trkpt>
      <trkpt lat="46.31341" lon="-0.54368">
        <ele>56</ele>
        <time>2012-05-03T14:04:47Z</time>
      </trkpt>
      <trkpt lat="46.31341" lon="-0.54374">
        <ele>55</ele>
        <time>2012-05-03T14:04:52Z</time>
      </trkpt>
      <trkpt lat="46.31343" lon="-0.5438">
        <ele>54</ele>
        <time>2012-05-03T14:04:57Z</time>
      </trkpt>
      <trkpt lat="46.31343" lon="-0.54386">
        <ele>54</ele>
        <time>2012-05-03T14:05:02Z</time>
      </trkpt>
      <trkpt lat="46.31345" lon="-0.54391">
        <ele>54</ele>
        <time>2012-05-03T14:05:07Z</time>
      </trkpt>
      <trkpt lat="46.31347" lon="-0.54398">
        <ele>54</ele>
        <time>2012-05-03T14:05:12Z</time>
      </trkpt>
      <trkpt lat="46.31348" lon="-0.54406">
        <ele>53</ele>
        <time>2012-05-03T14:05:17Z</time>
      </trkpt>
      <trkpt lat="46.31349" lon="-0.54412">
        <ele>52</ele>
        <time>2012-05-03T14:05:22Z</time>
      </trkpt>
      <trkpt lat="46.31349" lon="-0.54418">
        <ele>53</ele>
        <time>2012-05-03T14:05:27Z</time>
      </trkpt>
      <trkpt lat="46.31349" lon="-0.54424">
        <ele>52</ele>
        <time>2012-05-03T14:05:32Z</time>
      </trkpt>
      <trkpt lat="46.31352" lon="-0.5443">
        <ele>55</ele>
        <time>2012-05-03T14:05:38Z</time>
      </trkpt>
      <trkpt lat="46.31353" lon="-0.54437">
        <ele>55</ele>
        <time>2012-05-03T14:05:42Z</time>
      </trkpt>
      <trkpt lat="46.31355" lon="-0.54442">
        <ele>55</ele>
        <time>2012-05-03T14:05:47Z</time>
      </trkpt>
      <trkpt lat="46.31355" lon="-0.54449">
        <ele>54</ele>
        <time>2012-05-03T14:05:52Z</time>
      </trkpt>
      <trkpt lat="46.31357" lon="-0.54455">
        <ele>55</ele>
        <time>2012-05-03T14:05:57Z</time>
      </trkpt>
      <trkpt lat="46.31359" lon="-0.54461">
        <ele>54</ele>
        <time>2012-05-03T14:06:02Z</time>
      </trkpt>
      <trkpt lat="46.3136" lon="-0.54464">
        <ele>53</ele>
        <time>2012-05-03T14:06:07Z</time>
      </trkpt>
      <trkpt lat="46.31359" lon="-0.54467">
        <ele>53</ele>
        <time>2012-05-03T14:06:12Z</time>
      </trkpt>
      <trkpt lat="46.31356" lon="-0.5447">
        <ele>54</ele>
        <time>2012-05-03T14:06:17Z</time>
      </trkpt>
      <trkpt lat="46.31356" lon="-0.54477">
        <ele>55</ele>
        <time>2012-05-03T14:06:22Z</time>
      </trkpt>
      <trkpt lat="46.31353" lon="-0.54483">
        <ele>56</ele>
        <time>2012-05-03T14:06:27Z</time>
      </trkpt>
      <trkpt lat="46.31348" lon="-0.54482">
        <ele>57</ele>
        <time>2012-05-03T14:06:32Z</time>
      </trkpt>
      <trkpt lat="46.31343" lon="-0.54482">
        <ele>58</ele>
        <time>2012-05-03T14:06:37Z</time>
      </trkpt>
      <trkpt lat="46.3134" lon="-0.54484">
        <ele>61</ele>
        <time>2012-05-03T14:06:42Z</time>
      </trkpt>
      <trkpt lat="46.31335" lon="-0.5449">
        <ele>61</ele>
        <time>2012-05-03T14:06:47Z</time>
      </trkpt>
      <trkpt lat="46.31332" lon="-0.54498">
        <ele>59</ele>
        <time>2012-05-03T14:06:52Z</time>
      </trkpt>
      <trkpt lat="46.31324" lon="-0.54506">
        <ele>56</ele>
        <time>2012-05-03T14:06:57Z</time>
      </trkpt>
      <trkpt lat="46.31322" lon="-0.54512">
        <ele>55</ele>
        <time>2012-05-03T14:07:02Z</time>
      </trkpt>
      <trkpt lat="46.31319" lon="-0.54515">
        <ele>56</ele>
        <time>2012-05-03T14:07:07Z</time>
      </trkpt>
      <trkpt lat="46.31317" lon="-0.54521">
        <ele>55</ele>
        <time>2012-05-03T14:07:12Z</time>
      </trkpt>
      <trkpt lat="46.31315" lon="-0.54528">
        <ele>56</ele>
        <time>2012-05-03T14:07:17Z</time>
      </trkpt>
      <trkpt lat="46.31315" lon="-0.54533">
        <ele>59</ele>
        <time>2012-05-03T14:07:22Z</time>
      </trkpt>
      <trkpt lat="46.31313" lon="-0.54542">
        <ele>57</ele>
        <time>2012-05-03T14:07:27Z</time>
      </trkpt>
      <trkpt lat="46.31314" lon="-0.5455">
        <ele>57</ele>
        <time>2012-05-03T14:07:32Z</time>
      </trkpt>
      <trkpt lat="46.31315" lon="-0.54559">
        <ele>58</ele>
        <time>2012-05-03T14:07:37Z</time>
      </trkpt>
      <trkpt lat="46.31316" lon="-0.54566">
        <ele>59</ele>
        <time>2012-05-03T14:07:42Z</time>
      </trkpt>
      <trkpt lat="46.31315" lon="-0.54574">
        <ele>60</ele>
        <time>2012-05-03T14:07:47Z</time>
      </trkpt>
      <trkpt lat="46.31313" lon="-0.5458">
        <ele>59</ele>
        <time>2012-05-03T14:07:52Z</time>
      </trkpt>
      <trkpt lat="46.31313" lon="-0.54586">
        <ele>60</ele>
        <time>2012-05-03T14:07:57Z</time>
      </trkpt>
      <trkpt lat="46.31311" lon="-0.54592">
        <ele>60</ele>
        <time>2012-05-03T14:08:02Z</time>
      </trkpt>
      <trkpt lat="46.3131" lon="-0.546">
        <ele>61</ele>
        <time>2012-05-03T14:08:07Z</time>
      </trkpt>
      <trkpt lat="46.31309" lon="-0.54608">
        <ele>61</ele>
        <time>2012-05-03T14:08:12Z</time>
      </trkpt>
      <trkpt lat="46.31307" lon="-0.54614">
        <ele>61</ele>
        <time>2012-05-03T14:08:17Z</time>
      </trkpt>
      <trkpt lat="46.31305" lon="-0.54621">
        <ele>61</ele>
        <time>2012-05-03T14:08:22Z</time>
      </trkpt>
      <trkpt lat="46.31304" lon="-0.54628">
        <ele>61</ele>
        <time>2012-05-03T14:08:27Z</time>
      </trkpt>
      <trkpt lat="46.31304" lon="-0.54637">
        <ele>61</ele>
        <time>2012-05-03T14:08:32Z</time>
      </trkpt>
      <trkpt lat="46.31304" lon="-0.54641">
        <ele>60</ele>
        <time>2012-05-03T14:08:37Z</time>
      </trkpt>
      <trkpt lat="46.31301" lon="-0.54648">
        <ele>60</ele>
        <time>2012-05-03T14:08:42Z</time>
      </trkpt>
      <trkpt lat="46.31299" lon="-0.54653">
        <ele>58</ele>
        <time>2012-05-03T14:08:47Z</time>
      </trkpt>
      <trkpt lat="46.31297" lon="-0.5466">
        <ele>59</ele>
        <time>2012-05-03T14:08:52Z</time>
      </trkpt>
      <trkpt lat="46.31295" lon="-0.54667">
        <ele>58</ele>
        <time>2012-05-03T14:08:57Z</time>
      </trkpt>
      <trkpt lat="46.31294" lon="-0.54676">
        <ele>58</ele>
        <time>2012-05-03T14:09:02Z</time>
      </trkpt>
      <trkpt lat="46.31293" lon="-0.54682">
        <ele>59</ele>
        <time>2012-05-03T14:09:07Z</time>
      </trkpt>
      <trkpt lat="46.31291" lon="-0.54689">
        <ele>59</ele>
        <time>2012-05-03T14:09:12Z</time>
      </trkpt>
      <trkpt lat="46.31291" lon="-0.54697">
        <ele>58</ele>
        <time>2012-05-03T14:09:17Z</time>
      </trkpt>
      <trkpt lat="46.31291" lon="-0.54706">
        <ele>57</ele>
        <time>2012-05-03T14:09:22Z</time>
      </trkpt>
      <trkpt lat="46.3129" lon="-0.54713">
        <ele>57</ele>
        <time>2012-05-03T14:09:27Z</time>
      </trkpt>
      <trkpt lat="46.3129" lon="-0.54721">
        <ele>57</ele>
        <time>2012-05-03T14:09:32Z</time>
      </trkpt>
      <trkpt lat="46.31289" lon="-0.54729">
        <ele>57</ele>
        <time>2012-05-03T14:09:37Z</time>
      </trkpt>
      <trkpt lat="46.3129" lon="-0.54736">
        <ele>56</ele>
        <time>2012-05-03T14:09:42Z</time>
      </trkpt>
      <trkpt lat="46.31289" lon="-0.54745">
        <ele>58</ele>
        <time>2012-05-03T14:09:47Z</time>
      </trkpt>
      <trkpt lat="46.31288" lon="-0.54752">
        <ele>61</ele>
        <time>2012-05-03T14:09:52Z</time>
      </trkpt>
      <trkpt lat="46.31287" lon="-0.54758">
        <ele>60</ele>
        <time>2012-05-03T14:09:57Z</time>
      </trkpt>
      <trkpt lat="46.31286" lon="-0.54765">
        <ele>61</ele>
        <time>2012-05-03T14:10:02Z</time>
      </trkpt>
      <trkpt lat="46.31287" lon="-0.54772">
        <ele>61</ele>
        <time>2012-05-03T14:10:07Z</time>
      </trkpt>
      <trkpt lat="46.31285" lon="-0.54778">
        <ele>61</ele>
        <time>2012-05-03T14:10:12Z</time>
      </trkpt>
      <trkpt lat="46.31283" lon="-0.54786">
        <ele>63</ele>
        <time>2012-05-03T14:10:17Z</time>
      </trkpt>
      <trkpt lat="46.31283" lon="-0.54792">
        <ele>64</ele>
        <time>2012-05-03T14:10:22Z</time>
      </trkpt>
      <trkpt lat="46.31282" lon="-0.548">
        <ele>63</ele>
        <time>2012-05-03T14:10:27Z</time>
      </trkpt>
      <trkpt lat="46.31281" lon="-0.54808">
        <ele>62</ele>
        <time>2012-05-03T14:10:32Z</time>
      </trkpt>
      <trkpt lat="46.31279" lon="-0.54815">
        <ele>61</ele>
        <time>2012-05-03T14:10:37Z</time>
      </trkpt>
      <trkpt lat="46.31278" lon="-0.54822">
        <ele>61</ele>
        <time>2012-05-03T14:10:42Z</time>
      </trkpt>
      <trkpt lat="46.31276" lon="-0.54829">
        <ele>59</ele>
        <time>2012-05-03T14:10:47Z</time>
      </trkpt>
      <trkpt lat="46.31275" lon="-0.54836">
        <ele>58</ele>
        <time>2012-05-03T14:10:52Z</time>
      </trkpt>
      <trkpt lat="46.31274" lon="-0.54843">
        <ele>58</ele>
        <time>2012-05-03T14:10:57Z</time>
      </trkpt>
      <trkpt lat="46.31272" lon="-0.5485">
        <ele>57</ele>
        <time>2012-05-03T14:11:02Z</time>
      </trkpt>
      <trkpt lat="46.3127" lon="-0.54856">
        <ele>56</ele>
        <time>2012-05-03T14:11:07Z</time>
      </trkpt>
      <trkpt lat="46.31268" lon="-0.54864">
        <ele>56</ele>
        <time>2012-05-03T14:11:12Z</time>
      </trkpt>
      <trkpt lat="46.31266" lon="-0.54871">
        <ele>56</ele>
        <time>2012-05-03T14:11:17Z</time>
      </trkpt>
      <trkpt lat="46.31264" lon="-0.54877">
        <ele>57</ele>
        <time>2012-05-03T14:11:22Z</time>
      </trkpt>
      <trkpt lat="46.3126" lon="-0.54883">
        <ele>58</ele>
        <time>2012-05-03T14:11:27Z</time>
      </trkpt>
      <trkpt lat="46.31256" lon="-0.5489">
        <ele>59</ele>
        <time>2012-05-03T14:11:32Z</time>
      </trkpt>
      <trkpt lat="46.31254" lon="-0.54898">
        <ele>60</ele>
        <time>2012-05-03T14:11:37Z</time>
      </trkpt>
      <trkpt lat="46.3125" lon="-0.54903">
        <ele>60</ele>
        <time>2012-05-03T14:11:42Z</time>
      </trkpt>
      <trkpt lat="46.31249" lon="-0.5491">
        <ele>59</ele>
        <time>2012-05-03T14:11:47Z</time>
      </trkpt>
      <trkpt lat="46.31244" lon="-0.54915">
        <ele>60</ele>
        <time>2012-05-03T14:11:52Z</time>
      </trkpt>
      <trkpt lat="46.31242" lon="-0.54921">
        <ele>60</ele>
        <time>2012-05-03T14:11:57Z</time>
      </trkpt>
      <trkpt lat="46.31239" lon="-0.54929">
        <ele>60</ele>
        <time>2012-05-03T14:12:02Z</time>
      </trkpt>
      <trkpt lat="46.31238" lon="-0.54937">
        <ele>60</ele>
        <time>2012-05-03T14:12:07Z</time>
      </trkpt>
      <trkpt lat="46.31237" lon="-0.54945">
        <ele>61</ele>
        <time>2012-05-03T14:12:12Z</time>
      </trkpt>
      <trkpt lat="46.31235" lon="-0.54951">
        <ele>61</ele>
        <time>2012-05-03T14:12:17Z</time>
      </trkpt>
      <trkpt lat="46.31234" lon="-0.54958">
        <ele>61</ele>
        <time>2012-05-03T14:12:22Z</time>
      </trkpt>
      <trkpt lat="46.31231" lon="-0.54966">
        <ele>61</ele>
        <time>2012-05-03T14:12:27Z</time>
      </trkpt>
      <trkpt lat="46.31229" lon="-0.54972">
        <ele>61</ele>
        <time>2012-05-03T14:12:32Z</time>
      </trkpt>
      <trkpt lat="46.31228" lon="-0.54979">
        <ele>60</ele>
        <time>2012-05-03T14:12:37Z</time>
      </trkpt>
      <trkpt lat="46.31224" lon="-0.54987">
        <ele>60</ele>
        <time>2012-05-03T14:12:42Z</time>
      </trkpt>
      <trkpt lat="46.31221" lon="-0.54995">
        <ele>60</ele>
        <time>2012-05-03T14:12:47Z</time>
      </trkpt>
      <trkpt lat="46.31219" lon="-0.55001">
        <ele>60</ele>
        <time>2012-05-03T14:12:52Z</time>
      </trkpt>
      <trkpt lat="46.31216" lon="-0.55008">
        <ele>63</ele>
        <time>2012-05-03T14:12:57Z</time>
      </trkpt>
      <trkpt lat="46.31214" lon="-0.55016">
        <ele>63</ele>
        <time>2012-05-03T14:13:02Z</time>
      </trkpt>
      <trkpt lat="46.31212" lon="-0.55022">
        <ele>62</ele>
        <time>2012-05-03T14:13:07Z</time>
      </trkpt>
      <trkpt lat="46.31208" lon="-0.55029">
        <ele>64</ele>
        <time>2012-05-03T14:13:12Z</time>
      </trkpt>
      <trkpt lat="46.31205" lon="-0.55034">
        <ele>64</ele>
        <time>2012-05-03T14:13:17Z</time>
      </trkpt>
      <trkpt lat="46.31201" lon="-0.55039">
        <ele>63</ele>
        <time>2012-05-03T14:13:22Z</time>
      </trkpt>
      <trkpt lat="46.31198" lon="-0.55043">
        <ele>62</ele>
        <time>2012-05-03T14:13:27Z</time>
      </trkpt>
      <trkpt lat="46.31194" lon="-0.55047">
        <ele>61</ele>
        <time>2012-05-03T14:13:32Z</time>
      </trkpt>
      <trkpt lat="46.31189" lon="-0.55052">
        <ele>61</ele>
        <time>2012-05-03T14:13:37Z</time>
      </trkpt>
      <trkpt lat="46.31185" lon="-0.55056">
        <ele>61</ele>
        <time>2012-05-03T14:13:42Z</time>
      </trkpt>
      <trkpt lat="46.3118" lon="-0.55059">
        <ele>62</ele>
        <time>2012-05-03T14:13:47Z</time>
      </trkpt>
      <trkpt lat="46.31176" lon="-0.55063">
        <ele>63</ele>
        <time>2012-05-03T14:13:52Z</time>
      </trkpt>
      <trkpt lat="46.31171" lon="-0.55066">
        <ele>63</ele>
        <time>2012-05-03T14:13:57Z</time>
      </trkpt>
      <trkpt lat="46.31168" lon="-0.5507">
        <ele>63</ele>
        <time>2012-05-03T14:14:02Z</time>
      </trkpt>
      <trkpt lat="46.31164" lon="-0.55074">
        <ele>63</ele>
        <time>2012-05-03T14:14:07Z</time>
      </trkpt>
      <trkpt lat="46.31158" lon="-0.55079">
        <ele>64</ele>
        <time>2012-05-03T14:14:12Z</time>
      </trkpt>
      <trkpt lat="46.31153" lon="-0.55082">
        <ele>63</ele>
        <time>2012-05-03T14:14:17Z</time>
      </trkpt>
      <trkpt lat="46.31149" lon="-0.55085">
        <ele>65</ele>
        <time>2012-05-03T14:14:22Z</time>
      </trkpt>
      <trkpt lat="46.31146" lon="-0.55087">
        <ele>66</ele>
        <time>2012-05-03T14:14:27Z</time>
      </trkpt>
      <trkpt lat="46.31141" lon="-0.5509">
        <ele>66</ele>
        <time>2012-05-03T14:14:32Z</time>
      </trkpt>
      <trkpt lat="46.31136" lon="-0.55092">
        <ele>66</ele>
        <time>2012-05-03T14:14:37Z</time>
      </trkpt>
      <trkpt lat="46.31131" lon="-0.55094">
        <ele>66</ele>
        <time>2012-05-03T14:14:42Z</time>
      </trkpt>
      <trkpt lat="46.31126" lon="-0.55095">
        <ele>66</ele>
        <time>2012-05-03T14:14:47Z</time>
      </trkpt>
      <trkpt lat="46.3112" lon="-0.55096">
        <ele>66</ele>
        <time>2012-05-03T14:14:52Z</time>
      </trkpt>
      <trkpt lat="46.31115" lon="-0.55097">
        <ele>66</ele>
        <time>2012-05-03T14:14:57Z</time>
      </trkpt>
      <trkpt lat="46.31111" lon="-0.55099">
        <ele>66</ele>
        <time>2012-05-03T14:15:02Z</time>
      </trkpt>
      <trkpt lat="46.31106" lon="-0.551">
        <ele>67</ele>
        <time>2012-05-03T14:15:07Z</time>
      </trkpt>
      <trkpt lat="46.311" lon="-0.55104">
        <ele>67</ele>
        <time>2012-05-03T14:15:12Z</time>
      </trkpt>
      <trkpt lat="46.31095" lon="-0.55106">
        <ele>66</ele>
        <time>2012-05-03T14:15:17Z</time>
      </trkpt>
      <trkpt lat="46.31091" lon="-0.55108">
        <ele>66</ele>
        <time>2012-05-03T14:15:22Z</time>
      </trkpt>
      <trkpt lat="46.31085" lon="-0.55112">
        <ele>65</ele>
        <time>2012-05-03T14:15:27Z</time>
      </trkpt>
      <trkpt lat="46.31081" lon="-0.55114">
        <ele>65</ele>
        <time>2012-05-03T14:15:32Z</time>
      </trkpt>
      <trkpt lat="46.31076" lon="-0.55115">
        <ele>67</ele>
        <time>2012-05-03T14:15:37Z</time>
      </trkpt>
      <trkpt lat="46.31072" lon="-0.55117">
        <ele>68</ele>
        <time>2012-05-03T14:15:42Z</time>
      </trkpt>
      <trkpt lat="46.31067" lon="-0.5512">
        <ele>67</ele>
        <time>2012-05-03T14:15:47Z</time>
      </trkpt>
      <trkpt lat="46.31062" lon="-0.55123">
        <ele>68</ele>
        <time>2012-05-03T14:15:52Z</time>
      </trkpt>
      <trkpt lat="46.31056" lon="-0.55126">
        <ele>69</ele>
        <time>2012-05-03T14:15:57Z</time>
      </trkpt>
      <trkpt lat="46.31053" lon="-0.5513">
        <ele>69</ele>
        <time>2012-05-03T14:16:02Z</time>
      </trkpt>
      <trkpt lat="46.31047" lon="-0.55132">
        <ele>68</ele>
        <time>2012-05-03T14:16:07Z</time>
      </trkpt>
      <trkpt lat="46.31043" lon="-0.55134">
        <ele>69</ele>
        <time>2012-05-03T14:16:12Z</time>
      </trkpt>
      <trkpt lat="46.31038" lon="-0.55138">
        <ele>68</ele>
        <time>2012-05-03T14:16:17Z</time>
      </trkpt>
      <trkpt lat="46.31034" lon="-0.55141">
        <ele>66</ele>
        <time>2012-05-03T14:16:22Z</time>
      </trkpt>
      <trkpt lat="46.31029" lon="-0.55144">
        <ele>66</ele>
        <time>2012-05-03T14:16:27Z</time>
      </trkpt>
      <trkpt lat="46.31025" lon="-0.55147">
        <ele>65</ele>
        <time>2012-05-03T14:16:32Z</time>
      </trkpt>
      <trkpt lat="46.31021" lon="-0.55151">
        <ele>65</ele>
        <time>2012-05-03T14:16:37Z</time>
      </trkpt>
      <trkpt lat="46.31017" lon="-0.55157">
        <ele>64</ele>
        <time>2012-05-03T14:16:42Z</time>
      </trkpt>
      <trkpt lat="46.31013" lon="-0.55164">
        <ele>63</ele>
        <time>2012-05-03T14:16:47Z</time>
      </trkpt>
      <trkpt lat="46.31009" lon="-0.55169">
        <ele>63</ele>
        <time>2012-05-03T14:16:52Z</time>
      </trkpt>
      <trkpt lat="46.31006" lon="-0.55173">
        <ele>63</ele>
        <time>2012-05-03T14:16:57Z</time>
      </trkpt>
      <trkpt lat="46.31001" lon="-0.55179">
        <ele>63</ele>
        <time>2012-05-03T14:17:02Z</time>
      </trkpt>
      <trkpt lat="46.30998" lon="-0.55185">
        <ele>63</ele>
        <time>2012-05-03T14:17:07Z</time>
      </trkpt>
      <trkpt lat="46.30994" lon="-0.5519">
        <ele>63</ele>
        <time>2012-05-03T14:17:12Z</time>
      </trkpt>
      <trkpt lat="46.3099" lon="-0.55196">
        <ele>62</ele>
        <time>2012-05-03T14:17:17Z</time>
      </trkpt>
      <trkpt lat="46.30985" lon="-0.552">
        <ele>62</ele>
        <time>2012-05-03T14:17:22Z</time>
      </trkpt>
      <trkpt lat="46.30981" lon="-0.55206">
        <ele>61</ele>
        <time>2012-05-03T14:17:27Z</time>
      </trkpt>
      <trkpt lat="46.30978" lon="-0.55212">
        <ele>62</ele>
        <time>2012-05-03T14:17:32Z</time>
      </trkpt>
      <trkpt lat="46.30974" lon="-0.55217">
        <ele>62</ele>
        <time>2012-05-03T14:17:37Z</time>
      </trkpt>
      <trkpt lat="46.30971" lon="-0.55222">
        <ele>62</ele>
        <time>2012-05-03T14:17:42Z</time>
      </trkpt>
      <trkpt lat="46.30967" lon="-0.55227">
        <ele>62</ele>
        <time>2012-05-03T14:17:47Z</time>
      </trkpt>
      <trkpt lat="46.30963" lon="-0.55232">
        <ele>63</ele>
        <time>2012-05-03T14:17:52Z</time>
      </trkpt>
      <trkpt lat="46.30959" lon="-0.55237">
        <ele>62</ele>
        <time>2012-05-03T14:17:57Z</time>
      </trkpt>
      <trkpt lat="46.30955" lon="-0.55242">
        <ele>62</ele>
        <time>2012-05-03T14:18:02Z</time>
      </trkpt>
      <trkpt lat="46.30952" lon="-0.55246">
        <ele>61</ele>
        <time>2012-05-03T14:18:07Z</time>
      </trkpt>
      <trkpt lat="46.30948" lon="-0.5525">
        <ele>60</ele>
        <time>2012-05-03T14:18:12Z</time>
      </trkpt>
      <trkpt lat="46.30943" lon="-0.55255">
        <ele>60</ele>
        <time>2012-05-03T14:18:17Z</time>
      </trkpt>
      <trkpt lat="46.3094" lon="-0.55259">
        <ele>59</ele>
        <time>2012-05-03T14:18:22Z</time>
      </trkpt>
      <trkpt lat="46.30936" lon="-0.55265">
        <ele>59</ele>
        <time>2012-05-03T14:18:27Z</time>
      </trkpt>
      <trkpt lat="46.30932" lon="-0.55269">
        <ele>59</ele>
        <time>2012-05-03T14:18:32Z</time>
      </trkpt>
      <trkpt lat="46.30928" lon="-0.55273">
        <ele>58</ele>
        <time>2012-05-03T14:18:37Z</time>
      </trkpt>
      <trkpt lat="46.30926" lon="-0.55278">
        <ele>60</ele>
        <time>2012-05-03T14:18:42Z</time>
      </trkpt>
      <trkpt lat="46.30922" lon="-0.55285">
        <ele>61</ele>
        <time>2012-05-03T14:18:47Z</time>
      </trkpt>
      <trkpt lat="46.30918" lon="-0.55291">
        <ele>60</ele>
        <time>2012-05-03T14:18:52Z</time>
      </trkpt>
      <trkpt lat="46.30915" lon="-0.55297">
        <ele>62</ele>
        <time>2012-05-03T14:18:57Z</time>
      </trkpt>
      <trkpt lat="46.30913" lon="-0.55304">
        <ele>62</ele>
        <time>2012-05-03T14:19:02Z</time>
      </trkpt>
      <trkpt lat="46.30911" lon="-0.55311">
        <ele>61</ele>
        <time>2012-05-03T14:19:07Z</time>
      </trkpt>
      <trkpt lat="46.30909" lon="-0.55317">
        <ele>61</ele>
        <time>2012-05-03T14:19:12Z</time>
      </trkpt>
      <trkpt lat="46.30907" lon="-0.55324">
        <ele>61</ele>
        <time>2012-05-03T14:19:17Z</time>
      </trkpt>
      <trkpt lat="46.30906" lon="-0.55331">
        <ele>61</ele>
        <time>2012-05-03T14:19:22Z</time>
      </trkpt>
      <trkpt lat="46.30904" lon="-0.55339">
        <ele>63</ele>
        <time>2012-05-03T14:19:27Z</time>
      </trkpt>
      <trkpt lat="46.30903" lon="-0.55346">
        <ele>63</ele>
        <time>2012-05-03T14:19:32Z</time>
      </trkpt>
      <trkpt lat="46.30902" lon="-0.55352">
        <ele>62</ele>
        <time>2012-05-03T14:19:37Z</time>
      </trkpt>
      <trkpt lat="46.30901" lon="-0.5536">
        <ele>61</ele>
        <time>2012-05-03T14:19:42Z</time>
      </trkpt>
      <trkpt lat="46.309" lon="-0.55368">
        <ele>61</ele>
        <time>2012-05-03T14:19:47Z</time>
      </trkpt>
      <trkpt lat="46.309" lon="-0.55374">
        <ele>61</ele>
        <time>2012-05-03T14:19:52Z</time>
      </trkpt>
      <trkpt lat="46.309" lon="-0.55382">
        <ele>61</ele>
        <time>2012-05-03T14:19:57Z</time>
      </trkpt>
      <trkpt lat="46.30899" lon="-0.55387">
        <ele>62</ele>
        <time>2012-05-03T14:20:02Z</time>
      </trkpt>
      <trkpt lat="46.30898" lon="-0.55392">
        <ele>62</ele>
        <time>2012-05-03T14:20:07Z</time>
      </trkpt>
      <trkpt lat="46.30898" lon="-0.554">
        <ele>62</ele>
        <time>2012-05-03T14:20:12Z</time>
      </trkpt>
      <trkpt lat="46.30898" lon="-0.55407">
        <ele>61</ele>
        <time>2012-05-03T14:20:17Z</time>
      </trkpt>
      <trkpt lat="46.30899" lon="-0.55413">
        <ele>61</ele>
        <time>2012-05-03T14:20:22Z</time>
      </trkpt>
      <trkpt lat="46.30899" lon="-0.5542">
        <ele>61</ele>
        <time>2012-05-03T14:20:27Z</time>
      </trkpt>
      <trkpt lat="46.30899" lon="-0.55428">
        <ele>61</ele>
        <time>2012-05-03T14:20:32Z</time>
      </trkpt>
      <trkpt lat="46.30897" lon="-0.55436">
        <ele>61</ele>
        <time>2012-05-03T14:20:37Z</time>
      </trkpt>
      <trkpt lat="46.30898" lon="-0.55443">
        <ele>61</ele>
        <time>2012-05-03T14:20:42Z</time>
      </trkpt>
      <trkpt lat="46.30899" lon="-0.55449">
        <ele>60</ele>
        <time>2012-05-03T14:20:47Z</time>
      </trkpt>
      <trkpt lat="46.309" lon="-0.55457">
        <ele>60</ele>
        <time>2012-05-03T14:20:52Z</time>
      </trkpt>
      <trkpt lat="46.309" lon="-0.55464">
        <ele>60</ele>
        <time>2012-05-03T14:20:57Z</time>
      </trkpt>
      <trkpt lat="46.30899" lon="-0.55471">
        <ele>59</ele>
        <time>2012-05-03T14:21:02Z</time>
      </trkpt>
      <trkpt lat="46.30899" lon="-0.55477">
        <ele>59</ele>
        <time>2012-05-03T14:21:07Z</time>
      </trkpt>
      <trkpt lat="46.30898" lon="-0.55485">
        <ele>60</ele>
        <time>2012-05-03T14:21:12Z</time>
      </trkpt>
      <trkpt lat="46.30898" lon="-0.55493">
        <ele>60</ele>
        <time>2012-05-03T14:21:17Z</time>
      </trkpt>
      <trkpt lat="46.30896" lon="-0.55501">
        <ele>61</ele>
        <time>2012-05-03T14:21:22Z</time>
      </trkpt>
      <trkpt lat="46.30897" lon="-0.55508">
        <ele>61</ele>
        <time>2012-05-03T14:21:27Z</time>
      </trkpt>
      <trkpt lat="46.30896" lon="-0.55515">
        <ele>61</ele>
        <time>2012-05-03T14:21:32Z</time>
      </trkpt>
      <trkpt lat="46.30896" lon="-0.55522">
        <ele>61</ele>
        <time>2012-05-03T14:21:37Z</time>
      </trkpt>
      <trkpt lat="46.30896" lon="-0.55529">
        <ele>62</ele>
        <time>2012-05-03T14:21:42Z</time>
      </trkpt>
      <trkpt lat="46.30896" lon="-0.55535">
        <ele>62</ele>
        <time>2012-05-03T14:21:47Z</time>
      </trkpt>
      <trkpt lat="46.30896" lon="-0.55543">
        <ele>60</ele>
        <time>2012-05-03T14:21:52Z</time>
      </trkpt>
      <trkpt lat="46.30896" lon="-0.55551">
        <ele>59</ele>
        <time>2012-05-03T14:21:57Z</time>
      </trkpt>
      <trkpt lat="46.30896" lon="-0.55558">
        <ele>59</ele>
        <time>2012-05-03T14:22:02Z</time>
      </trkpt>
      <trkpt lat="46.30896" lon="-0.55565">
        <ele>59</ele>
        <time>2012-05-03T14:22:07Z</time>
      </trkpt>
      <trkpt lat="46.30896" lon="-0.55573">
        <ele>60</ele>
        <time>2012-05-03T14:22:12Z</time>
      </trkpt>
      <trkpt lat="46.30896" lon="-0.55579">
        <ele>59</ele>
        <time>2012-05-03T14:22:17Z</time>
      </trkpt>
      <trkpt lat="46.30896" lon="-0.55588">
        <ele>58</ele>
        <time>2012-05-03T14:22:22Z</time>
      </trkpt>
      <trkpt lat="46.30897" lon="-0.55595">
        <ele>58</ele>
        <time>2012-05-03T14:22:27Z</time>
      </trkpt>
      <trkpt lat="46.30897" lon="-0.55602">
        <ele>59</ele>
        <time>2012-05-03T14:22:32Z</time>
      </trkpt>
      <trkpt lat="46.30898" lon="-0.5561">
        <ele>57</ele>
        <time>2012-05-03T14:22:37Z</time>
      </trkpt>
      <trkpt lat="46.30898" lon="-0.55617">
        <ele>57</ele>
        <time>2012-05-03T14:22:42Z</time>
      </trkpt>
      <trkpt lat="46.30899" lon="-0.55624">
        <ele>57</ele>
        <time>2012-05-03T14:22:47Z</time>
      </trkpt>
      <trkpt lat="46.30899" lon="-0.55632">
        <ele>56</ele>
        <time>2012-05-03T14:22:53Z</time>
      </trkpt>
      <trkpt lat="46.309" lon="-0.55638">
        <ele>54</ele>
        <time>2012-05-03T14:22:57Z</time>
      </trkpt>
      <trkpt lat="46.30901" lon="-0.55643">
        <ele>54</ele>
        <time>2012-05-03T14:23:02Z</time>
      </trkpt>
      <trkpt lat="46.30902" lon="-0.55652">
        <ele>52</ele>
        <time>2012-05-03T14:23:07Z</time>
      </trkpt>
      <trkpt lat="46.30901" lon="-0.5566">
        <ele>52</ele>
        <time>2012-05-03T14:23:12Z</time>
      </trkpt>
      <trkpt lat="46.30902" lon="-0.55668">
        <ele>53</ele>
        <time>2012-05-03T14:23:17Z</time>
      </trkpt>
      <trkpt lat="46.30901" lon="-0.55675">
        <ele>54</ele>
        <time>2012-05-03T14:23:22Z</time>
      </trkpt>
      <trkpt lat="46.30901" lon="-0.55684">
        <ele>55</ele>
        <time>2012-05-03T14:23:27Z</time>
      </trkpt>
      <trkpt lat="46.30903" lon="-0.55691">
        <ele>56</ele>
        <time>2012-05-03T14:23:32Z</time>
      </trkpt>
      <trkpt lat="46.30901" lon="-0.55699">
        <ele>56</ele>
        <time>2012-05-03T14:23:37Z</time>
      </trkpt>
      <trkpt lat="46.30901" lon="-0.55707">
        <ele>56</ele>
        <time>2012-05-03T14:23:42Z</time>
      </trkpt>
      <trkpt lat="46.309" lon="-0.55714">
        <ele>56</ele>
        <time>2012-05-03T14:23:47Z</time>
      </trkpt>
      <trkpt lat="46.30901" lon="-0.55721">
        <ele>57</ele>
        <time>2012-05-03T14:23:52Z</time>
      </trkpt>
      <trkpt lat="46.30901" lon="-0.55729">
        <ele>58</ele>
        <time>2012-05-03T14:23:57Z</time>
      </trkpt>
      <trkpt lat="46.309" lon="-0.55735">
        <ele>57</ele>
        <time>2012-05-03T14:24:02Z</time>
      </trkpt>
      <trkpt lat="46.30899" lon="-0.55742">
        <ele>57</ele>
        <time>2012-05-03T14:24:07Z</time>
      </trkpt>
      <trkpt lat="46.30898" lon="-0.5575">
        <ele>56</ele>
        <time>2012-05-03T14:24:12Z</time>
      </trkpt>
      <trkpt lat="46.30897" lon="-0.55758">
        <ele>56</ele>
        <time>2012-05-03T14:24:17Z</time>
      </trkpt>
      <trkpt lat="46.30897" lon="-0.55765">
        <ele>56</ele>
        <time>2012-05-03T14:24:22Z</time>
      </trkpt>
      <trkpt lat="46.30896" lon="-0.55774">
        <ele>56</ele>
        <time>2012-05-03T14:24:27Z</time>
      </trkpt>
      <trkpt lat="46.30894" lon="-0.55781">
        <ele>56</ele>
        <time>2012-05-03T14:24:32Z</time>
      </trkpt>
      <trkpt lat="46.30893" lon="-0.55789">
        <ele>57</ele>
        <time>2012-05-03T14:24:37Z</time>
      </trkpt>
      <trkpt lat="46.30893" lon="-0.55797">
        <ele>57</ele>
        <time>2012-05-03T14:24:42Z</time>
      </trkpt>
      <trkpt lat="46.30894" lon="-0.55804">
        <ele>58</ele>
        <time>2012-05-03T14:24:47Z</time>
      </trkpt>
      <trkpt lat="46.30894" lon="-0.55812">
        <ele>57</ele>
        <time>2012-05-03T14:24:52Z</time>
      </trkpt>
      <trkpt lat="46.30897" lon="-0.55816">
        <ele>57</ele>
        <time>2012-05-03T14:24:57Z</time>
      </trkpt>
      <trkpt lat="46.30899" lon="-0.55821">
        <ele>56</ele>
        <time>2012-05-03T14:25:02Z</time>
      </trkpt>
      <trkpt lat="46.30898" lon="-0.55828">
        <ele>56</ele>
        <time>2012-05-03T14:25:07Z</time>
      </trkpt>
      <trkpt lat="46.30899" lon="-0.55834">
        <ele>56</ele>
        <time>2012-05-03T14:25:12Z</time>
      </trkpt>
      <trkpt lat="46.309" lon="-0.55843">
        <ele>54</ele>
        <time>2012-05-03T14:25:17Z</time>
      </trkpt>
      <trkpt lat="46.30901" lon="-0.55852">
        <ele>54</ele>
        <time>2012-05-03T14:25:22Z</time>
      </trkpt>
      <trkpt lat="46.30902" lon="-0.55859">
        <ele>54</ele>
        <time>2012-05-03T14:25:27Z</time>
      </trkpt>
      <trkpt lat="46.30903" lon="-0.55866">
        <ele>55</ele>
        <time>2012-05-03T14:25:32Z</time>
      </trkpt>
      <trkpt lat="46.30903" lon="-0.55873">
        <ele>55</ele>
        <time>2012-05-03T14:25:37Z</time>
      </trkpt>
      <trkpt lat="46.30905" lon="-0.55881">
        <ele>53</ele>
        <time>2012-05-03T14:25:42Z</time>
      </trkpt>
      <trkpt lat="46.30903" lon="-0.55888">
        <ele>52</ele>
        <time>2012-05-03T14:25:47Z</time>
      </trkpt>
      <trkpt lat="46.30901" lon="-0.55897">
        <ele>53</ele>
        <time>2012-05-03T14:25:52Z</time>
      </trkpt>
      <trkpt lat="46.30901" lon="-0.55905">
        <ele>53</ele>
        <time>2012-05-03T14:25:57Z</time>
      </trkpt>
      <trkpt lat="46.309" lon="-0.55912">
        <ele>53</ele>
        <time>2012-05-03T14:26:02Z</time>
      </trkpt>
      <trkpt lat="46.30899" lon="-0.55919">
        <ele>52</ele>
        <time>2012-05-03T14:26:07Z</time>
      </trkpt>
      <trkpt lat="46.30898" lon="-0.55926">
        <ele>52</ele>
        <time>2012-05-03T14:26:12Z</time>
      </trkpt>
      <trkpt lat="46.30897" lon="-0.55933">
        <ele>53</ele>
        <time>2012-05-03T14:26:17Z</time>
      </trkpt>
      <trkpt lat="46.30896" lon="-0.55941">
        <ele>55</ele>
        <time>2012-05-03T14:26:22Z</time>
      </trkpt>
      <trkpt lat="46.30896" lon="-0.55947">
        <ele>55</ele>
        <time>2012-05-03T14:26:27Z</time>
      </trkpt>
      <trkpt lat="46.30894" lon="-0.55954">
        <ele>54</ele>
        <time>2012-05-03T14:26:32Z</time>
      </trkpt>
      <trkpt lat="46.30892" lon="-0.55962">
        <ele>54</ele>
        <time>2012-05-03T14:26:37Z</time>
      </trkpt>
      <trkpt lat="46.30891" lon="-0.5597">
        <ele>54</ele>
        <time>2012-05-03T14:26:42Z</time>
      </trkpt>
      <trkpt lat="46.30891" lon="-0.55977">
        <ele>54</ele>
        <time>2012-05-03T14:26:47Z</time>
      </trkpt>
      <trkpt lat="46.3089" lon="-0.55985">
        <ele>54</ele>
        <time>2012-05-03T14:26:52Z</time>
      </trkpt>
      <trkpt lat="46.30889" lon="-0.55993">
        <ele>54</ele>
        <time>2012-05-03T14:26:57Z</time>
      </trkpt>
      <trkpt lat="46.30886" lon="-0.56">
        <ele>55</ele>
        <time>2012-05-03T14:27:02Z</time>
      </trkpt>
      <trkpt lat="46.30884" lon="-0.56005">
        <ele>57</ele>
        <time>2012-05-03T14:27:07Z</time>
      </trkpt>
      <trkpt lat="46.30883" lon="-0.56012">
        <ele>56</ele>
        <time>2012-05-03T14:27:12Z</time>
      </trkpt>
      <trkpt lat="46.30882" lon="-0.5602">
        <ele>55</ele>
        <time>2012-05-03T14:27:17Z</time>
      </trkpt>
      <trkpt lat="46.30879" lon="-0.56025">
        <ele>55</ele>
        <time>2012-05-03T14:27:22Z</time>
      </trkpt>
      <trkpt lat="46.30876" lon="-0.56032">
        <ele>54</ele>
        <time>2012-05-03T14:27:27Z</time>
      </trkpt>
      <trkpt lat="46.30875" lon="-0.56038">
        <ele>55</ele>
        <time>2012-05-03T14:27:32Z</time>
      </trkpt>
      <trkpt lat="46.30871" lon="-0.56043">
        <ele>54</ele>
        <time>2012-05-03T14:27:37Z</time>
      </trkpt>
      <trkpt lat="46.30868" lon="-0.56048">
        <ele>53</ele>
        <time>2012-05-03T14:27:42Z</time>
      </trkpt>
      <trkpt lat="46.30864" lon="-0.56053">
        <ele>53</ele>
        <time>2012-05-03T14:27:47Z</time>
      </trkpt>
      <trkpt lat="46.30861" lon="-0.5606">
        <ele>53</ele>
        <time>2012-05-03T14:27:52Z</time>
      </trkpt>
      <trkpt lat="46.30859" lon="-0.56067">
        <ele>53</ele>
        <time>2012-05-03T14:27:57Z</time>
      </trkpt>
      <trkpt lat="46.30856" lon="-0.56072">
        <ele>52</ele>
        <time>2012-05-03T14:28:02Z</time>
      </trkpt>
      <trkpt lat="46.30854" lon="-0.5608">
        <ele>53</ele>
        <time>2012-05-03T14:28:07Z</time>
      </trkpt>
      <trkpt lat="46.30852" lon="-0.56086">
        <ele>55</ele>
        <time>2012-05-03T14:28:12Z</time>
      </trkpt>
      <trkpt lat="46.3085" lon="-0.56094">
        <ele>56</ele>
        <time>2012-05-03T14:28:17Z</time>
      </trkpt>
      <trkpt lat="46.30848" lon="-0.56099">
        <ele>55</ele>
        <time>2012-05-03T14:28:22Z</time>
      </trkpt>
      <trkpt lat="46.30846" lon="-0.56106">
        <ele>54</ele>
        <time>2012-05-03T14:28:27Z</time>
      </trkpt>
      <trkpt lat="46.30843" lon="-0.56115">
        <ele>53</ele>
        <time>2012-05-03T14:28:32Z</time>
      </trkpt>
      <trkpt lat="46.30842" lon="-0.5612">
        <ele>51</ele>
        <time>2012-05-03T14:28:37Z</time>
      </trkpt>
      <trkpt lat="46.3084" lon="-0.56126">
        <ele>51</ele>
        <time>2012-05-03T14:28:42Z</time>
      </trkpt>
      <trkpt lat="46.30838" lon="-0.56134">
        <ele>52</ele>
        <time>2012-05-03T14:28:47Z</time>
      </trkpt>
      <trkpt lat="46.30835" lon="-0.56142">
        <ele>52</ele>
        <time>2012-05-03T14:28:52Z</time>
      </trkpt>
      <trkpt lat="46.30833" lon="-0.56148">
        <ele>53</ele>
        <time>2012-05-03T14:28:57Z</time>
      </trkpt>
      <trkpt lat="46.30831" lon="-0.56155">
        <ele>54</ele>
        <time>2012-05-03T14:29:02Z</time>
      </trkpt>
      <trkpt lat="46.30827" lon="-0.56161">
        <ele>55</ele>
        <time>2012-05-03T14:29:07Z</time>
      </trkpt>
      <trkpt lat="46.30825" lon="-0.56167">
        <ele>54</ele>
        <time>2012-05-03T14:29:12Z</time>
      </trkpt>
      <trkpt lat="46.30823" lon="-0.56174">
        <ele>58</ele>
        <time>2012-05-03T14:29:17Z</time>
      </trkpt>
      <trkpt lat="46.30821" lon="-0.56182">
        <ele>59</ele>
        <time>2012-05-03T14:29:22Z</time>
      </trkpt>
      <trkpt lat="46.30818" lon="-0.56187">
        <ele>58</ele>
        <time>2012-05-03T14:29:27Z</time>
      </trkpt>
      <trkpt lat="46.30816" lon="-0.56194">
        <ele>58</ele>
        <time>2012-05-03T14:29:32Z</time>
      </trkpt>
      <trkpt lat="46.30813" lon="-0.562">
        <ele>58</ele>
        <time>2012-05-03T14:29:37Z</time>
      </trkpt>
      <trkpt lat="46.3081" lon="-0.56205">
        <ele>58</ele>
        <time>2012-05-03T14:29:42Z</time>
      </trkpt>
      <trkpt lat="46.30807" lon="-0.56209">
        <ele>58</ele>
        <time>2012-05-03T14:29:47Z</time>
      </trkpt>
      <trkpt lat="46.30802" lon="-0.56213">
        <ele>59</ele>
        <time>2012-05-03T14:29:52Z</time>
      </trkpt>
      <trkpt lat="46.30797" lon="-0.56216">
        <ele>60</ele>
        <time>2012-05-03T14:29:57Z</time>
      </trkpt>
      <trkpt lat="46.30794" lon="-0.56219">
        <ele>60</ele>
        <time>2012-05-03T14:30:02Z</time>
      </trkpt>
      <trkpt lat="46.30789" lon="-0.56222">
        <ele>59</ele>
        <time>2012-05-03T14:30:07Z</time>
      </trkpt>
      <trkpt lat="46.30786" lon="-0.56226">
        <ele>58</ele>
        <time>2012-05-03T14:30:12Z</time>
      </trkpt>
      <trkpt lat="46.30781" lon="-0.56231">
        <ele>59</ele>
        <time>2012-05-03T14:30:17Z</time>
      </trkpt>
      <trkpt lat="46.30776" lon="-0.56233">
        <ele>59</ele>
        <time>2012-05-03T14:30:22Z</time>
      </trkpt>
      <trkpt lat="46.30772" lon="-0.56237">
        <ele>58</ele>
        <time>2012-05-03T14:30:27Z</time>
      </trkpt>
      <trkpt lat="46.30767" lon="-0.56241">
        <ele>57</ele>
        <time>2012-05-03T14:30:32Z</time>
      </trkpt>
      <trkpt lat="46.30762" lon="-0.56244">
        <ele>56</ele>
        <time>2012-05-03T14:30:37Z</time>
      </trkpt>
      <trkpt lat="46.30758" lon="-0.56249">
        <ele>55</ele>
        <time>2012-05-03T14:30:42Z</time>
      </trkpt>
      <trkpt lat="46.30753" lon="-0.5625">
        <ele>55</ele>
        <time>2012-05-03T14:30:47Z</time>
      </trkpt>
      <trkpt lat="46.30748" lon="-0.56254">
        <ele>59</ele>
        <time>2012-05-03T14:30:52Z</time>
      </trkpt>
      <trkpt lat="46.30745" lon="-0.56258">
        <ele>58</ele>
        <time>2012-05-03T14:30:57Z</time>
      </trkpt>
      <trkpt lat="46.30741" lon="-0.56261">
        <ele>60</ele>
        <time>2012-05-03T14:31:02Z</time>
      </trkpt>
      <trkpt lat="46.30736" lon="-0.56263">
        <ele>59</ele>
        <time>2012-05-03T14:31:07Z</time>
      </trkpt>
      <trkpt lat="46.30731" lon="-0.56265">
        <ele>59</ele>
        <time>2012-05-03T14:31:12Z</time>
      </trkpt>
      <trkpt lat="46.30727" lon="-0.56268">
        <ele>58</ele>
        <time>2012-05-03T14:31:17Z</time>
      </trkpt>
      <trkpt lat="46.30722" lon="-0.56268">
        <ele>57</ele>
        <time>2012-05-03T14:31:22Z</time>
      </trkpt>
      <trkpt lat="46.30717" lon="-0.5627">
        <ele>56</ele>
        <time>2012-05-03T14:31:27Z</time>
      </trkpt>
      <trkpt lat="46.30713" lon="-0.56273">
        <ele>55</ele>
        <time>2012-05-03T14:31:32Z</time>
      </trkpt>
      <trkpt lat="46.30708" lon="-0.56275">
        <ele>54</ele>
        <time>2012-05-03T14:31:37Z</time>
      </trkpt>
      <trkpt lat="46.30704" lon="-0.56275">
        <ele>55</ele>
        <time>2012-05-03T14:31:42Z</time>
      </trkpt>
      <trkpt lat="46.30701" lon="-0.56278">
        <ele>56</ele>
        <time>2012-05-03T14:31:47Z</time>
      </trkpt>
      <trkpt lat="46.30696" lon="-0.56281">
        <ele>56</ele>
        <time>2012-05-03T14:31:52Z</time>
      </trkpt>
      <trkpt lat="46.30692" lon="-0.56286">
        <ele>56</ele>
        <time>2012-05-03T14:31:57Z</time>
      </trkpt>
      <trkpt lat="46.30688" lon="-0.5629">
        <ele>51</ele>
        <time>2012-05-03T14:32:02Z</time>
      </trkpt>
      <trkpt lat="46.30685" lon="-0.56295">
        <ele>52</ele>
        <time>2012-05-03T14:32:07Z</time>
      </trkpt>
      <trkpt lat="46.30681" lon="-0.56302">
        <ele>53</ele>
        <time>2012-05-03T14:32:12Z</time>
      </trkpt>
      <trkpt lat="46.30678" lon="-0.56307">
        <ele>53</ele>
        <time>2012-05-03T14:32:17Z</time>
      </trkpt>
      <trkpt lat="46.30675" lon="-0.56316">
        <ele>53</ele>
        <time>2012-05-03T14:32:22Z</time>
      </trkpt>
      <trkpt lat="46.30672" lon="-0.56321">
        <ele>53</ele>
        <time>2012-05-03T14:32:27Z</time>
      </trkpt>
      <trkpt lat="46.30669" lon="-0.56329">
        <ele>53</ele>
        <time>2012-05-03T14:32:32Z</time>
      </trkpt>
      <trkpt lat="46.30666" lon="-0.56335">
        <ele>55</ele>
        <time>2012-05-03T14:32:37Z</time>
      </trkpt>
      <trkpt lat="46.30663" lon="-0.56339">
        <ele>55</ele>
        <time>2012-05-03T14:32:42Z</time>
      </trkpt>
      <trkpt lat="46.3066" lon="-0.56343">
        <ele>55</ele>
        <time>2012-05-03T14:32:47Z</time>
      </trkpt>
      <trkpt lat="46.30657" lon="-0.56348">
        <ele>55</ele>
        <time>2012-05-03T14:32:52Z</time>
      </trkpt>
      <trkpt lat="46.30654" lon="-0.56354">
        <ele>57</ele>
        <time>2012-05-03T14:32:57Z</time>
      </trkpt>
      <trkpt lat="46.30649" lon="-0.56358">
        <ele>54</ele>
        <time>2012-05-03T14:33:02Z</time>
      </trkpt>
      <trkpt lat="46.30645" lon="-0.56362">
        <ele>55</ele>
        <time>2012-05-03T14:33:07Z</time>
      </trkpt>
      <trkpt lat="46.3064" lon="-0.56367">
        <ele>53</ele>
        <time>2012-05-03T14:33:12Z</time>
      </trkpt>
      <trkpt lat="46.30637" lon="-0.56371">
        <ele>54</ele>
        <time>2012-05-03T14:33:17Z</time>
      </trkpt>
      <trkpt lat="46.30634" lon="-0.56375">
        <ele>53</ele>
        <time>2012-05-03T14:33:22Z</time>
      </trkpt>
      <trkpt lat="46.30629" lon="-0.56378">
        <ele>54</ele>
        <time>2012-05-03T14:33:27Z</time>
      </trkpt>
      <trkpt lat="46.30625" lon="-0.56381">
        <ele>54</ele>
        <time>2012-05-03T14:33:32Z</time>
      </trkpt>
      <trkpt lat="46.3062" lon="-0.56384">
        <ele>55</ele>
        <time>2012-05-03T14:33:37Z</time>
      </trkpt>
      <trkpt lat="46.30617" lon="-0.56386">
        <ele>54</ele>
        <time>2012-05-03T14:33:42Z</time>
      </trkpt>
      <trkpt lat="46.30611" lon="-0.56388">
        <ele>55</ele>
        <time>2012-05-03T14:33:47Z</time>
      </trkpt>
      <trkpt lat="46.30607" lon="-0.56392">
        <ele>59</ele>
        <time>2012-05-03T14:33:52Z</time>
      </trkpt>
      <trkpt lat="46.30604" lon="-0.56396">
        <ele>60</ele>
        <time>2012-05-03T14:33:57Z</time>
      </trkpt>
      <trkpt lat="46.30598" lon="-0.56396">
        <ele>55</ele>
        <time>2012-05-03T14:34:02Z</time>
      </trkpt>
      <trkpt lat="46.30594" lon="-0.56398">
        <ele>56</ele>
        <time>2012-05-03T14:34:07Z</time>
      </trkpt>
      <trkpt lat="46.3059" lon="-0.56401">
        <ele>57</ele>
        <time>2012-05-03T14:34:12Z</time>
      </trkpt>
      <trkpt lat="46.30584" lon="-0.56404">
        <ele>59</ele>
        <time>2012-05-03T14:34:17Z</time>
      </trkpt>
      <trkpt lat="46.3058" lon="-0.56407">
        <ele>57</ele>
        <time>2012-05-03T14:34:22Z</time>
      </trkpt>
      <trkpt lat="46.30576" lon="-0.56408">
        <ele>57</ele>
        <time>2012-05-03T14:34:27Z</time>
      </trkpt>
      <trkpt lat="46.30571" lon="-0.56411">
        <ele>56</ele>
        <time>2012-05-03T14:34:32Z</time>
      </trkpt>
      <trkpt lat="46.30566" lon="-0.56412">
        <ele>58</ele>
        <time>2012-05-03T14:34:37Z</time>
      </trkpt>
      <trkpt lat="46.30562" lon="-0.56414">
        <ele>58</ele>
        <time>2012-05-03T14:34:42Z</time>
      </trkpt>
      <trkpt lat="46.30557" lon="-0.56415">
        <ele>57</ele>
        <time>2012-05-03T14:34:47Z</time>
      </trkpt>
      <trkpt lat="46.30552" lon="-0.56418">
        <ele>59</ele>
        <time>2012-05-03T14:34:52Z</time>
      </trkpt>
      <trkpt lat="46.30546" lon="-0.5642">
        <ele>60</ele>
        <time>2012-05-03T14:34:57Z</time>
      </trkpt>
      <trkpt lat="46.30541" lon="-0.56422">
        <ele>60</ele>
        <time>2012-05-03T14:35:02Z</time>
      </trkpt>
      <trkpt lat="46.30537" lon="-0.56423">
        <ele>59</ele>
        <time>2012-05-03T14:35:07Z</time>
      </trkpt>
      <trkpt lat="46.30532" lon="-0.56425">
        <ele>61</ele>
        <time>2012-05-03T14:35:12Z</time>
      </trkpt>
      <trkpt lat="46.30526" lon="-0.56426">
        <ele>59</ele>
        <time>2012-05-03T14:35:17Z</time>
      </trkpt>
      <trkpt lat="46.30522" lon="-0.56428">
        <ele>59</ele>
        <time>2012-05-03T14:35:22Z</time>
      </trkpt>
      <trkpt lat="46.30518" lon="-0.5643">
        <ele>58</ele>
        <time>2012-05-03T14:35:27Z</time>
      </trkpt>
      <trkpt lat="46.30513" lon="-0.56431">
        <ele>59</ele>
        <time>2012-05-03T14:35:32Z</time>
      </trkpt>
      <trkpt lat="46.30507" lon="-0.56433">
        <ele>57</ele>
        <time>2012-05-03T14:35:37Z</time>
      </trkpt>
      <trkpt lat="46.30501" lon="-0.56435">
        <ele>58</ele>
        <time>2012-05-03T14:35:42Z</time>
      </trkpt>
      <trkpt lat="46.30495" lon="-0.56435">
        <ele>60</ele>
        <time>2012-05-03T14:35:47Z</time>
      </trkpt>
      <trkpt lat="46.30489" lon="-0.56435">
        <ele>58</ele>
        <time>2012-05-03T14:35:52Z</time>
      </trkpt>
      <trkpt lat="46.30484" lon="-0.56438">
        <ele>58</ele>
        <time>2012-05-03T14:35:57Z</time>
      </trkpt>
      <trkpt lat="46.3048" lon="-0.56439">
        <ele>58</ele>
        <time>2012-05-03T14:36:02Z</time>
      </trkpt>
      <trkpt lat="46.30474" lon="-0.56441">
        <ele>56</ele>
        <time>2012-05-03T14:36:07Z</time>
      </trkpt>
      <trkpt lat="46.30469" lon="-0.56443">
        <ele>54</ele>
        <time>2012-05-03T14:36:12Z</time>
      </trkpt>
      <trkpt lat="46.30464" lon="-0.56446">
        <ele>54</ele>
        <time>2012-05-03T14:36:17Z</time>
      </trkpt>
      <trkpt lat="46.30459" lon="-0.56449">
        <ele>56</ele>
        <time>2012-05-03T14:36:22Z</time>
      </trkpt>
      <trkpt lat="46.30454" lon="-0.5645">
        <ele>56</ele>
        <time>2012-05-03T14:36:27Z</time>
      </trkpt>
      <trkpt lat="46.30449" lon="-0.56451">
        <ele>57</ele>
        <time>2012-05-03T14:36:32Z</time>
      </trkpt>
      <trkpt lat="46.30444" lon="-0.56454">
        <ele>59</ele>
        <time>2012-05-03T14:36:37Z</time>
      </trkpt>
      <trkpt lat="46.3044" lon="-0.56456">
        <ele>60</ele>
        <time>2012-05-03T14:36:42Z</time>
      </trkpt>
      <trkpt lat="46.30436" lon="-0.56458">
        <ele>60</ele>
        <time>2012-05-03T14:36:47Z</time>
      </trkpt>
      <trkpt lat="46.3043" lon="-0.56459">
        <ele>60</ele>
        <time>2012-05-03T14:36:52Z</time>
      </trkpt>
      <trkpt lat="46.30426" lon="-0.56462">
        <ele>59</ele>
        <time>2012-05-03T14:36:57Z</time>
      </trkpt>
      <trkpt lat="46.30421" lon="-0.56463">
        <ele>59</ele>
        <time>2012-05-03T14:37:02Z</time>
      </trkpt>
      <trkpt lat="46.30416" lon="-0.56465">
        <ele>59</ele>
        <time>2012-05-03T14:37:07Z</time>
      </trkpt>
      <trkpt lat="46.30411" lon="-0.56469">
        <ele>60</ele>
        <time>2012-05-03T14:37:12Z</time>
      </trkpt>
      <trkpt lat="46.30406" lon="-0.56472">
        <ele>58</ele>
        <time>2012-05-03T14:37:17Z</time>
      </trkpt>
      <trkpt lat="46.304" lon="-0.56474">
        <ele>58</ele>
        <time>2012-05-03T14:37:22Z</time>
      </trkpt>
      <trkpt lat="46.30395" lon="-0.56476">
        <ele>56</ele>
        <time>2012-05-03T14:37:27Z</time>
      </trkpt>
      <trkpt lat="46.3039" lon="-0.56478">
        <ele>54</ele>
        <time>2012-05-03T14:37:32Z</time>
      </trkpt>
      <trkpt lat="46.30384" lon="-0.56481">
        <ele>54</ele>
        <time>2012-05-03T14:37:37Z</time>
      </trkpt>
      <trkpt lat="46.30379" lon="-0.56483">
        <ele>53</ele>
        <time>2012-05-03T14:37:42Z</time>
      </trkpt>
      <trkpt lat="46.30374" lon="-0.56485">
        <ele>55</ele>
        <time>2012-05-03T14:37:47Z</time>
      </trkpt>
      <trkpt lat="46.30369" lon="-0.56487">
        <ele>55</ele>
        <time>2012-05-03T14:37:52Z</time>
      </trkpt>
      <trkpt lat="46.30363" lon="-0.56489">
        <ele>53</ele>
        <time>2012-05-03T14:37:57Z</time>
      </trkpt>
      <trkpt lat="46.30358" lon="-0.56492">
        <ele>52</ele>
        <time>2012-05-03T14:38:02Z</time>
      </trkpt>
      <trkpt lat="46.30353" lon="-0.56494">
        <ele>53</ele>
        <time>2012-05-03T14:38:07Z</time>
      </trkpt>
      <trkpt lat="46.30348" lon="-0.56496">
        <ele>53</ele>
        <time>2012-05-03T14:38:12Z</time>
      </trkpt>
      <trkpt lat="46.30343" lon="-0.56499">
        <ele>52</ele>
        <time>2012-05-03T14:38:17Z</time>
      </trkpt>
      <trkpt lat="46.30337" lon="-0.56502">
        <ele>54</ele>
        <time>2012-05-03T14:38:22Z</time>
      </trkpt>
      <trkpt lat="46.30332" lon="-0.56503">
        <ele>53</ele>
        <time>2012-05-03T14:38:27Z</time>
      </trkpt>
      <trkpt lat="46.30327" lon="-0.56504">
        <ele>53</ele>
        <time>2012-05-03T14:38:32Z</time>
      </trkpt>
      <trkpt lat="46.30323" lon="-0.56504">
        <ele>52</ele>
        <time>2012-05-03T14:38:37Z</time>
      </trkpt>
      <trkpt lat="46.30318" lon="-0.56506">
        <ele>51</ele>
        <time>2012-05-03T14:38:42Z</time>
      </trkpt>
      <trkpt lat="46.30313" lon="-0.56508">
        <ele>50</ele>
        <time>2012-05-03T14:38:47Z</time>
      </trkpt>
      <trkpt lat="46.30307" lon="-0.56511">
        <ele>53</ele>
        <time>2012-05-03T14:38:52Z</time>
      </trkpt>
      <trkpt lat="46.30302" lon="-0.56513">
        <ele>53</ele>
        <time>2012-05-03T14:38:57Z</time>
      </trkpt>
      <trkpt lat="46.30297" lon="-0.56515">
        <ele>53</ele>
        <time>2012-05-03T14:39:02Z</time>
      </trkpt>
      <trkpt lat="46.30293" lon="-0.56517">
        <ele>52</ele>
        <time>2012-05-03T14:39:07Z</time>
      </trkpt>
      <trkpt lat="46.30288" lon="-0.5652">
        <ele>54</ele>
        <time>2012-05-03T14:39:12Z</time>
      </trkpt>
      <trkpt lat="46.30283" lon="-0.56523">
        <ele>55</ele>
        <time>2012-05-03T14:39:17Z</time>
      </trkpt>
      <trkpt lat="46.30279" lon="-0.56525">
        <ele>54</ele>
        <time>2012-05-03T14:39:22Z</time>
      </trkpt>
      <trkpt lat="46.30277" lon="-0.56531">
        <ele>55</ele>
        <time>2012-05-03T14:39:27Z</time>
      </trkpt>
      <trkpt lat="46.30275" lon="-0.56539">
        <ele>56</ele>
        <time>2012-05-03T14:39:32Z</time>
      </trkpt>
      <trkpt lat="46.30275" lon="-0.56546">
        <ele>54</ele>
        <time>2012-05-03T14:39:37Z</time>
      </trkpt>
      <trkpt lat="46.30274" lon="-0.56553">
        <ele>54</ele>
        <time>2012-05-03T14:39:42Z</time>
      </trkpt>
      <trkpt lat="46.30275" lon="-0.56561">
        <ele>55</ele>
        <time>2012-05-03T14:39:47Z</time>
      </trkpt>
      <trkpt lat="46.30275" lon="-0.56568">
        <ele>55</ele>
        <time>2012-05-03T14:39:52Z</time>
      </trkpt>
      <trkpt lat="46.30275" lon="-0.56576">
        <ele>56</ele>
        <time>2012-05-03T14:39:57Z</time>
      </trkpt>
      <trkpt lat="46.30275" lon="-0.56584">
        <ele>56</ele>
        <time>2012-05-03T14:40:02Z</time>
      </trkpt>
      <trkpt lat="46.30275" lon="-0.56591">
        <ele>55</ele>
        <time>2012-05-03T14:40:07Z</time>
      </trkpt>
      <trkpt lat="46.30275" lon="-0.56598">
        <ele>54</ele>
        <time>2012-05-03T14:40:12Z</time>
      </trkpt>
      <trkpt lat="46.30275" lon="-0.56605">
        <ele>54</ele>
        <time>2012-05-03T14:40:17Z</time>
      </trkpt>
      <trkpt lat="46.30275" lon="-0.56613">
        <ele>54</ele>
        <time>2012-05-03T14:40:22Z</time>
      </trkpt>
      <trkpt lat="46.30274" lon="-0.56619">
        <ele>54</ele>
        <time>2012-05-03T14:40:27Z</time>
      </trkpt>
      <trkpt lat="46.30276" lon="-0.56625">
        <ele>53</ele>
        <time>2012-05-03T14:40:32Z</time>
      </trkpt>
      <trkpt lat="46.30277" lon="-0.56633">
        <ele>54</ele>
        <time>2012-05-03T14:40:37Z</time>
      </trkpt>
      <trkpt lat="46.30275" lon="-0.56639">
        <ele>54</ele>
        <time>2012-05-03T14:40:42Z</time>
      </trkpt>
      <trkpt lat="46.30275" lon="-0.56646">
        <ele>54</ele>
        <time>2012-05-03T14:40:47Z</time>
      </trkpt>
      <trkpt lat="46.30275" lon="-0.56653">
        <ele>54</ele>
        <time>2012-05-03T14:40:52Z</time>
      </trkpt>
      <trkpt lat="46.30274" lon="-0.56659">
        <ele>54</ele>
        <time>2012-05-03T14:40:57Z</time>
      </trkpt>
      <trkpt lat="46.30274" lon="-0.56666">
        <ele>53</ele>
        <time>2012-05-03T14:41:02Z</time>
      </trkpt>
      <trkpt lat="46.30274" lon="-0.56675">
        <ele>54</ele>
        <time>2012-05-03T14:41:07Z</time>
      </trkpt>
      <trkpt lat="46.30274" lon="-0.56682">
        <ele>54</ele>
        <time>2012-05-03T14:41:12Z</time>
      </trkpt>
      <trkpt lat="46.30275" lon="-0.56691">
        <ele>56</ele>
        <time>2012-05-03T14:41:17Z</time>
      </trkpt>
      <trkpt lat="46.30274" lon="-0.56698">
        <ele>56</ele>
        <time>2012-05-03T14:41:22Z</time>
      </trkpt>
      <trkpt lat="46.30274" lon="-0.56707">
        <ele>56</ele>
        <time>2012-05-03T14:41:27Z</time>
      </trkpt>
      <trkpt lat="46.30275" lon="-0.56714">
        <ele>56</ele>
        <time>2012-05-03T14:41:32Z</time>
      </trkpt>
      <trkpt lat="46.30275" lon="-0.56723">
        <ele>54</ele>
        <time>2012-05-03T14:41:37Z</time>
      </trkpt>
      <trkpt lat="46.30275" lon="-0.5673">
        <ele>53</ele>
        <time>2012-05-03T14:41:42Z</time>
      </trkpt>
      <trkpt lat="46.30276" lon="-0.56737">
        <ele>53</ele>
        <time>2012-05-03T14:41:47Z</time>
      </trkpt>
      <trkpt lat="46.30277" lon="-0.56746">
        <ele>55</ele>
        <time>2012-05-03T14:41:52Z</time>
      </trkpt>
      <trkpt lat="46.30278" lon="-0.56753">
        <ele>54</ele>
        <time>2012-05-03T14:41:57Z</time>
      </trkpt>
      <trkpt lat="46.30278" lon="-0.5676">
        <ele>54</ele>
        <time>2012-05-03T14:42:02Z</time>
      </trkpt>
      <trkpt lat="46.30279" lon="-0.56767">
        <ele>54</ele>
        <time>2012-05-03T14:42:07Z</time>
      </trkpt>
      <trkpt lat="46.30279" lon="-0.56772">
        <ele>53</ele>
        <time>2012-05-03T14:42:12Z</time>
      </trkpt>
      <trkpt lat="46.30279" lon="-0.56781">
        <ele>53</ele>
        <time>2012-05-03T14:42:17Z</time>
      </trkpt>
      <trkpt lat="46.3028" lon="-0.5679">
        <ele>53</ele>
        <time>2012-05-03T14:42:22Z</time>
      </trkpt>
      <trkpt lat="46.30281" lon="-0.56798">
        <ele>53</ele>
        <time>2012-05-03T14:42:27Z</time>
      </trkpt>
      <trkpt lat="46.30282" lon="-0.56803">
        <ele>52</ele>
        <time>2012-05-03T14:42:32Z</time>
      </trkpt>
      <trkpt lat="46.30282" lon="-0.56811">
        <ele>52</ele>
        <time>2012-05-03T14:42:37Z</time>
      </trkpt>
      <trkpt lat="46.30283" lon="-0.56823">
        <ele>54</ele>
        <time>2012-05-03T14:42:42Z</time>
      </trkpt>
      <trkpt lat="46.30286" lon="-0.56828">
        <ele>54</ele>
        <time>2012-05-03T14:42:47Z</time>
      </trkpt>
      <trkpt lat="46.30287" lon="-0.56835">
        <ele>54</ele>
        <time>2012-05-03T14:42:52Z</time>
      </trkpt>
      <trkpt lat="46.30288" lon="-0.56841">
        <ele>54</ele>
        <time>2012-05-03T14:42:57Z</time>
      </trkpt>
      <trkpt lat="46.30289" lon="-0.5685">
        <ele>53</ele>
        <time>2012-05-03T14:43:02Z</time>
      </trkpt>
      <trkpt lat="46.3029" lon="-0.56855">
        <ele>50</ele>
        <time>2012-05-03T14:43:07Z</time>
      </trkpt>
      <trkpt lat="46.30293" lon="-0.56859">
        <ele>50</ele>
        <time>2012-05-03T14:43:12Z</time>
      </trkpt>
      <trkpt lat="46.30295" lon="-0.56867">
        <ele>49</ele>
        <time>2012-05-03T14:43:17Z</time>
      </trkpt>
      <trkpt lat="46.30295" lon="-0.56877">
        <ele>51</ele>
        <time>2012-05-03T14:43:22Z</time>
      </trkpt>
      <trkpt lat="46.30298" lon="-0.56885">
        <ele>52</ele>
        <time>2012-05-03T14:43:27Z</time>
      </trkpt>
      <trkpt lat="46.303" lon="-0.56892">
        <ele>52</ele>
        <time>2012-05-03T14:43:32Z</time>
      </trkpt>
      <trkpt lat="46.30303" lon="-0.56898">
        <ele>52</ele>
        <time>2012-05-03T14:43:37Z</time>
      </trkpt>
      <trkpt lat="46.30305" lon="-0.56903">
        <ele>51</ele>
        <time>2012-05-03T14:43:42Z</time>
      </trkpt>
      <trkpt lat="46.30306" lon="-0.56911">
        <ele>50</ele>
        <time>2012-05-03T14:43:47Z</time>
      </trkpt>
      <trkpt lat="46.30308" lon="-0.56917">
        <ele>50</ele>
        <time>2012-05-03T14:43:52Z</time>
      </trkpt>
      <trkpt lat="46.3031" lon="-0.56925">
        <ele>51</ele>
        <time>2012-05-03T14:43:57Z</time>
      </trkpt>
      <trkpt lat="46.3031" lon="-0.56932">
        <ele>52</ele>
        <time>2012-05-03T14:44:02Z</time>
      </trkpt>
      <trkpt lat="46.30312" lon="-0.56939">
        <ele>51</ele>
        <time>2012-05-03T14:44:07Z</time>
      </trkpt>
      <trkpt lat="46.30315" lon="-0.56947">
        <ele>52</ele>
        <time>2012-05-03T14:44:12Z</time>
      </trkpt>
      <trkpt lat="46.30316" lon="-0.56955">
        <ele>52</ele>
        <time>2012-05-03T14:44:17Z</time>
      </trkpt>
      <trkpt lat="46.3032" lon="-0.5696">
        <ele>52</ele>
        <time>2012-05-03T14:44:22Z</time>
      </trkpt>
      <trkpt lat="46.30321" lon="-0.56968">
        <ele>53</ele>
        <time>2012-05-03T14:44:27Z</time>
      </trkpt>
      <trkpt lat="46.30321" lon="-0.56972">
        <ele>53</ele>
        <time>2012-05-03T14:44:32Z</time>
      </trkpt>
      <trkpt lat="46.30323" lon="-0.56982">
        <ele>54</ele>
        <time>2012-05-03T14:44:37Z</time>
      </trkpt>
      <trkpt lat="46.30325" lon="-0.56987">
        <ele>52</ele>
        <time>2012-05-03T14:44:42Z</time>
      </trkpt>
      <trkpt lat="46.30327" lon="-0.56994">
        <ele>52</ele>
        <time>2012-05-03T14:44:47Z</time>
      </trkpt>
      <trkpt lat="46.30328" lon="-0.56999">
        <ele>51</ele>
        <time>2012-05-03T14:44:52Z</time>
      </trkpt>
      <trkpt lat="46.30331" lon="-0.57007">
        <ele>52</ele>
        <time>2012-05-03T14:44:57Z</time>
      </trkpt>
      <trkpt lat="46.30331" lon="-0.57017">
        <ele>53</ele>
        <time>2012-05-03T14:45:02Z</time>
      </trkpt>
      <trkpt lat="46.30333" lon="-0.57025">
        <ele>53</ele>
        <time>2012-05-03T14:45:07Z</time>
      </trkpt>
      <trkpt lat="46.30334" lon="-0.5703">
        <ele>51</ele>
        <time>2012-05-03T14:45:12Z</time>
      </trkpt>
      <trkpt lat="46.30336" lon="-0.57036">
        <ele>50</ele>
        <time>2012-05-03T14:45:17Z</time>
      </trkpt>
      <trkpt lat="46.30337" lon="-0.57045">
        <ele>50</ele>
        <time>2012-05-03T14:45:22Z</time>
      </trkpt>
      <trkpt lat="46.30341" lon="-0.57052">
        <ele>50</ele>
        <time>2012-05-03T14:45:27Z</time>
      </trkpt>
      <trkpt lat="46.30342" lon="-0.57059">
        <ele>50</ele>
        <time>2012-05-03T14:45:32Z</time>
      </trkpt>
      <trkpt lat="46.30343" lon="-0.57068">
        <ele>50</ele>
        <time>2012-05-03T14:45:37Z</time>
      </trkpt>
      <trkpt lat="46.30346" lon="-0.57074">
        <ele>51</ele>
        <time>2012-05-03T14:45:42Z</time>
      </trkpt>
      <trkpt lat="46.30347" lon="-0.57082">
        <ele>53</ele>
        <time>2012-05-03T14:45:47Z</time>
      </trkpt>
      <trkpt lat="46.30349" lon="-0.57088">
        <ele>52</ele>
        <time>2012-05-03T14:45:52Z</time>
      </trkpt>
      <trkpt lat="46.30351" lon="-0.57094">
        <ele>51</ele>
        <time>2012-05-03T14:45:57Z</time>
      </trkpt>
      <trkpt lat="46.30353" lon="-0.57099">
        <ele>51</ele>
        <time>2012-05-03T14:46:02Z</time>
      </trkpt>
      <trkpt lat="46.30355" lon="-0.57107">
        <ele>51</ele>
        <time>2012-05-03T14:46:07Z</time>
      </trkpt>
      <trkpt lat="46.30356" lon="-0.57115">
        <ele>53</ele>
        <time>2012-05-03T14:46:12Z</time>
      </trkpt>
      <trkpt lat="46.30359" lon="-0.5712">
        <ele>50</ele>
        <time>2012-05-03T14:46:17Z</time>
      </trkpt>
      <trkpt lat="46.30361" lon="-0.57126">
        <ele>50</ele>
        <time>2012-05-03T14:46:22Z</time>
      </trkpt>
      <trkpt lat="46.30363" lon="-0.57131">
        <ele>52</ele>
        <time>2012-05-03T14:46:27Z</time>
      </trkpt>
      <trkpt lat="46.30366" lon="-0.57134">
        <ele>53</ele>
        <time>2012-05-03T14:46:32Z</time>
      </trkpt>
      <trkpt lat="46.30373" lon="-0.57132">
        <ele>52</ele>
        <time>2012-05-03T14:46:37Z</time>
      </trkpt>
      <trkpt lat="46.30376" lon="-0.57129">
        <ele>52</ele>
        <time>2012-05-03T14:46:42Z</time>
      </trkpt>
      <trkpt lat="46.30384" lon="-0.57128">
        <ele>52</ele>
        <time>2012-05-03T14:46:47Z</time>
      </trkpt>
      <trkpt lat="46.30389" lon="-0.57124">
        <ele>54</ele>
        <time>2012-05-03T14:46:52Z</time>
      </trkpt>
      <trkpt lat="46.3039" lon="-0.57121">
        <ele>57</ele>
        <time>2012-05-03T14:46:57Z</time>
      </trkpt>
      <trkpt lat="46.30396" lon="-0.57118">
        <ele>57</ele>
        <time>2012-05-03T14:47:02Z</time>
      </trkpt>
      <trkpt lat="46.304" lon="-0.57113">
        <ele>56</ele>
        <time>2012-05-03T14:47:07Z</time>
      </trkpt>
      <trkpt lat="46.30405" lon="-0.57109">
        <ele>55</ele>
        <time>2012-05-03T14:47:12Z</time>
      </trkpt>
      <trkpt lat="46.3041" lon="-0.57105">
        <ele>55</ele>
        <time>2012-05-03T14:47:17Z</time>
      </trkpt>
      <trkpt lat="46.30414" lon="-0.571">
        <ele>57</ele>
        <time>2012-05-03T14:47:22Z</time>
      </trkpt>
      <trkpt lat="46.30417" lon="-0.57098">
        <ele>57</ele>
        <time>2012-05-03T14:47:27Z</time>
      </trkpt>
      <trkpt lat="46.30421" lon="-0.57096">
        <ele>56</ele>
        <time>2012-05-03T14:47:32Z</time>
      </trkpt>
      <trkpt lat="46.30426" lon="-0.57092">
        <ele>55</ele>
        <time>2012-05-03T14:47:37Z</time>
      </trkpt>
      <trkpt lat="46.30429" lon="-0.57088">
        <ele>56</ele>
        <time>2012-05-03T14:47:42Z</time>
      </trkpt>
      <trkpt lat="46.30435" lon="-0.57085">
        <ele>56</ele>
        <time>2012-05-03T14:47:47Z</time>
      </trkpt>
      <trkpt lat="46.30439" lon="-0.57081">
        <ele>57</ele>
        <time>2012-05-03T14:47:52Z</time>
      </trkpt>
      <trkpt lat="46.30441" lon="-0.57077">
        <ele>57</ele>
        <time>2012-05-03T14:47:57Z</time>
      </trkpt>
      <trkpt lat="46.30446" lon="-0.57074">
        <ele>60</ele>
        <time>2012-05-03T14:48:02Z</time>
      </trkpt>
      <trkpt lat="46.3045" lon="-0.57072">
        <ele>57</ele>
        <time>2012-05-03T14:48:07Z</time>
      </trkpt>
      <trkpt lat="46.30455" lon="-0.57067">
        <ele>58</ele>
        <time>2012-05-03T14:48:12Z</time>
      </trkpt>
      <trkpt lat="46.3046" lon="-0.57065">
        <ele>57</ele>
        <time>2012-05-03T14:48:17Z</time>
      </trkpt>
      <trkpt lat="46.30464" lon="-0.57066">
        <ele>58</ele>
        <time>2012-05-03T14:48:22Z</time>
      </trkpt>
      <trkpt lat="46.3047" lon="-0.57072">
        <ele>58</ele>
        <time>2012-05-03T14:48:27Z</time>
      </trkpt>
      <trkpt lat="46.30472" lon="-0.57079">
        <ele>57</ele>
        <time>2012-05-03T14:48:32Z</time>
      </trkpt>
      <trkpt lat="46.30474" lon="-0.57087">
        <ele>58</ele>
        <time>2012-05-03T14:48:37Z</time>
      </trkpt>
      <trkpt lat="46.30477" lon="-0.57094">
        <ele>58</ele>
        <time>2012-05-03T14:48:42Z</time>
      </trkpt>
      <trkpt lat="46.3048" lon="-0.57099">
        <ele>57</ele>
        <time>2012-05-03T14:48:47Z</time>
      </trkpt>
      <trkpt lat="46.30482" lon="-0.57103">
        <ele>55</ele>
        <time>2012-05-03T14:48:52Z</time>
      </trkpt>
      <trkpt lat="46.30485" lon="-0.57106">
        <ele>53</ele>
        <time>2012-05-03T14:48:57Z</time>
      </trkpt>
      <trkpt lat="46.30485" lon="-0.57114">
        <ele>52</ele>
        <time>2012-05-03T14:49:02Z</time>
      </trkpt>
      <trkpt lat="46.30488" lon="-0.57121">
        <ele>54</ele>
        <time>2012-05-03T14:49:07Z</time>
      </trkpt>
      <trkpt lat="46.30491" lon="-0.57129">
        <ele>55</ele>
        <time>2012-05-03T14:49:12Z</time>
      </trkpt>
      <trkpt lat="46.30492" lon="-0.57136">
        <ele>53</ele>
        <time>2012-05-03T14:49:17Z</time>
      </trkpt>
      <trkpt lat="46.30494" lon="-0.57141">
        <ele>53</ele>
        <time>2012-05-03T14:49:22Z</time>
      </trkpt>
      <trkpt lat="46.30496" lon="-0.57147">
        <ele>53</ele>
        <time>2012-05-03T14:49:27Z</time>
      </trkpt>
      <trkpt lat="46.30499" lon="-0.57153">
        <ele>53</ele>
        <time>2012-05-03T14:49:32Z</time>
      </trkpt>
      <trkpt lat="46.30503" lon="-0.57158">
        <ele>52</ele>
        <time>2012-05-03T14:49:37Z</time>
      </trkpt>
      <trkpt lat="46.30504" lon="-0.57165">
        <ele>53</ele>
        <time>2012-05-03T14:49:42Z</time>
      </trkpt>
      <trkpt lat="46.30507" lon="-0.57173">
        <ele>54</ele>
        <time>2012-05-03T14:49:47Z</time>
      </trkpt>
      <trkpt lat="46.30509" lon="-0.57177">
        <ele>57</ele>
        <time>2012-05-03T14:49:52Z</time>
      </trkpt>
      <trkpt lat="46.30513" lon="-0.57185">
        <ele>59</ele>
        <time>2012-05-03T14:49:57Z</time>
      </trkpt>
      <trkpt lat="46.30516" lon="-0.57191">
        <ele>59</ele>
        <time>2012-05-03T14:50:02Z</time>
      </trkpt>
      <trkpt lat="46.30518" lon="-0.57195">
        <ele>59</ele>
        <time>2012-05-03T14:50:07Z</time>
      </trkpt>
      <trkpt lat="46.3052" lon="-0.57201">
        <ele>59</ele>
        <time>2012-05-03T14:50:12Z</time>
      </trkpt>
      <trkpt lat="46.30521" lon="-0.57207">
        <ele>57</ele>
        <time>2012-05-03T14:50:17Z</time>
      </trkpt>
      <trkpt lat="46.30522" lon="-0.57214">
        <ele>56</ele>
        <time>2012-05-03T14:50:22Z</time>
      </trkpt>
      <trkpt lat="46.30524" lon="-0.57221">
        <ele>54</ele>
        <time>2012-05-03T14:50:27Z</time>
      </trkpt>
      <trkpt lat="46.30528" lon="-0.57227">
        <ele>56</ele>
        <time>2012-05-03T14:50:32Z</time>
      </trkpt>
      <trkpt lat="46.30529" lon="-0.57234">
        <ele>56</ele>
        <time>2012-05-03T14:50:37Z</time>
      </trkpt>
      <trkpt lat="46.30533" lon="-0.5724">
        <ele>56</ele>
        <time>2012-05-03T14:50:42Z</time>
      </trkpt>
      <trkpt lat="46.30537" lon="-0.57245">
        <ele>53</ele>
        <time>2012-05-03T14:50:47Z</time>
      </trkpt>
      <trkpt lat="46.30538" lon="-0.57252">
        <ele>55</ele>
        <time>2012-05-03T14:50:52Z</time>
      </trkpt>
      <trkpt lat="46.30539" lon="-0.57257">
        <ele>55</ele>
        <time>2012-05-03T14:50:57Z</time>
      </trkpt>
      <trkpt lat="46.30542" lon="-0.57264">
        <ele>55</ele>
        <time>2012-05-03T14:51:02Z</time>
      </trkpt>
      <trkpt lat="46.30545" lon="-0.57269">
        <ele>53</ele>
        <time>2012-05-03T14:51:07Z</time>
      </trkpt>
      <trkpt lat="46.30547" lon="-0.57274">
        <ele>54</ele>
        <time>2012-05-03T14:51:12Z</time>
      </trkpt>
      <trkpt lat="46.30548" lon="-0.57277">
        <ele>54</ele>
        <time>2012-05-03T14:51:17Z</time>
      </trkpt>
      <trkpt lat="46.3055" lon="-0.57283">
        <ele>55</ele>
        <time>2012-05-03T14:51:22Z</time>
      </trkpt>
      <trkpt lat="46.30551" lon="-0.57293">
        <ele>58</ele>
        <time>2012-05-03T14:51:27Z</time>
      </trkpt>
      <trkpt lat="46.30553" lon="-0.57298">
        <ele>58</ele>
        <time>2012-05-03T14:51:32Z</time>
      </trkpt>
      <trkpt lat="46.30556" lon="-0.57305">
        <ele>59</ele>
        <time>2012-05-03T14:51:37Z</time>
      </trkpt>
      <trkpt lat="46.30558" lon="-0.57312">
        <ele>60</ele>
        <time>2012-05-03T14:51:42Z</time>
      </trkpt>
      <trkpt lat="46.30561" lon="-0.57318">
        <ele>58</ele>
        <time>2012-05-03T14:51:47Z</time>
      </trkpt>
      <trkpt lat="46.30564" lon="-0.57324">
        <ele>56</ele>
        <time>2012-05-03T14:51:52Z</time>
      </trkpt>
      <trkpt lat="46.30566" lon="-0.57331">
        <ele>55</ele>
        <time>2012-05-03T14:51:57Z</time>
      </trkpt>
      <trkpt lat="46.30567" lon="-0.57338">
        <ele>56</ele>
        <time>2012-05-03T14:52:02Z</time>
      </trkpt>
      <trkpt lat="46.30569" lon="-0.57343">
        <ele>55</ele>
        <time>2012-05-03T14:52:07Z</time>
      </trkpt>
      <trkpt lat="46.30571" lon="-0.57347">
        <ele>56</ele>
        <time>2012-05-03T14:52:12Z</time>
      </trkpt>
      <trkpt lat="46.30573" lon="-0.57354">
        <ele>55</ele>
        <time>2012-05-03T14:52:17Z</time>
      </trkpt>
      <trkpt lat="46.30576" lon="-0.5736">
        <ele>55</ele>
        <time>2012-05-03T14:52:22Z</time>
      </trkpt>
      <trkpt lat="46.30579" lon="-0.57365">
        <ele>56</ele>
        <time>2012-05-03T14:52:27Z</time>
      </trkpt>
      <trkpt lat="46.30582" lon="-0.57373">
        <ele>55</ele>
        <time>2012-05-03T14:52:32Z</time>
      </trkpt>
      <trkpt lat="46.30584" lon="-0.57379">
        <ele>57</ele>
        <time>2012-05-03T14:52:37Z</time>
      </trkpt>
      <trkpt lat="46.30585" lon="-0.57385">
        <ele>58</ele>
        <time>2012-05-03T14:52:42Z</time>
      </trkpt>
      <trkpt lat="46.30587" lon="-0.57392">
        <ele>59</ele>
        <time>2012-05-03T14:52:47Z</time>
      </trkpt>
      <trkpt lat="46.30589" lon="-0.57399">
        <ele>60</ele>
        <time>2012-05-03T14:52:52Z</time>
      </trkpt>
      <trkpt lat="46.30592" lon="-0.57406">
        <ele>60</ele>
        <time>2012-05-03T14:52:57Z</time>
      </trkpt>
      <trkpt lat="46.30593" lon="-0.57406">
        <ele>61</ele>
        <time>2012-05-03T14:53:02Z</time>
      </trkpt>
      <trkpt lat="46.30595" lon="-0.57406">
        <ele>61</ele>
        <time>2012-05-03T14:53:07Z</time>
      </trkpt>
      <trkpt lat="46.30595" lon="-0.57407">
        <ele>62</ele>
        <time>2012-05-03T14:53:12Z</time>
      </trkpt>
      <trkpt lat="46.30595" lon="-0.57411">
        <ele>62</ele>
        <time>2012-05-03T14:53:17Z</time>
      </trkpt>
      <trkpt lat="46.30596" lon="-0.57414">
        <ele>61</ele>
        <time>2012-05-03T14:53:22Z</time>
      </trkpt>
      <trkpt lat="46.30598" lon="-0.57415">
        <ele>59</ele>
        <time>2012-05-03T14:53:27Z</time>
      </trkpt>
      <trkpt lat="46.30599" lon="-0.57419">
        <ele>58</ele>
        <time>2012-05-03T14:53:32Z</time>
      </trkpt>
      <trkpt lat="46.30602" lon="-0.57424">
        <ele>56</ele>
        <time>2012-05-03T14:53:37Z</time>
      </trkpt>
      <trkpt lat="46.30605" lon="-0.57432">
        <ele>54</ele>
        <time>2012-05-03T14:53:42Z</time>
      </trkpt>
      <trkpt lat="46.30606" lon="-0.57439">
        <ele>53</ele>
        <time>2012-05-03T14:53:47Z</time>
      </trkpt>
      <trkpt lat="46.30606" lon="-0.57443">
        <ele>53</ele>
        <time>2012-05-03T14:53:52Z</time>
      </trkpt>
      <trkpt lat="46.30609" lon="-0.57449">
        <ele>54</ele>
        <time>2012-05-03T14:53:57Z</time>
      </trkpt>
      <trkpt lat="46.3061" lon="-0.57458">
        <ele>55</ele>
        <time>2012-05-03T14:54:02Z</time>
      </trkpt>
      <trkpt lat="46.30612" lon="-0.57466">
        <ele>55</ele>
        <time>2012-05-03T14:54:07Z</time>
      </trkpt>
      <trkpt lat="46.30614" lon="-0.5747">
        <ele>53</ele>
        <time>2012-05-03T14:54:12Z</time>
      </trkpt>
      <trkpt lat="46.30616" lon="-0.57476">
        <ele>55</ele>
        <time>2012-05-03T14:54:17Z</time>
      </trkpt>
      <trkpt lat="46.30617" lon="-0.57483">
        <ele>56</ele>
        <time>2012-05-03T14:54:22Z</time>
      </trkpt>
      <trkpt lat="46.30619" lon="-0.5749">
        <ele>56</ele>
        <time>2012-05-03T14:54:27Z</time>
      </trkpt>
      <trkpt lat="46.30621" lon="-0.57496">
        <ele>60</ele>
        <time>2012-05-03T14:54:32Z</time>
      </trkpt>
      <trkpt lat="46.30624" lon="-0.57502">
        <ele>59</ele>
        <time>2012-05-03T14:54:37Z</time>
      </trkpt>
      <trkpt lat="46.30627" lon="-0.5751">
        <ele>59</ele>
        <time>2012-05-03T14:54:42Z</time>
      </trkpt>
      <trkpt lat="46.3063" lon="-0.57515">
        <ele>57</ele>
        <time>2012-05-03T14:54:47Z</time>
      </trkpt>
      <trkpt lat="46.30631" lon="-0.57521">
        <ele>59</ele>
        <time>2012-05-03T14:54:52Z</time>
      </trkpt>
      <trkpt lat="46.30633" lon="-0.57525">
        <ele>59</ele>
        <time>2012-05-03T14:54:57Z</time>
      </trkpt>
      <trkpt lat="46.30634" lon="-0.57529">
        <ele>58</ele>
        <time>2012-05-03T14:55:02Z</time>
      </trkpt>
      <trkpt lat="46.30636" lon="-0.57539">
        <ele>60</ele>
        <time>2012-05-03T14:55:07Z</time>
      </trkpt>
      <trkpt lat="46.30642" lon="-0.57544">
        <ele>60</ele>
        <time>2012-05-03T14:55:12Z</time>
      </trkpt>
      <trkpt lat="46.30645" lon="-0.5754">
        <ele>59</ele>
        <time>2012-05-03T14:55:17Z</time>
      </trkpt>
      <trkpt lat="46.30647" lon="-0.57543">
        <ele>59</ele>
        <time>2012-05-03T14:55:22Z</time>
      </trkpt>
      <trkpt lat="46.30647" lon="-0.57545">
        <ele>57</ele>
        <time>2012-05-03T14:55:27Z</time>
      </trkpt>
      <trkpt lat="46.30653" lon="-0.57552">
        <ele>53</ele>
        <time>2012-05-03T14:55:32Z</time>
      </trkpt>
      <trkpt lat="46.30661" lon="-0.57555">
        <ele>54</ele>
        <time>2012-05-03T14:55:37Z</time>
      </trkpt>
      <trkpt lat="46.30666" lon="-0.57552">
        <ele>56</ele>
        <time>2012-05-03T14:55:42Z</time>
      </trkpt>
      <trkpt lat="46.30675" lon="-0.57548">
        <ele>59</ele>
        <time>2012-05-03T14:55:47Z</time>
      </trkpt>
      <trkpt lat="46.30681" lon="-0.57545">
        <ele>60</ele>
        <time>2012-05-03T14:55:52Z</time>
      </trkpt>
      <trkpt lat="46.30685" lon="-0.57542">
        <ele>59</ele>
        <time>2012-05-03T14:55:57Z</time>
      </trkpt>
      <trkpt lat="46.3069" lon="-0.57539">
        <ele>59</ele>
        <time>2012-05-03T14:56:02Z</time>
      </trkpt>
      <trkpt lat="46.30695" lon="-0.57539">
        <ele>61</ele>
        <time>2012-05-03T14:56:07Z</time>
      </trkpt>
      <trkpt lat="46.30698" lon="-0.57538">
        <ele>63</ele>
        <time>2012-05-03T14:56:12Z</time>
      </trkpt>
      <trkpt lat="46.30701" lon="-0.57535">
        <ele>63</ele>
        <time>2012-05-03T14:56:17Z</time>
      </trkpt>
      <trkpt lat="46.30704" lon="-0.5753">
        <ele>63</ele>
        <time>2012-05-03T14:56:22Z</time>
      </trkpt>
      <trkpt lat="46.30708" lon="-0.57528">
        <ele>62</ele>
        <time>2012-05-03T14:56:27Z</time>
      </trkpt>
      <trkpt lat="46.30708" lon="-0.57526">
        <ele>62</ele>
        <time>2012-05-03T14:56:32Z</time>
      </trkpt>
      <trkpt lat="46.3071" lon="-0.57527">
        <ele>62</ele>
        <time>2012-05-03T14:56:37Z</time>
      </trkpt>
      <trkpt lat="46.30712" lon="-0.57527">
        <ele>64</ele>
        <time>2012-05-03T14:56:42Z</time>
      </trkpt>
      <trkpt lat="46.30715" lon="-0.57524">
        <ele>62</ele>
        <time>2012-05-03T14:56:47Z</time>
      </trkpt>
      <trkpt lat="46.30716" lon="-0.57523">
        <ele>62</ele>
        <time>2012-05-03T14:56:52Z</time>
      </trkpt>
      <trkpt lat="46.30722" lon="-0.57521">
        <ele>63</ele>
        <time>2012-05-03T14:56:57Z</time>
      </trkpt>
      <trkpt lat="46.30727" lon="-0.57519">
        <ele>63</ele>
        <time>2012-05-03T14:57:02Z</time>
      </trkpt>
      <trkpt lat="46.30735" lon="-0.57518">
        <ele>64</ele>
        <time>2012-05-03T14:57:07Z</time>
      </trkpt>
      <trkpt lat="46.30741" lon="-0.57515">
        <ele>64</ele>
        <time>2012-05-03T14:57:12Z</time>
      </trkpt>
      <trkpt lat="46.30745" lon="-0.57514">
        <ele>63</ele>
        <time>2012-05-03T14:57:17Z</time>
      </trkpt>
      <trkpt lat="46.30749" lon="-0.5751">
        <ele>66</ele>
        <time>2012-05-03T14:57:22Z</time>
      </trkpt>
      <trkpt lat="46.30752" lon="-0.57508">
        <ele>69</ele>
        <time>2012-05-03T14:57:27Z</time>
      </trkpt>
      <trkpt lat="46.30754" lon="-0.57506">
        <ele>72</ele>
        <time>2012-05-03T14:57:32Z</time>
      </trkpt>
      <trkpt lat="46.30761" lon="-0.57502">
        <ele>69</ele>
        <time>2012-05-03T14:57:37Z</time>
      </trkpt>
      <trkpt lat="46.30766" lon="-0.575">
        <ele>68</ele>
        <time>2012-05-03T14:57:42Z</time>
      </trkpt>
      <trkpt lat="46.30771" lon="-0.57494">
        <ele>70</ele>
        <time>2012-05-03T14:57:47Z</time>
      </trkpt>
      <trkpt lat="46.30776" lon="-0.5749">
        <ele>69</ele>
        <time>2012-05-03T14:57:52Z</time>
      </trkpt>
      <trkpt lat="46.30781" lon="-0.57488">
        <ele>68</ele>
        <time>2012-05-03T14:57:57Z</time>
      </trkpt>
      <trkpt lat="46.30787" lon="-0.57484">
        <ele>68</ele>
        <time>2012-05-03T14:58:02Z</time>
      </trkpt>
      <trkpt lat="46.30791" lon="-0.57479">
        <ele>67</ele>
        <time>2012-05-03T14:58:07Z</time>
      </trkpt>
      <trkpt lat="46.30795" lon="-0.57477">
        <ele>65</ele>
        <time>2012-05-03T14:58:12Z</time>
      </trkpt>
      <trkpt lat="46.30801" lon="-0.57475">
        <ele>63</ele>
        <time>2012-05-03T14:58:17Z</time>
      </trkpt>
      <trkpt lat="46.30804" lon="-0.5747">
        <ele>62</ele>
        <time>2012-05-03T14:58:22Z</time>
      </trkpt>
      <trkpt lat="46.30808" lon="-0.57467">
        <ele>63</ele>
        <time>2012-05-03T14:58:27Z</time>
      </trkpt>
      <trkpt lat="46.30813" lon="-0.57466">
        <ele>61</ele>
        <time>2012-05-03T14:58:32Z</time>
      </trkpt>
      <trkpt lat="46.30816" lon="-0.57463">
        <ele>61</ele>
        <time>2012-05-03T14:58:37Z</time>
      </trkpt>
      <trkpt lat="46.3082" lon="-0.5746">
        <ele>61</ele>
        <time>2012-05-03T14:58:42Z</time>
      </trkpt>
      <trkpt lat="46.30825" lon="-0.57456">
        <ele>60</ele>
        <time>2012-05-03T14:58:47Z</time>
      </trkpt>
      <trkpt lat="46.30828" lon="-0.57453">
        <ele>61</ele>
        <time>2012-05-03T14:58:52Z</time>
      </trkpt>
      <trkpt lat="46.30832" lon="-0.57449">
        <ele>62</ele>
        <time>2012-05-03T14:58:57Z</time>
      </trkpt>
      <trkpt lat="46.30838" lon="-0.57446">
        <ele>60</ele>
        <time>2012-05-03T14:59:02Z</time>
      </trkpt>
      <trkpt lat="46.30843" lon="-0.57444">
        <ele>59</ele>
        <time>2012-05-03T14:59:07Z</time>
      </trkpt>
      <trkpt lat="46.30846" lon="-0.57441">
        <ele>57</ele>
        <time>2012-05-03T14:59:12Z</time>
      </trkpt>
      <trkpt lat="46.30848" lon="-0.5744">
        <ele>57</ele>
        <time>2012-05-03T14:59:17Z</time>
      </trkpt>
      <trkpt lat="46.3085" lon="-0.57443">
        <ele>63</ele>
        <time>2012-05-03T14:59:22Z</time>
      </trkpt>
      <trkpt lat="46.30855" lon="-0.57445">
        <ele>63</ele>
        <time>2012-05-03T14:59:27Z</time>
      </trkpt>
      <trkpt lat="46.30855" lon="-0.57445">
        <ele>63</ele>
        <time>2012-05-03T14:59:32Z</time>
      </trkpt>
      <trkpt lat="46.30856" lon="-0.57445">
        <ele>63</ele>
        <time>2012-05-03T14:59:37Z</time>
      </trkpt>
      <trkpt lat="46.30858" lon="-0.57445">
        <ele>62</ele>
        <time>2012-05-03T14:59:42Z</time>
      </trkpt>
      <trkpt lat="46.30861" lon="-0.57444">
        <ele>60</ele>
        <time>2012-05-03T14:59:47Z</time>
      </trkpt>
      <trkpt lat="46.30862" lon="-0.57446">
        <ele>61</ele>
        <time>2012-05-03T14:59:52Z</time>
      </trkpt>
      <trkpt lat="46.30863" lon="-0.5745">
        <ele>61</ele>
        <time>2012-05-03T14:59:57Z</time>
      </trkpt>
      <trkpt lat="46.30864" lon="-0.57459">
        <ele>57</ele>
        <time>2012-05-03T15:00:02Z</time>
      </trkpt>
      <trkpt lat="46.30866" lon="-0.57466">
        <ele>57</ele>
        <time>2012-05-03T15:00:07Z</time>
      </trkpt>
      <trkpt lat="46.3087" lon="-0.57469">
        <ele>56</ele>
        <time>2012-05-03T15:00:12Z</time>
      </trkpt>
      <trkpt lat="46.30874" lon="-0.57473">
        <ele>56</ele>
        <time>2012-05-03T15:00:17Z</time>
      </trkpt>
      <trkpt lat="46.30877" lon="-0.57472">
        <ele>54</ele>
        <time>2012-05-03T15:00:22Z</time>
      </trkpt>
      <trkpt lat="46.30883" lon="-0.57476">
        <ele>55</ele>
        <time>2012-05-03T15:00:27Z</time>
      </trkpt>
      <trkpt lat="46.30888" lon="-0.57479">
        <ele>55</ele>
        <time>2012-05-03T15:00:32Z</time>
      </trkpt>
      <trkpt lat="46.30893" lon="-0.57482">
        <ele>55</ele>
        <time>2012-05-03T15:00:37Z</time>
      </trkpt>
      <trkpt lat="46.30898" lon="-0.57485">
        <ele>56</ele>
        <time>2012-05-03T15:00:42Z</time>
      </trkpt>
      <trkpt lat="46.30903" lon="-0.57488">
        <ele>56</ele>
        <time>2012-05-03T15:00:47Z</time>
      </trkpt>
      <trkpt lat="46.30906" lon="-0.5749">
        <ele>56</ele>
        <time>2012-05-03T15:00:52Z</time>
      </trkpt>
      <trkpt lat="46.30911" lon="-0.57493">
        <ele>53</ele>
        <time>2012-05-03T15:00:57Z</time>
      </trkpt>
      <trkpt lat="46.30915" lon="-0.57496">
        <ele>53</ele>
        <time>2012-05-03T15:01:02Z</time>
      </trkpt>
      <trkpt lat="46.30919" lon="-0.57499">
        <ele>53</ele>
        <time>2012-05-03T15:01:07Z</time>
      </trkpt>
      <trkpt lat="46.30922" lon="-0.57503">
        <ele>54</ele>
        <time>2012-05-03T15:01:12Z</time>
      </trkpt>
      <trkpt lat="46.30923" lon="-0.57508">
        <ele>53</ele>
        <time>2012-05-03T15:01:17Z</time>
      </trkpt>
      <trkpt lat="46.30924" lon="-0.57514">
        <ele>56</ele>
        <time>2012-05-03T15:01:22Z</time>
      </trkpt>
      <trkpt lat="46.30921" lon="-0.5752">
        <ele>55</ele>
        <time>2012-05-03T15:01:27Z</time>
      </trkpt>
      <trkpt lat="46.30919" lon="-0.57525">
        <ele>57</ele>
        <time>2012-05-03T15:01:32Z</time>
      </trkpt>
      <trkpt lat="46.30916" lon="-0.5753">
        <ele>56</ele>
        <time>2012-05-03T15:01:37Z</time>
      </trkpt>
      <trkpt lat="46.30914" lon="-0.57535">
        <ele>56</ele>
        <time>2012-05-03T15:01:42Z</time>
      </trkpt>
      <trkpt lat="46.30912" lon="-0.57544">
        <ele>58</ele>
        <time>2012-05-03T15:01:47Z</time>
      </trkpt>
      <trkpt lat="46.30908" lon="-0.5755">
        <ele>59</ele>
        <time>2012-05-03T15:01:52Z</time>
      </trkpt>
      <trkpt lat="46.30907" lon="-0.57553">
        <ele>61</ele>
        <time>2012-05-03T15:01:57Z</time>
      </trkpt>
      <trkpt lat="46.30905" lon="-0.5756">
        <ele>62</ele>
        <time>2012-05-03T15:02:02Z</time>
      </trkpt>
      <trkpt lat="46.30903" lon="-0.57569">
        <ele>62</ele>
        <time>2012-05-03T15:02:07Z</time>
      </trkpt>
      <trkpt lat="46.30901" lon="-0.57579">
        <ele>61</ele>
        <time>2012-05-03T15:02:12Z</time>
      </trkpt>
      <trkpt lat="46.30903" lon="-0.57588">
        <ele>62</ele>
        <time>2012-05-03T15:02:17Z</time>
      </trkpt>
      <trkpt lat="46.30907" lon="-0.57591">
        <ele>61</ele>
        <time>2012-05-03T15:02:22Z</time>
      </trkpt>
      <trkpt lat="46.30912" lon="-0.57593">
        <ele>60</ele>
        <time>2012-05-03T15:02:27Z</time>
      </trkpt>
      <trkpt lat="46.30914" lon="-0.57595">
        <ele>58</ele>
        <time>2012-05-03T15:02:32Z</time>
      </trkpt>
      <trkpt lat="46.30915" lon="-0.57595">
        <ele>58</ele>
        <time>2012-05-03T15:02:37Z</time>
      </trkpt>
      <trkpt lat="46.30915" lon="-0.57595">
        <ele>59</ele>
        <time>2012-05-03T15:02:42Z</time>
      </trkpt>
      <trkpt lat="46.30919" lon="-0.57595">
        <ele>58</ele>
        <time>2012-05-03T15:02:52Z</time>
      </trkpt>
      <trkpt lat="46.30923" lon="-0.57598">
        <ele>57</ele>
        <time>2012-05-03T15:02:57Z</time>
      </trkpt>
      <trkpt lat="46.30927" lon="-0.57599">
        <ele>57</ele>
        <time>2012-05-03T15:03:02Z</time>
      </trkpt>
      <trkpt lat="46.30932" lon="-0.57599">
        <ele>57</ele>
        <time>2012-05-03T15:03:07Z</time>
      </trkpt>
      <trkpt lat="46.30937" lon="-0.576">
        <ele>57</ele>
        <time>2012-05-03T15:03:12Z</time>
      </trkpt>
      <trkpt lat="46.30941" lon="-0.57601">
        <ele>57</ele>
        <time>2012-05-03T15:03:17Z</time>
      </trkpt>
      <trkpt lat="46.30946" lon="-0.57603">
        <ele>58</ele>
        <time>2012-05-03T15:03:22Z</time>
      </trkpt>
      <trkpt lat="46.3095" lon="-0.57604">
        <ele>58</ele>
        <time>2012-05-03T15:03:27Z</time>
      </trkpt>
      <trkpt lat="46.30955" lon="-0.57604">
        <ele>57</ele>
        <time>2012-05-03T15:03:32Z</time>
      </trkpt>
      <trkpt lat="46.30959" lon="-0.57606">
        <ele>57</ele>
        <time>2012-05-03T15:03:37Z</time>
      </trkpt>
      <trkpt lat="46.30964" lon="-0.57606">
        <ele>56</ele>
        <time>2012-05-03T15:03:42Z</time>
      </trkpt>
      <trkpt lat="46.30969" lon="-0.57608">
        <ele>56</ele>
        <time>2012-05-03T15:03:47Z</time>
      </trkpt>
      <trkpt lat="46.30973" lon="-0.57609">
        <ele>56</ele>
        <time>2012-05-03T15:03:52Z</time>
      </trkpt>
      <trkpt lat="46.30978" lon="-0.5761">
        <ele>56</ele>
        <time>2012-05-03T15:03:57Z</time>
      </trkpt>
      <trkpt lat="46.30982" lon="-0.57608">
        <ele>56</ele>
        <time>2012-05-03T15:04:02Z</time>
      </trkpt>
      <trkpt lat="46.30987" lon="-0.57608">
        <ele>55</ele>
        <time>2012-05-03T15:04:07Z</time>
      </trkpt>
      <trkpt lat="46.30992" lon="-0.57608">
        <ele>54</ele>
        <time>2012-05-03T15:04:12Z</time>
      </trkpt>
      <trkpt lat="46.30997" lon="-0.57608">
        <ele>55</ele>
        <time>2012-05-03T15:04:17Z</time>
      </trkpt>
      <trkpt lat="46.31002" lon="-0.57608">
        <ele>56</ele>
        <time>2012-05-03T15:04:22Z</time>
      </trkpt>
      <trkpt lat="46.31007" lon="-0.57606">
        <ele>56</ele>
        <time>2012-05-03T15:04:27Z</time>
      </trkpt>
      <trkpt lat="46.31012" lon="-0.57606">
        <ele>55</ele>
        <time>2012-05-03T15:04:32Z</time>
      </trkpt>
      <trkpt lat="46.31017" lon="-0.57607">
        <ele>55</ele>
        <time>2012-05-03T15:04:37Z</time>
      </trkpt>
      <trkpt lat="46.31023" lon="-0.57607">
        <ele>54</ele>
        <time>2012-05-03T15:04:42Z</time>
      </trkpt>
      <trkpt lat="46.31028" lon="-0.57607">
        <ele>54</ele>
        <time>2012-05-03T15:04:47Z</time>
      </trkpt>
      <trkpt lat="46.31032" lon="-0.57605">
        <ele>54</ele>
        <time>2012-05-03T15:04:52Z</time>
      </trkpt>
      <trkpt lat="46.31037" lon="-0.57604">
        <ele>55</ele>
        <time>2012-05-03T15:04:57Z</time>
      </trkpt>
      <trkpt lat="46.31043" lon="-0.57604">
        <ele>56</ele>
        <time>2012-05-03T15:05:02Z</time>
      </trkpt>
      <trkpt lat="46.31047" lon="-0.57603">
        <ele>55</ele>
        <time>2012-05-03T15:05:07Z</time>
      </trkpt>
      <trkpt lat="46.31053" lon="-0.57603">
        <ele>56</ele>
        <time>2012-05-03T15:05:12Z</time>
      </trkpt>
      <trkpt lat="46.31058" lon="-0.57602">
        <ele>55</ele>
        <time>2012-05-03T15:05:17Z</time>
      </trkpt>
      <trkpt lat="46.31064" lon="-0.576">
        <ele>56</ele>
        <time>2012-05-03T15:05:22Z</time>
      </trkpt>
      <trkpt lat="46.31069" lon="-0.576">
        <ele>56</ele>
        <time>2012-05-03T15:05:27Z</time>
      </trkpt>
      <trkpt lat="46.31074" lon="-0.57602">
        <ele>56</ele>
        <time>2012-05-03T15:05:32Z</time>
      </trkpt>
      <trkpt lat="46.31078" lon="-0.57602">
        <ele>55</ele>
        <time>2012-05-03T15:05:37Z</time>
      </trkpt>
      <trkpt lat="46.31082" lon="-0.57601">
        <ele>55</ele>
        <time>2012-05-03T15:05:42Z</time>
      </trkpt>
      <trkpt lat="46.31085" lon="-0.57601">
        <ele>55</ele>
        <time>2012-05-03T15:05:47Z</time>
      </trkpt>
      <trkpt lat="46.31089" lon="-0.576">
        <ele>55</ele>
        <time>2012-05-03T15:05:52Z</time>
      </trkpt>
      <trkpt lat="46.31095" lon="-0.57601">
        <ele>56</ele>
        <time>2012-05-03T15:05:57Z</time>
      </trkpt>
      <trkpt lat="46.31099" lon="-0.57601">
        <ele>56</ele>
        <time>2012-05-03T15:06:02Z</time>
      </trkpt>
      <trkpt lat="46.31104" lon="-0.57602">
        <ele>56</ele>
        <time>2012-05-03T15:06:07Z</time>
      </trkpt>
      <trkpt lat="46.3111" lon="-0.57602">
        <ele>56</ele>
        <time>2012-05-03T15:06:12Z</time>
      </trkpt>
      <trkpt lat="46.31114" lon="-0.57602">
        <ele>56</ele>
        <time>2012-05-03T15:06:17Z</time>
      </trkpt>
      <trkpt lat="46.31119" lon="-0.57602">
        <ele>56</ele>
        <time>2012-05-03T15:06:22Z</time>
      </trkpt>
      <trkpt lat="46.31123" lon="-0.57602">
        <ele>56</ele>
        <time>2012-05-03T15:06:27Z</time>
      </trkpt>
      <trkpt lat="46.31128" lon="-0.57602">
        <ele>56</ele>
        <time>2012-05-03T15:06:32Z</time>
      </trkpt>
      <trkpt lat="46.31134" lon="-0.57602">
        <ele>56</ele>
        <time>2012-05-03T15:06:37Z</time>
      </trkpt>
      <trkpt lat="46.31139" lon="-0.57602">
        <ele>56</ele>
        <time>2012-05-03T15:06:42Z</time>
      </trkpt>
      <trkpt lat="46.31144" lon="-0.57602">
        <ele>56</ele>
        <time>2012-05-03T15:06:47Z</time>
      </trkpt>
      <trkpt lat="46.31149" lon="-0.57603">
        <ele>57</ele>
        <time>2012-05-03T15:06:52Z</time>
      </trkpt>
      <trkpt lat="46.31154" lon="-0.57604">
        <ele>57</ele>
        <time>2012-05-03T15:06:57Z</time>
      </trkpt>
      <trkpt lat="46.31159" lon="-0.57604">
        <ele>57</ele>
        <time>2012-05-03T15:07:02Z</time>
      </trkpt>
      <trkpt lat="46.31164" lon="-0.57604">
        <ele>58</ele>
        <time>2012-05-03T15:07:07Z</time>
      </trkpt>
      <trkpt lat="46.31169" lon="-0.57604">
        <ele>56</ele>
        <time>2012-05-03T15:07:12Z</time>
      </trkpt>
      <trkpt lat="46.31174" lon="-0.57603">
        <ele>57</ele>
        <time>2012-05-03T15:07:17Z</time>
      </trkpt>
      <trkpt lat="46.31178" lon="-0.57603">
        <ele>58</ele>
        <time>2012-05-03T15:07:22Z</time>
      </trkpt>
      <trkpt lat="46.31183" lon="-0.57605">
        <ele>57</ele>
        <time>2012-05-03T15:07:27Z</time>
      </trkpt>
      <trkpt lat="46.31188" lon="-0.57605">
        <ele>57</ele>
        <time>2012-05-03T15:07:32Z</time>
      </trkpt>
      <trkpt lat="46.31194" lon="-0.57606">
        <ele>57</ele>
        <time>2012-05-03T15:07:37Z</time>
      </trkpt>
      <trkpt lat="46.31199" lon="-0.57604">
        <ele>56</ele>
        <time>2012-05-03T15:07:42Z</time>
      </trkpt>
      <trkpt lat="46.31202" lon="-0.57602">
        <ele>57</ele>
        <time>2012-05-03T15:07:47Z</time>
      </trkpt>
      <trkpt lat="46.31206" lon="-0.57596">
        <ele>56</ele>
        <time>2012-05-03T15:07:52Z</time>
      </trkpt>
      <trkpt lat="46.31205" lon="-0.57589">
        <ele>56</ele>
        <time>2012-05-03T15:07:57Z</time>
      </trkpt>
      <trkpt lat="46.31206" lon="-0.57585">
        <ele>56</ele>
        <time>2012-05-03T15:08:02Z</time>
      </trkpt>
      <trkpt lat="46.31207" lon="-0.5758">
        <ele>55</ele>
        <time>2012-05-03T15:08:07Z</time>
      </trkpt>
      <trkpt lat="46.31208" lon="-0.57572">
        <ele>55</ele>
        <time>2012-05-03T15:08:12Z</time>
      </trkpt>
      <trkpt lat="46.31208" lon="-0.57566">
        <ele>54</ele>
        <time>2012-05-03T15:08:17Z</time>
      </trkpt>
      <trkpt lat="46.31208" lon="-0.57559">
        <ele>54</ele>
        <time>2012-05-03T15:08:22Z</time>
      </trkpt>
      <trkpt lat="46.3121" lon="-0.5755">
        <ele>55</ele>
        <time>2012-05-03T15:08:27Z</time>
      </trkpt>
      <trkpt lat="46.31211" lon="-0.57544">
        <ele>54</ele>
        <time>2012-05-03T15:08:32Z</time>
      </trkpt>
      <trkpt lat="46.31214" lon="-0.57536">
        <ele>54</ele>
        <time>2012-05-03T15:08:37Z</time>
      </trkpt>
      <trkpt lat="46.31215" lon="-0.57529">
        <ele>55</ele>
        <time>2012-05-03T15:08:42Z</time>
      </trkpt>
      <trkpt lat="46.31217" lon="-0.57522">
        <ele>53</ele>
        <time>2012-05-03T15:08:47Z</time>
      </trkpt>
      <trkpt lat="46.31219" lon="-0.57515">
        <ele>52</ele>
        <time>2012-05-03T15:08:52Z</time>
      </trkpt>
      <trkpt lat="46.31222" lon="-0.57509">
        <ele>52</ele>
        <time>2012-05-03T15:08:57Z</time>
      </trkpt>
      <trkpt lat="46.31226" lon="-0.57504">
        <ele>53</ele>
        <time>2012-05-03T15:09:02Z</time>
      </trkpt>
      <trkpt lat="46.31227" lon="-0.57496">
        <ele>52</ele>
        <time>2012-05-03T15:09:07Z</time>
      </trkpt>
      <trkpt lat="46.31231" lon="-0.5749">
        <ele>51</ele>
        <time>2012-05-03T15:09:12Z</time>
      </trkpt>
      <trkpt lat="46.31235" lon="-0.57485">
        <ele>50</ele>
        <time>2012-05-03T15:09:17Z</time>
      </trkpt>
      <trkpt lat="46.31239" lon="-0.57479">
        <ele>50</ele>
        <time>2012-05-03T15:09:22Z</time>
      </trkpt>
      <trkpt lat="46.3124" lon="-0.57473">
        <ele>52</ele>
        <time>2012-05-03T15:09:27Z</time>
      </trkpt>
      <trkpt lat="46.31244" lon="-0.57467">
        <ele>53</ele>
        <time>2012-05-03T15:09:32Z</time>
      </trkpt>
      <trkpt lat="46.31249" lon="-0.57461">
        <ele>52</ele>
        <time>2012-05-03T15:09:37Z</time>
      </trkpt>
      <trkpt lat="46.31253" lon="-0.57456">
        <ele>53</ele>
        <time>2012-05-03T15:09:42Z</time>
      </trkpt>
      <trkpt lat="46.31256" lon="-0.57449">
        <ele>53</ele>
        <time>2012-05-03T15:09:47Z</time>
      </trkpt>
      <trkpt lat="46.31258" lon="-0.57443">
        <ele>52</ele>
        <time>2012-05-03T15:09:52Z</time>
      </trkpt>
      <trkpt lat="46.31262" lon="-0.57437">
        <ele>52</ele>
        <time>2012-05-03T15:09:57Z</time>
      </trkpt>
      <trkpt lat="46.31266" lon="-0.57431">
        <ele>53</ele>
        <time>2012-05-03T15:10:02Z</time>
      </trkpt>
      <trkpt lat="46.31268" lon="-0.57424">
        <ele>52</ele>
        <time>2012-05-03T15:10:07Z</time>
      </trkpt>
      <trkpt lat="46.3127" lon="-0.57416">
        <ele>53</ele>
        <time>2012-05-03T15:10:12Z</time>
      </trkpt>
      <trkpt lat="46.31272" lon="-0.5741">
        <ele>52</ele>
        <time>2012-05-03T15:10:17Z</time>
      </trkpt>
      <trkpt lat="46.31272" lon="-0.57402">
        <ele>52</ele>
        <time>2012-05-03T15:10:22Z</time>
      </trkpt>
      <trkpt lat="46.31273" lon="-0.57395">
        <ele>52</ele>
        <time>2012-05-03T15:10:27Z</time>
      </trkpt>
      <trkpt lat="46.31274" lon="-0.57388">
        <ele>51</ele>
        <time>2012-05-03T15:10:32Z</time>
      </trkpt>
      <trkpt lat="46.31275" lon="-0.57381">
        <ele>50</ele>
        <time>2012-05-03T15:10:37Z</time>
      </trkpt>
      <trkpt lat="46.31275" lon="-0.57373">
        <ele>50</ele>
        <time>2012-05-03T15:10:42Z</time>
      </trkpt>
      <trkpt lat="46.31275" lon="-0.57365">
        <ele>50</ele>
        <time>2012-05-03T15:10:47Z</time>
      </trkpt>
      <trkpt lat="46.31275" lon="-0.57357">
        <ele>51</ele>
        <time>2012-05-03T15:10:52Z</time>
      </trkpt>
      <trkpt lat="46.31276" lon="-0.5735">
        <ele>53</ele>
        <time>2012-05-03T15:10:57Z</time>
      </trkpt>
      <trkpt lat="46.31275" lon="-0.57343">
        <ele>53</ele>
        <time>2012-05-03T15:11:02Z</time>
      </trkpt>
      <trkpt lat="46.31275" lon="-0.57336">
        <ele>54</ele>
        <time>2012-05-03T15:11:07Z</time>
      </trkpt>
      <trkpt lat="46.31276" lon="-0.57328">
        <ele>55</ele>
        <time>2012-05-03T15:11:12Z</time>
      </trkpt>
      <trkpt lat="46.31275" lon="-0.57321">
        <ele>55</ele>
        <time>2012-05-03T15:11:17Z</time>
      </trkpt>
      <trkpt lat="46.31274" lon="-0.57315">
        <ele>55</ele>
        <time>2012-05-03T15:11:22Z</time>
      </trkpt>
      <trkpt lat="46.31274" lon="-0.57308">
        <ele>55</ele>
        <time>2012-05-03T15:11:27Z</time>
      </trkpt>
      <trkpt lat="46.31275" lon="-0.573">
        <ele>55</ele>
        <time>2012-05-03T15:11:32Z</time>
      </trkpt>
      <trkpt lat="46.31274" lon="-0.57294">
        <ele>53</ele>
        <time>2012-05-03T15:11:37Z</time>
      </trkpt>
      <trkpt lat="46.31274" lon="-0.57287">
        <ele>52</ele>
        <time>2012-05-03T15:11:42Z</time>
      </trkpt>
      <trkpt lat="46.31275" lon="-0.57279">
        <ele>51</ele>
        <time>2012-05-03T15:11:47Z</time>
      </trkpt>
      <trkpt lat="46.31276" lon="-0.57271">
        <ele>51</ele>
        <time>2012-05-03T15:11:52Z</time>
      </trkpt>
      <trkpt lat="46.31276" lon="-0.57263">
        <ele>51</ele>
        <time>2012-05-03T15:11:57Z</time>
      </trkpt>
      <trkpt lat="46.31275" lon="-0.57256">
        <ele>52</ele>
        <time>2012-05-03T15:12:02Z</time>
      </trkpt>
      <trkpt lat="46.31275" lon="-0.57248">
        <ele>52</ele>
        <time>2012-05-03T15:12:07Z</time>
      </trkpt>
      <trkpt lat="46.31275" lon="-0.57239">
        <ele>53</ele>
        <time>2012-05-03T15:12:12Z</time>
      </trkpt>
      <trkpt lat="46.31275" lon="-0.57231">
        <ele>53</ele>
        <time>2012-05-03T15:12:17Z</time>
      </trkpt>
      <trkpt lat="46.31275" lon="-0.57224">
        <ele>54</ele>
        <time>2012-05-03T15:12:22Z</time>
      </trkpt>
      <trkpt lat="46.31275" lon="-0.57215">
        <ele>55</ele>
        <time>2012-05-03T15:12:27Z</time>
      </trkpt>
      <trkpt lat="46.31274" lon="-0.57208">
        <ele>54</ele>
        <time>2012-05-03T15:12:32Z</time>
      </trkpt>
      <trkpt lat="46.31274" lon="-0.572">
        <ele>54</ele>
        <time>2012-05-03T15:12:37Z</time>
      </trkpt>
      <trkpt lat="46.31272" lon="-0.57192">
        <ele>54</ele>
        <time>2012-05-03T15:12:42Z</time>
      </trkpt>
      <trkpt lat="46.31272" lon="-0.57183">
        <ele>53</ele>
        <time>2012-05-03T15:12:47Z</time>
      </trkpt>
      <trkpt lat="46.31272" lon="-0.57177">
        <ele>53</ele>
        <time>2012-05-03T15:12:52Z</time>
      </trkpt>
      <trkpt lat="46.31271" lon="-0.5717">
        <ele>52</ele>
        <time>2012-05-03T15:12:57Z</time>
      </trkpt>
      <trkpt lat="46.3127" lon="-0.57163">
        <ele>53</ele>
        <time>2012-05-03T15:13:02Z</time>
      </trkpt>
      <trkpt lat="46.31269" lon="-0.57154">
        <ele>54</ele>
        <time>2012-05-03T15:13:07Z</time>
      </trkpt>
      <trkpt lat="46.31269" lon="-0.57146">
        <ele>53</ele>
        <time>2012-05-03T15:13:12Z</time>
      </trkpt>
      <trkpt lat="46.31267" lon="-0.57139">
        <ele>52</ele>
        <time>2012-05-03T15:13:17Z</time>
      </trkpt>
      <trkpt lat="46.31266" lon="-0.57131">
        <ele>53</ele>
        <time>2012-05-03T15:13:22Z</time>
      </trkpt>
      <trkpt lat="46.31264" lon="-0.57122">
        <ele>51</ele>
        <time>2012-05-03T15:13:27Z</time>
      </trkpt>
      <trkpt lat="46.31263" lon="-0.57115">
        <ele>53</ele>
        <time>2012-05-03T15:13:32Z</time>
      </trkpt>
      <trkpt lat="46.31263" lon="-0.57107">
        <ele>54</ele>
        <time>2012-05-03T15:13:37Z</time>
      </trkpt>
      <trkpt lat="46.31262" lon="-0.571">
        <ele>55</ele>
        <time>2012-05-03T15:13:42Z</time>
      </trkpt>
      <trkpt lat="46.31261" lon="-0.57093">
        <ele>55</ele>
        <time>2012-05-03T15:13:47Z</time>
      </trkpt>
      <trkpt lat="46.31261" lon="-0.57085">
        <ele>55</ele>
        <time>2012-05-03T15:13:52Z</time>
      </trkpt>
      <trkpt lat="46.31262" lon="-0.57077">
        <ele>56</ele>
        <time>2012-05-03T15:13:57Z</time>
      </trkpt>
      <trkpt lat="46.31261" lon="-0.57068">
        <ele>54</ele>
        <time>2012-05-03T15:14:02Z</time>
      </trkpt>
      <trkpt lat="46.3126" lon="-0.57061">
        <ele>55</ele>
        <time>2012-05-03T15:14:07Z</time>
      </trkpt>
      <trkpt lat="46.3126" lon="-0.57054">
        <ele>55</ele>
        <time>2012-05-03T15:14:12Z</time>
      </trkpt>
      <trkpt lat="46.31258" lon="-0.57046">
        <ele>54</ele>
        <time>2012-05-03T15:14:17Z</time>
      </trkpt>
      <trkpt lat="46.31259" lon="-0.5704">
        <ele>54</ele>
        <time>2012-05-03T15:14:22Z</time>
      </trkpt>
      <trkpt lat="46.31259" lon="-0.57034">
        <ele>53</ele>
        <time>2012-05-03T15:14:27Z</time>
      </trkpt>
      <trkpt lat="46.3126" lon="-0.57025">
        <ele>54</ele>
        <time>2012-05-03T15:14:32Z</time>
      </trkpt>
      <trkpt lat="46.3126" lon="-0.57016">
        <ele>53</ele>
        <time>2012-05-03T15:14:37Z</time>
      </trkpt>
      <trkpt lat="46.31259" lon="-0.57008">
        <ele>52</ele>
        <time>2012-05-03T15:14:42Z</time>
      </trkpt>
      <trkpt lat="46.3126" lon="-0.57">
        <ele>53</ele>
        <time>2012-05-03T15:14:47Z</time>
      </trkpt>
      <trkpt lat="46.31259" lon="-0.56993">
        <ele>54</ele>
        <time>2012-05-03T15:14:52Z</time>
      </trkpt>
      <trkpt lat="46.3126" lon="-0.56986">
        <ele>54</ele>
        <time>2012-05-03T15:14:58Z</time>
      </trkpt>
      <trkpt lat="46.3126" lon="-0.56979">
        <ele>53</ele>
        <time>2012-05-03T15:15:02Z</time>
      </trkpt>
      <trkpt lat="46.3126" lon="-0.5697">
        <ele>54</ele>
        <time>2012-05-03T15:15:07Z</time>
      </trkpt>
      <trkpt lat="46.3126" lon="-0.56963">
        <ele>54</ele>
        <time>2012-05-03T15:15:12Z</time>
      </trkpt>
      <trkpt lat="46.3126" lon="-0.56956">
        <ele>56</ele>
        <time>2012-05-03T15:15:17Z</time>
      </trkpt>
      <trkpt lat="46.31261" lon="-0.56949">
        <ele>56</ele>
        <time>2012-05-03T15:15:22Z</time>
      </trkpt>
      <trkpt lat="46.31261" lon="-0.56942">
        <ele>57</ele>
        <time>2012-05-03T15:15:27Z</time>
      </trkpt>
      <trkpt lat="46.31261" lon="-0.56934">
        <ele>58</ele>
        <time>2012-05-03T15:15:32Z</time>
      </trkpt>
      <trkpt lat="46.31261" lon="-0.56926">
        <ele>57</ele>
        <time>2012-05-03T15:15:37Z</time>
      </trkpt>
      <trkpt lat="46.31262" lon="-0.56918">
        <ele>56</ele>
        <time>2012-05-03T15:15:42Z</time>
      </trkpt>
      <trkpt lat="46.3126" lon="-0.5691">
        <ele>55</ele>
        <time>2012-05-03T15:15:47Z</time>
      </trkpt>
      <trkpt lat="46.31261" lon="-0.56902">
        <ele>55</ele>
        <time>2012-05-03T15:15:52Z</time>
      </trkpt>
      <trkpt lat="46.31262" lon="-0.56896">
        <ele>56</ele>
        <time>2012-05-03T15:15:57Z</time>
      </trkpt>
      <trkpt lat="46.31262" lon="-0.5689">
        <ele>55</ele>
        <time>2012-05-03T15:16:02Z</time>
      </trkpt>
      <trkpt lat="46.31262" lon="-0.56883">
        <ele>56</ele>
        <time>2012-05-03T15:16:07Z</time>
      </trkpt>
      <trkpt lat="46.31262" lon="-0.56875">
        <ele>56</ele>
        <time>2012-05-03T15:16:12Z</time>
      </trkpt>
      <trkpt lat="46.3126" lon="-0.56867">
        <ele>54</ele>
        <time>2012-05-03T15:16:17Z</time>
      </trkpt>
      <trkpt lat="46.31262" lon="-0.5686">
        <ele>54</ele>
        <time>2012-05-03T15:16:22Z</time>
      </trkpt>
      <trkpt lat="46.31262" lon="-0.56852">
        <ele>55</ele>
        <time>2012-05-03T15:16:27Z</time>
      </trkpt>
      <trkpt lat="46.31263" lon="-0.56843">
        <ele>55</ele>
        <time>2012-05-03T15:16:32Z</time>
      </trkpt>
      <trkpt lat="46.31264" lon="-0.56836">
        <ele>55</ele>
        <time>2012-05-03T15:16:37Z</time>
      </trkpt>
      <trkpt lat="46.31265" lon="-0.56828">
        <ele>56</ele>
        <time>2012-05-03T15:16:42Z</time>
      </trkpt>
      <trkpt lat="46.31264" lon="-0.56822">
        <ele>56</ele>
        <time>2012-05-03T15:16:47Z</time>
      </trkpt>
      <trkpt lat="46.31263" lon="-0.56813">
        <ele>57</ele>
        <time>2012-05-03T15:16:52Z</time>
      </trkpt>
      <trkpt lat="46.31262" lon="-0.56805">
        <ele>57</ele>
        <time>2012-05-03T15:16:57Z</time>
      </trkpt>
      <trkpt lat="46.31263" lon="-0.56798">
        <ele>57</ele>
        <time>2012-05-03T15:17:02Z</time>
      </trkpt>
      <trkpt lat="46.31263" lon="-0.56789">
        <ele>56</ele>
        <time>2012-05-03T15:17:07Z</time>
      </trkpt>
      <trkpt lat="46.31264" lon="-0.56782">
        <ele>56</ele>
        <time>2012-05-03T15:17:12Z</time>
      </trkpt>
      <trkpt lat="46.31264" lon="-0.56775">
        <ele>55</ele>
        <time>2012-05-03T15:17:17Z</time>
      </trkpt>
      <trkpt lat="46.31266" lon="-0.56769">
        <ele>56</ele>
        <time>2012-05-03T15:17:22Z</time>
      </trkpt>
      <trkpt lat="46.31265" lon="-0.56761">
        <ele>55</ele>
        <time>2012-05-03T15:17:27Z</time>
      </trkpt>
      <trkpt lat="46.31266" lon="-0.56753">
        <ele>55</ele>
        <time>2012-05-03T15:17:32Z</time>
      </trkpt>
      <trkpt lat="46.31266" lon="-0.56746">
        <ele>55</ele>
        <time>2012-05-03T15:17:37Z</time>
      </trkpt>
      <trkpt lat="46.31266" lon="-0.56737">
        <ele>55</ele>
        <time>2012-05-03T15:17:42Z</time>
      </trkpt>
      <trkpt lat="46.31266" lon="-0.56731">
        <ele>55</ele>
        <time>2012-05-03T15:17:47Z</time>
      </trkpt>
      <trkpt lat="46.31267" lon="-0.56726">
        <ele>55</ele>
        <time>2012-05-03T15:17:52Z</time>
      </trkpt>
      <trkpt lat="46.31266" lon="-0.56719">
        <ele>55</ele>
        <time>2012-05-03T15:17:57Z</time>
      </trkpt>
      <trkpt lat="46.31265" lon="-0.56713">
        <ele>55</ele>
        <time>2012-05-03T15:18:02Z</time>
      </trkpt>
      <trkpt lat="46.31262" lon="-0.56707">
        <ele>55</ele>
        <time>2012-05-03T15:18:07Z</time>
      </trkpt>
      <trkpt lat="46.3126" lon="-0.56703">
        <ele>56</ele>
        <time>2012-05-03T15:18:12Z</time>
      </trkpt>
      <trkpt lat="46.31256" lon="-0.56701">
        <ele>56</ele>
        <time>2012-05-03T15:18:17Z</time>
      </trkpt>
      <trkpt lat="46.31253" lon="-0.56701">
        <ele>56</ele>
        <time>2012-05-03T15:18:22Z</time>
      </trkpt>
      <trkpt lat="46.31248" lon="-0.56701">
        <ele>57</ele>
        <time>2012-05-03T15:18:27Z</time>
      </trkpt>
      <trkpt lat="46.31242" lon="-0.56702">
        <ele>58</ele>
        <time>2012-05-03T15:18:32Z</time>
      </trkpt>
      <trkpt lat="46.31238" lon="-0.56704">
        <ele>58</ele>
        <time>2012-05-03T15:18:37Z</time>
      </trkpt>
      <trkpt lat="46.31232" lon="-0.56706">
        <ele>59</ele>
        <time>2012-05-03T15:18:42Z</time>
      </trkpt>
      <trkpt lat="46.31227" lon="-0.56707">
        <ele>59</ele>
        <time>2012-05-03T15:18:47Z</time>
      </trkpt>
      <trkpt lat="46.31222" lon="-0.56708">
        <ele>58</ele>
        <time>2012-05-03T15:18:52Z</time>
      </trkpt>
      <trkpt lat="46.31217" lon="-0.5671">
        <ele>58</ele>
        <time>2012-05-03T15:18:57Z</time>
      </trkpt>
      <trkpt lat="46.31213" lon="-0.56712">
        <ele>58</ele>
        <time>2012-05-03T15:19:02Z</time>
      </trkpt>
      <trkpt lat="46.31208" lon="-0.56714">
        <ele>59</ele>
        <time>2012-05-03T15:19:07Z</time>
      </trkpt>
      <trkpt lat="46.31203" lon="-0.56715">
        <ele>59</ele>
        <time>2012-05-03T15:19:12Z</time>
      </trkpt>
      <trkpt lat="46.31198" lon="-0.56714">
        <ele>60</ele>
        <time>2012-05-03T15:19:17Z</time>
      </trkpt>
      <trkpt lat="46.31191" lon="-0.56713">
        <ele>61</ele>
        <time>2012-05-03T15:19:22Z</time>
      </trkpt>
      <trkpt lat="46.31186" lon="-0.5671">
        <ele>60</ele>
        <time>2012-05-03T15:19:27Z</time>
      </trkpt>
      <trkpt lat="46.31182" lon="-0.56707">
        <ele>61</ele>
        <time>2012-05-03T15:19:32Z</time>
      </trkpt>
      <trkpt lat="46.31178" lon="-0.56703">
        <ele>62</ele>
        <time>2012-05-03T15:19:37Z</time>
      </trkpt>
      <trkpt lat="46.31175" lon="-0.56698">
        <ele>61</ele>
        <time>2012-05-03T15:19:42Z</time>
      </trkpt>
      <trkpt lat="46.31173" lon="-0.56694">
        <ele>62</ele>
        <time>2012-05-03T15:19:47Z</time>
      </trkpt>
      <trkpt lat="46.31171" lon="-0.5669">
        <ele>61</ele>
        <time>2012-05-03T15:19:52Z</time>
      </trkpt>
      <trkpt lat="46.31169" lon="-0.56683">
        <ele>60</ele>
        <time>2012-05-03T15:19:57Z</time>
      </trkpt>
      <trkpt lat="46.31168" lon="-0.56675">
        <ele>59</ele>
        <time>2012-05-03T15:20:02Z</time>
      </trkpt>
      <trkpt lat="46.31166" lon="-0.56668">
        <ele>59</ele>
        <time>2012-05-03T15:20:07Z</time>
      </trkpt>
      <trkpt lat="46.31166" lon="-0.5666">
        <ele>59</ele>
        <time>2012-05-03T15:20:12Z</time>
      </trkpt>
      <trkpt lat="46.31165" lon="-0.56653">
        <ele>57</ele>
        <time>2012-05-03T15:20:17Z</time>
      </trkpt>
      <trkpt lat="46.31165" lon="-0.56647">
        <ele>56</ele>
        <time>2012-05-03T15:20:22Z</time>
      </trkpt>
      <trkpt lat="46.31164" lon="-0.56641">
        <ele>58</ele>
        <time>2012-05-03T15:20:27Z</time>
      </trkpt>
      <trkpt lat="46.31164" lon="-0.56633">
        <ele>58</ele>
        <time>2012-05-03T15:20:32Z</time>
      </trkpt>
      <trkpt lat="46.31163" lon="-0.56625">
        <ele>58</ele>
        <time>2012-05-03T15:20:37Z</time>
      </trkpt>
      <trkpt lat="46.31162" lon="-0.56618">
        <ele>56</ele>
        <time>2012-05-03T15:20:42Z</time>
      </trkpt>
      <trkpt lat="46.31164" lon="-0.56611">
        <ele>56</ele>
        <time>2012-05-03T15:20:47Z</time>
      </trkpt>
      <trkpt lat="46.31164" lon="-0.56605">
        <ele>57</ele>
        <time>2012-05-03T15:20:52Z</time>
      </trkpt>
      <trkpt lat="46.31165" lon="-0.56599">
        <ele>58</ele>
        <time>2012-05-03T15:20:57Z</time>
      </trkpt>
      <trkpt lat="46.31166" lon="-0.56591">
        <ele>57</ele>
        <time>2012-05-03T15:21:02Z</time>
      </trkpt>
      <trkpt lat="46.31166" lon="-0.56585">
        <ele>59</ele>
        <time>2012-05-03T15:21:07Z</time>
      </trkpt>
      <trkpt lat="46.31166" lon="-0.5658">
        <ele>59</ele>
        <time>2012-05-03T15:21:12Z</time>
      </trkpt>
      <trkpt lat="46.3117" lon="-0.56574">
        <ele>63</ele>
        <time>2012-05-03T15:21:17Z</time>
      </trkpt>
      <trkpt lat="46.31169" lon="-0.56568">
        <ele>64</ele>
        <time>2012-05-03T15:21:22Z</time>
      </trkpt>
      <trkpt lat="46.31169" lon="-0.5656">
        <ele>62</ele>
        <time>2012-05-03T15:21:27Z</time>
      </trkpt>
      <trkpt lat="46.31169" lon="-0.56553">
        <ele>62</ele>
        <time>2012-05-03T15:21:32Z</time>
      </trkpt>
      <trkpt lat="46.31169" lon="-0.56547">
        <ele>61</ele>
        <time>2012-05-03T15:21:37Z</time>
      </trkpt>
      <trkpt lat="46.31169" lon="-0.5654">
        <ele>62</ele>
        <time>2012-05-03T15:21:42Z</time>
      </trkpt>
      <trkpt lat="46.31172" lon="-0.56532">
        <ele>62</ele>
        <time>2012-05-03T15:21:48Z</time>
      </trkpt>
      <trkpt lat="46.31172" lon="-0.56526">
        <ele>62</ele>
        <time>2012-05-03T15:21:52Z</time>
      </trkpt>
      <trkpt lat="46.31172" lon="-0.5652">
        <ele>60</ele>
        <time>2012-05-03T15:21:57Z</time>
      </trkpt>
      <trkpt lat="46.31172" lon="-0.56513">
        <ele>60</ele>
        <time>2012-05-03T15:22:02Z</time>
      </trkpt>
      <trkpt lat="46.31173" lon="-0.56506">
        <ele>59</ele>
        <time>2012-05-03T15:22:07Z</time>
      </trkpt>
      <trkpt lat="46.31173" lon="-0.56499">
        <ele>60</ele>
        <time>2012-05-03T15:22:12Z</time>
      </trkpt>
      <trkpt lat="46.31176" lon="-0.56492">
        <ele>61</ele>
        <time>2012-05-03T15:22:17Z</time>
      </trkpt>
      <trkpt lat="46.31175" lon="-0.56486">
        <ele>61</ele>
        <time>2012-05-03T15:22:22Z</time>
      </trkpt>
      <trkpt lat="46.31175" lon="-0.56479">
        <ele>62</ele>
        <time>2012-05-03T15:22:27Z</time>
      </trkpt>
      <trkpt lat="46.31177" lon="-0.56473">
        <ele>62</ele>
        <time>2012-05-03T15:22:32Z</time>
      </trkpt>
      <trkpt lat="46.31178" lon="-0.56467">
        <ele>63</ele>
        <time>2012-05-03T15:22:37Z</time>
      </trkpt>
      <trkpt lat="46.31179" lon="-0.5646">
        <ele>61</ele>
        <time>2012-05-03T15:22:42Z</time>
      </trkpt>
      <trkpt lat="46.31179" lon="-0.56451">
        <ele>61</ele>
        <time>2012-05-03T15:22:47Z</time>
      </trkpt>
      <trkpt lat="46.3118" lon="-0.56444">
        <ele>60</ele>
        <time>2012-05-03T15:22:52Z</time>
      </trkpt>
      <trkpt lat="46.31181" lon="-0.56438">
        <ele>61</ele>
        <time>2012-05-03T15:22:57Z</time>
      </trkpt>
      <trkpt lat="46.3118" lon="-0.5643">
        <ele>61</ele>
        <time>2012-05-03T15:23:02Z</time>
      </trkpt>
      <trkpt lat="46.31182" lon="-0.56425">
        <ele>59</ele>
        <time>2012-05-03T15:23:07Z</time>
      </trkpt>
      <trkpt lat="46.31184" lon="-0.56419">
        <ele>60</ele>
        <time>2012-05-03T15:23:12Z</time>
      </trkpt>
      <trkpt lat="46.31184" lon="-0.56412">
        <ele>59</ele>
        <time>2012-05-03T15:23:17Z</time>
      </trkpt>
      <trkpt lat="46.31185" lon="-0.56405">
        <ele>60</ele>
        <time>2012-05-03T15:23:22Z</time>
      </trkpt>
      <trkpt lat="46.31186" lon="-0.56399">
        <ele>60</ele>
        <time>2012-05-03T15:23:27Z</time>
      </trkpt>
      <trkpt lat="46.31187" lon="-0.56392">
        <ele>60</ele>
        <time>2012-05-03T15:23:32Z</time>
      </trkpt>
      <trkpt lat="46.31191" lon="-0.56386">
        <ele>62</ele>
        <time>2012-05-03T15:23:37Z</time>
      </trkpt>
      <trkpt lat="46.31192" lon="-0.56381">
        <ele>63</ele>
        <time>2012-05-03T15:23:42Z</time>
      </trkpt>
      <trkpt lat="46.31194" lon="-0.56376">
        <ele>64</ele>
        <time>2012-05-03T15:23:47Z</time>
      </trkpt>
      <trkpt lat="46.31195" lon="-0.56369">
        <ele>63</ele>
        <time>2012-05-03T15:23:52Z</time>
      </trkpt>
      <trkpt lat="46.31196" lon="-0.56361">
        <ele>63</ele>
        <time>2012-05-03T15:23:57Z</time>
      </trkpt>
      <trkpt lat="46.31197" lon="-0.56353">
        <ele>61</ele>
        <time>2012-05-03T15:24:02Z</time>
      </trkpt>
      <trkpt lat="46.31196" lon="-0.56347">
        <ele>59</ele>
        <time>2012-05-03T15:24:07Z</time>
      </trkpt>
      <trkpt lat="46.31195" lon="-0.5634">
        <ele>59</ele>
        <time>2012-05-03T15:24:12Z</time>
      </trkpt>
      <trkpt lat="46.31195" lon="-0.56334">
        <ele>58</ele>
        <time>2012-05-03T15:24:17Z</time>
      </trkpt>
      <trkpt lat="46.31198" lon="-0.56326">
        <ele>60</ele>
        <time>2012-05-03T15:24:22Z</time>
      </trkpt>
      <trkpt lat="46.31198" lon="-0.5632">
        <ele>61</ele>
        <time>2012-05-03T15:24:27Z</time>
      </trkpt>
      <trkpt lat="46.312" lon="-0.56315">
        <ele>61</ele>
        <time>2012-05-03T15:24:32Z</time>
      </trkpt>
      <trkpt lat="46.312" lon="-0.56308">
        <ele>60</ele>
        <time>2012-05-03T15:24:37Z</time>
      </trkpt>
      <trkpt lat="46.31202" lon="-0.56301">
        <ele>60</ele>
        <time>2012-05-03T15:24:42Z</time>
      </trkpt>
      <trkpt lat="46.31202" lon="-0.56295">
        <ele>59</ele>
        <time>2012-05-03T15:24:47Z</time>
      </trkpt>
      <trkpt lat="46.31201" lon="-0.56288">
        <ele>58</ele>
        <time>2012-05-03T15:24:52Z</time>
      </trkpt>
      <trkpt lat="46.312" lon="-0.56282">
        <ele>58</ele>
        <time>2012-05-03T15:24:57Z</time>
      </trkpt>
      <trkpt lat="46.31201" lon="-0.56275">
        <ele>58</ele>
        <time>2012-05-03T15:25:02Z</time>
      </trkpt>
      <trkpt lat="46.31201" lon="-0.56268">
        <ele>58</ele>
        <time>2012-05-03T15:25:07Z</time>
      </trkpt>
      <trkpt lat="46.31202" lon="-0.56261">
        <ele>58</ele>
        <time>2012-05-03T15:25:12Z</time>
      </trkpt>
      <trkpt lat="46.31202" lon="-0.56254">
        <ele>58</ele>
        <time>2012-05-03T15:25:17Z</time>
      </trkpt>
      <trkpt lat="46.31203" lon="-0.56248">
        <ele>58</ele>
        <time>2012-05-03T15:25:22Z</time>
      </trkpt>
      <trkpt lat="46.31203" lon="-0.56241">
        <ele>59</ele>
        <time>2012-05-03T15:25:27Z</time>
      </trkpt>
      <trkpt lat="46.31202" lon="-0.56237">
        <ele>60</ele>
        <time>2012-05-03T15:25:32Z</time>
      </trkpt>
      <trkpt lat="46.31202" lon="-0.5623">
        <ele>60</ele>
        <time>2012-05-03T15:25:37Z</time>
      </trkpt>
      <trkpt lat="46.31201" lon="-0.56222">
        <ele>57</ele>
        <time>2012-05-03T15:25:42Z</time>
      </trkpt>
      <trkpt lat="46.31202" lon="-0.56215">
        <ele>58</ele>
        <time>2012-05-03T15:25:47Z</time>
      </trkpt>
      <trkpt lat="46.312" lon="-0.56208">
        <ele>58</ele>
        <time>2012-05-03T15:25:52Z</time>
      </trkpt>
      <trkpt lat="46.31202" lon="-0.56201">
        <ele>57</ele>
        <time>2012-05-03T15:25:57Z</time>
      </trkpt>
      <trkpt lat="46.31201" lon="-0.56195">
        <ele>58</ele>
        <time>2012-05-03T15:26:02Z</time>
      </trkpt>
      <trkpt lat="46.31201" lon="-0.56188">
        <ele>58</ele>
        <time>2012-05-03T15:26:07Z</time>
      </trkpt>
      <trkpt lat="46.31201" lon="-0.56182">
        <ele>58</ele>
        <time>2012-05-03T15:26:12Z</time>
      </trkpt>
      <trkpt lat="46.31201" lon="-0.56175">
        <ele>58</ele>
        <time>2012-05-03T15:26:17Z</time>
      </trkpt>
      <trkpt lat="46.312" lon="-0.56169">
        <ele>59</ele>
        <time>2012-05-03T15:26:22Z</time>
      </trkpt>
      <trkpt lat="46.31199" lon="-0.56162">
        <ele>61</ele>
        <time>2012-05-03T15:26:27Z</time>
      </trkpt>
      <trkpt lat="46.31199" lon="-0.56155">
        <ele>61</ele>
        <time>2012-05-03T15:26:32Z</time>
      </trkpt>
      <trkpt lat="46.31199" lon="-0.56149">
        <ele>61</ele>
        <time>2012-05-03T15:26:37Z</time>
      </trkpt>
      <trkpt lat="46.31198" lon="-0.56142">
        <ele>61</ele>
        <time>2012-05-03T15:26:42Z</time>
      </trkpt>
      <trkpt lat="46.31198" lon="-0.56137">
        <ele>61</ele>
        <time>2012-05-03T15:26:47Z</time>
      </trkpt>
      <trkpt lat="46.31197" lon="-0.56131">
        <ele>61</ele>
        <time>2012-05-03T15:26:52Z</time>
      </trkpt>
      <trkpt lat="46.31196" lon="-0.56124">
        <ele>61</ele>
        <time>2012-05-03T15:26:57Z</time>
      </trkpt>
      <trkpt lat="46.31196" lon="-0.56119">
        <ele>61</ele>
        <time>2012-05-03T15:27:02Z</time>
      </trkpt>
      <trkpt lat="46.31195" lon="-0.56111">
        <ele>61</ele>
        <time>2012-05-03T15:27:07Z</time>
      </trkpt>
      <trkpt lat="46.31194" lon="-0.56104">
        <ele>61</ele>
        <time>2012-05-03T15:27:12Z</time>
      </trkpt>
      <trkpt lat="46.31193" lon="-0.56096">
        <ele>61</ele>
        <time>2012-05-03T15:27:17Z</time>
      </trkpt>
      <trkpt lat="46.31192" lon="-0.56089">
        <ele>61</ele>
        <time>2012-05-03T15:27:22Z</time>
      </trkpt>
      <trkpt lat="46.31192" lon="-0.56083">
        <ele>60</ele>
        <time>2012-05-03T15:27:27Z</time>
      </trkpt>
      <trkpt lat="46.31193" lon="-0.56076">
        <ele>60</ele>
        <time>2012-05-03T15:27:32Z</time>
      </trkpt>
      <trkpt lat="46.31193" lon="-0.5607">
        <ele>60</ele>
        <time>2012-05-03T15:27:37Z</time>
      </trkpt>
      <trkpt lat="46.31193" lon="-0.56064">
        <ele>61</ele>
        <time>2012-05-03T15:27:42Z</time>
      </trkpt>
      <trkpt lat="46.31193" lon="-0.56057">
        <ele>61</ele>
        <time>2012-05-03T15:27:47Z</time>
      </trkpt>
      <trkpt lat="46.31193" lon="-0.5605">
        <ele>61</ele>
        <time>2012-05-03T15:27:52Z</time>
      </trkpt>
      <trkpt lat="46.31193" lon="-0.56043">
        <ele>61</ele>
        <time>2012-05-03T15:27:57Z</time>
      </trkpt>
      <trkpt lat="46.31192" lon="-0.56035">
        <ele>62</ele>
        <time>2012-05-03T15:28:02Z</time>
      </trkpt>
      <trkpt lat="46.31193" lon="-0.56028">
        <ele>63</ele>
        <time>2012-05-03T15:28:07Z</time>
      </trkpt>
      <trkpt lat="46.31194" lon="-0.56022">
        <ele>63</ele>
        <time>2012-05-03T15:28:12Z</time>
      </trkpt>
      <trkpt lat="46.31193" lon="-0.56021">
        <ele>63</ele>
        <time>2012-05-03T15:28:17Z</time>
      </trkpt>
      <trkpt lat="46.31194" lon="-0.56014">
        <ele>63</ele>
        <time>2012-05-03T15:28:22Z</time>
      </trkpt>
      <trkpt lat="46.31196" lon="-0.56008">
        <ele>64</ele>
        <time>2012-05-03T15:28:27Z</time>
      </trkpt>
      <trkpt lat="46.31198" lon="-0.56001">
        <ele>65</ele>
        <time>2012-05-03T15:28:32Z</time>
      </trkpt>
      <trkpt lat="46.31198" lon="-0.55994">
        <ele>66</ele>
        <time>2012-05-03T15:28:37Z</time>
      </trkpt>
      <trkpt lat="46.31198" lon="-0.55989">
        <ele>66</ele>
        <time>2012-05-03T15:28:42Z</time>
      </trkpt>
      <trkpt lat="46.31197" lon="-0.55981">
        <ele>66</ele>
        <time>2012-05-03T15:28:47Z</time>
      </trkpt>
      <trkpt lat="46.31195" lon="-0.55973">
        <ele>63</ele>
        <time>2012-05-03T15:28:52Z</time>
      </trkpt>
      <trkpt lat="46.31194" lon="-0.55966">
        <ele>62</ele>
        <time>2012-05-03T15:28:57Z</time>
      </trkpt>
      <trkpt lat="46.31195" lon="-0.55958">
        <ele>62</ele>
        <time>2012-05-03T15:29:02Z</time>
      </trkpt>
      <trkpt lat="46.31196" lon="-0.55953">
        <ele>60</ele>
        <time>2012-05-03T15:29:07Z</time>
      </trkpt>
      <trkpt lat="46.31196" lon="-0.55946">
        <ele>60</ele>
        <time>2012-05-03T15:29:12Z</time>
      </trkpt>
      <trkpt lat="46.31196" lon="-0.55939">
        <ele>61</ele>
        <time>2012-05-03T15:29:17Z</time>
      </trkpt>
      <trkpt lat="46.31196" lon="-0.55932">
        <ele>62</ele>
        <time>2012-05-03T15:29:22Z</time>
      </trkpt>
      <trkpt lat="46.31195" lon="-0.55925">
        <ele>61</ele>
        <time>2012-05-03T15:29:27Z</time>
      </trkpt>
      <trkpt lat="46.31195" lon="-0.55919">
        <ele>62</ele>
        <time>2012-05-03T15:29:32Z</time>
      </trkpt>
      <trkpt lat="46.31195" lon="-0.55912">
        <ele>62</ele>
        <time>2012-05-03T15:29:37Z</time>
      </trkpt>
      <trkpt lat="46.31195" lon="-0.55906">
        <ele>61</ele>
        <time>2012-05-03T15:29:42Z</time>
      </trkpt>
      <trkpt lat="46.31194" lon="-0.559">
        <ele>62</ele>
        <time>2012-05-03T15:29:47Z</time>
      </trkpt>
      <trkpt lat="46.31193" lon="-0.55893">
        <ele>62</ele>
        <time>2012-05-03T15:29:52Z</time>
      </trkpt>
      <trkpt lat="46.31194" lon="-0.55887">
        <ele>63</ele>
        <time>2012-05-03T15:29:57Z</time>
      </trkpt>
      <trkpt lat="46.31194" lon="-0.5588">
        <ele>64</ele>
        <time>2012-05-03T15:30:02Z</time>
      </trkpt>
      <trkpt lat="46.31194" lon="-0.55873">
        <ele>65</ele>
        <time>2012-05-03T15:30:07Z</time>
      </trkpt>
      <trkpt lat="46.31194" lon="-0.55865">
        <ele>65</ele>
        <time>2012-05-03T15:30:12Z</time>
      </trkpt>
      <trkpt lat="46.31194" lon="-0.55859">
        <ele>64</ele>
        <time>2012-05-03T15:30:17Z</time>
      </trkpt>
      <trkpt lat="46.31194" lon="-0.55851">
        <ele>65</ele>
        <time>2012-05-03T15:30:22Z</time>
      </trkpt>
      <trkpt lat="46.31195" lon="-0.55844">
        <ele>65</ele>
        <time>2012-05-03T15:30:27Z</time>
      </trkpt>
      <trkpt lat="46.31194" lon="-0.55836">
        <ele>66</ele>
        <time>2012-05-03T15:30:32Z</time>
      </trkpt>
      <trkpt lat="46.31193" lon="-0.55828">
        <ele>65</ele>
        <time>2012-05-03T15:30:37Z</time>
      </trkpt>
      <trkpt lat="46.31194" lon="-0.5582">
        <ele>65</ele>
        <time>2012-05-03T15:30:42Z</time>
      </trkpt>
      <trkpt lat="46.31194" lon="-0.55814">
        <ele>65</ele>
        <time>2012-05-03T15:30:47Z</time>
      </trkpt>
      <trkpt lat="46.31192" lon="-0.55808">
        <ele>65</ele>
        <time>2012-05-03T15:30:52Z</time>
      </trkpt>
      <trkpt lat="46.31192" lon="-0.558">
        <ele>66</ele>
        <time>2012-05-03T15:30:57Z</time>
      </trkpt>
      <trkpt lat="46.31191" lon="-0.55794">
        <ele>65</ele>
        <time>2012-05-03T15:31:02Z</time>
      </trkpt>
      <trkpt lat="46.31189" lon="-0.55787">
        <ele>65</ele>
        <time>2012-05-03T15:31:07Z</time>
      </trkpt>
      <trkpt lat="46.31187" lon="-0.5578">
        <ele>64</ele>
        <time>2012-05-03T15:31:12Z</time>
      </trkpt>
      <trkpt lat="46.31186" lon="-0.55773">
        <ele>63</ele>
        <time>2012-05-03T15:31:17Z</time>
      </trkpt>
      <trkpt lat="46.31186" lon="-0.55766">
        <ele>63</ele>
        <time>2012-05-03T15:31:22Z</time>
      </trkpt>
      <trkpt lat="46.31185" lon="-0.55759">
        <ele>62</ele>
        <time>2012-05-03T15:31:27Z</time>
      </trkpt>
      <trkpt lat="46.31184" lon="-0.55752">
        <ele>62</ele>
        <time>2012-05-03T15:31:32Z</time>
      </trkpt>
      <trkpt lat="46.31184" lon="-0.55744">
        <ele>62</ele>
        <time>2012-05-03T15:31:37Z</time>
      </trkpt>
      <trkpt lat="46.31182" lon="-0.55737">
        <ele>62</ele>
        <time>2012-05-03T15:31:42Z</time>
      </trkpt>
      <trkpt lat="46.31181" lon="-0.5573">
        <ele>62</ele>
        <time>2012-05-03T15:31:47Z</time>
      </trkpt>
      <trkpt lat="46.31181" lon="-0.55725">
        <ele>61</ele>
        <time>2012-05-03T15:31:52Z</time>
      </trkpt>
      <trkpt lat="46.3118" lon="-0.55718">
        <ele>61</ele>
        <time>2012-05-03T15:31:57Z</time>
      </trkpt>
      <trkpt lat="46.31179" lon="-0.55711">
        <ele>62</ele>
        <time>2012-05-03T15:32:02Z</time>
      </trkpt>
      <trkpt lat="46.31179" lon="-0.55704">
        <ele>62</ele>
        <time>2012-05-03T15:32:07Z</time>
      </trkpt>
      <trkpt lat="46.31178" lon="-0.55697">
        <ele>62</ele>
        <time>2012-05-03T15:32:12Z</time>
      </trkpt>
      <trkpt lat="46.31177" lon="-0.5569">
        <ele>62</ele>
        <time>2012-05-03T15:32:17Z</time>
      </trkpt>
      <trkpt lat="46.31177" lon="-0.55684">
        <ele>63</ele>
        <time>2012-05-03T15:32:22Z</time>
      </trkpt>
      <trkpt lat="46.31176" lon="-0.55676">
        <ele>63</ele>
        <time>2012-05-03T15:32:27Z</time>
      </trkpt>
      <trkpt lat="46.31175" lon="-0.55669">
        <ele>63</ele>
        <time>2012-05-03T15:32:32Z</time>
      </trkpt>
      <trkpt lat="46.31173" lon="-0.55662">
        <ele>62</ele>
        <time>2012-05-03T15:32:37Z</time>
      </trkpt>
      <trkpt lat="46.31172" lon="-0.55655">
        <ele>63</ele>
        <time>2012-05-03T15:32:42Z</time>
      </trkpt>
      <trkpt lat="46.31171" lon="-0.55649">
        <ele>63</ele>
        <time>2012-05-03T15:32:47Z</time>
      </trkpt>
      <trkpt lat="46.31171" lon="-0.55641">
        <ele>63</ele>
        <time>2012-05-03T15:32:52Z</time>
      </trkpt>
      <trkpt lat="46.31172" lon="-0.55635">
        <ele>63</ele>
        <time>2012-05-03T15:32:57Z</time>
      </trkpt>
      <trkpt lat="46.31172" lon="-0.55627">
        <ele>63</ele>
        <time>2012-05-03T15:33:02Z</time>
      </trkpt>
      <trkpt lat="46.31172" lon="-0.5562">
        <ele>64</ele>
        <time>2012-05-03T15:33:07Z</time>
      </trkpt>
      <trkpt lat="46.31172" lon="-0.55615">
        <ele>65</ele>
        <time>2012-05-03T15:33:12Z</time>
      </trkpt>
      <trkpt lat="46.31172" lon="-0.55607">
        <ele>65</ele>
        <time>2012-05-03T15:33:17Z</time>
      </trkpt>
      <trkpt lat="46.31173" lon="-0.556">
        <ele>65</ele>
        <time>2012-05-03T15:33:22Z</time>
      </trkpt>
      <trkpt lat="46.31173" lon="-0.55593">
        <ele>67</ele>
        <time>2012-05-03T15:33:27Z</time>
      </trkpt>
      <trkpt lat="46.31172" lon="-0.55586">
        <ele>66</ele>
        <time>2012-05-03T15:33:32Z</time>
      </trkpt>
      <trkpt lat="46.31172" lon="-0.55579">
        <ele>65</ele>
        <time>2012-05-03T15:33:37Z</time>
      </trkpt>
      <trkpt lat="46.31173" lon="-0.55571">
        <ele>66</ele>
        <time>2012-05-03T15:33:42Z</time>
      </trkpt>
      <trkpt lat="46.31174" lon="-0.55565">
        <ele>66</ele>
        <time>2012-05-03T15:33:47Z</time>
      </trkpt>
      <trkpt lat="46.31173" lon="-0.55558">
        <ele>65</ele>
        <time>2012-05-03T15:33:52Z</time>
      </trkpt>
      <trkpt lat="46.31171" lon="-0.55551">
        <ele>66</ele>
        <time>2012-05-03T15:33:57Z</time>
      </trkpt>
      <trkpt lat="46.31174" lon="-0.55544">
        <ele>65</ele>
        <time>2012-05-03T15:34:02Z</time>
      </trkpt>
      <trkpt lat="46.31175" lon="-0.55537">
        <ele>65</ele>
        <time>2012-05-03T15:34:07Z</time>
      </trkpt>
      <trkpt lat="46.31178" lon="-0.5553">
        <ele>64</ele>
        <time>2012-05-03T15:34:12Z</time>
      </trkpt>
      <trkpt lat="46.3118" lon="-0.55523">
        <ele>64</ele>
        <time>2012-05-03T15:34:17Z</time>
      </trkpt>
      <trkpt lat="46.31181" lon="-0.55517">
        <ele>64</ele>
        <time>2012-05-03T15:34:22Z</time>
      </trkpt>
      <trkpt lat="46.31181" lon="-0.55509">
        <ele>65</ele>
        <time>2012-05-03T15:34:27Z</time>
      </trkpt>
      <trkpt lat="46.31183" lon="-0.55503">
        <ele>67</ele>
        <time>2012-05-03T15:34:32Z</time>
      </trkpt>
      <trkpt lat="46.31183" lon="-0.55496">
        <ele>67</ele>
        <time>2012-05-03T15:34:37Z</time>
      </trkpt>
      <trkpt lat="46.31184" lon="-0.55488">
        <ele>66</ele>
        <time>2012-05-03T15:34:42Z</time>
      </trkpt>
      <trkpt lat="46.31184" lon="-0.5548">
        <ele>67</ele>
        <time>2012-05-03T15:34:47Z</time>
      </trkpt>
      <trkpt lat="46.31183" lon="-0.55474">
        <ele>66</ele>
        <time>2012-05-03T15:34:52Z</time>
      </trkpt>
      <trkpt lat="46.31183" lon="-0.55466">
        <ele>67</ele>
        <time>2012-05-03T15:34:57Z</time>
      </trkpt>
      <trkpt lat="46.31184" lon="-0.55459">
        <ele>65</ele>
        <time>2012-05-03T15:35:02Z</time>
      </trkpt>
      <trkpt lat="46.31184" lon="-0.55451">
        <ele>64</ele>
        <time>2012-05-03T15:35:07Z</time>
      </trkpt>
      <trkpt lat="46.31184" lon="-0.55443">
        <ele>65</ele>
        <time>2012-05-03T15:35:12Z</time>
      </trkpt>
      <trkpt lat="46.31181" lon="-0.55435">
        <ele>64</ele>
        <time>2012-05-03T15:35:17Z</time>
      </trkpt>
      <trkpt lat="46.31183" lon="-0.55429">
        <ele>62</ele>
        <time>2012-05-03T15:35:22Z</time>
      </trkpt>
      <trkpt lat="46.31182" lon="-0.55423">
        <ele>60</ele>
        <time>2012-05-03T15:35:27Z</time>
      </trkpt>
      <trkpt lat="46.31183" lon="-0.55416">
        <ele>60</ele>
        <time>2012-05-03T15:35:32Z</time>
      </trkpt>
      <trkpt lat="46.3118" lon="-0.55409">
        <ele>60</ele>
        <time>2012-05-03T15:35:37Z</time>
      </trkpt>
      <trkpt lat="46.3118" lon="-0.55403">
        <ele>61</ele>
        <time>2012-05-03T15:35:42Z</time>
      </trkpt>
      <trkpt lat="46.3118" lon="-0.55395">
        <ele>59</ele>
        <time>2012-05-03T15:35:47Z</time>
      </trkpt>
      <trkpt lat="46.31179" lon="-0.55388">
        <ele>59</ele>
        <time>2012-05-03T15:35:52Z</time>
      </trkpt>
      <trkpt lat="46.31178" lon="-0.55381">
        <ele>60</ele>
        <time>2012-05-03T15:35:57Z</time>
      </trkpt>
      <trkpt lat="46.31177" lon="-0.55375">
        <ele>59</ele>
        <time>2012-05-03T15:36:02Z</time>
      </trkpt>
      <trkpt lat="46.31174" lon="-0.55369">
        <ele>60</ele>
        <time>2012-05-03T15:36:07Z</time>
      </trkpt>
      <trkpt lat="46.31173" lon="-0.55361">
        <ele>60</ele>
        <time>2012-05-03T15:36:12Z</time>
      </trkpt>
      <trkpt lat="46.31172" lon="-0.55354">
        <ele>63</ele>
        <time>2012-05-03T15:36:17Z</time>
      </trkpt>
      <trkpt lat="46.31172" lon="-0.55346">
        <ele>62</ele>
        <time>2012-05-03T15:36:22Z</time>
      </trkpt>
      <trkpt lat="46.3117" lon="-0.55339">
        <ele>61</ele>
        <time>2012-05-03T15:36:27Z</time>
      </trkpt>
      <trkpt lat="46.31169" lon="-0.55331">
        <ele>62</ele>
        <time>2012-05-03T15:36:32Z</time>
      </trkpt>
      <trkpt lat="46.31166" lon="-0.55324">
        <ele>63</ele>
        <time>2012-05-03T15:36:37Z</time>
      </trkpt>
      <trkpt lat="46.31165" lon="-0.55317">
        <ele>61</ele>
        <time>2012-05-03T15:36:42Z</time>
      </trkpt>
      <trkpt lat="46.31165" lon="-0.5531">
        <ele>61</ele>
        <time>2012-05-03T15:36:47Z</time>
      </trkpt>
      <trkpt lat="46.31165" lon="-0.55304">
        <ele>62</ele>
        <time>2012-05-03T15:36:52Z</time>
      </trkpt>
      <trkpt lat="46.31163" lon="-0.55297">
        <ele>62</ele>
        <time>2012-05-03T15:36:57Z</time>
      </trkpt>
      <trkpt lat="46.31163" lon="-0.55292">
        <ele>62</ele>
        <time>2012-05-03T15:37:02Z</time>
      </trkpt>
      <trkpt lat="46.31163" lon="-0.55284">
        <ele>63</ele>
        <time>2012-05-03T15:37:07Z</time>
      </trkpt>
      <trkpt lat="46.31161" lon="-0.55277">
        <ele>62</ele>
        <time>2012-05-03T15:37:12Z</time>
      </trkpt>
      <trkpt lat="46.3116" lon="-0.5527">
        <ele>61</ele>
        <time>2012-05-03T15:37:17Z</time>
      </trkpt>
      <trkpt lat="46.31158" lon="-0.55264">
        <ele>61</ele>
        <time>2012-05-03T15:37:22Z</time>
      </trkpt>
      <trkpt lat="46.31158" lon="-0.55257">
        <ele>62</ele>
        <time>2012-05-03T15:37:27Z</time>
      </trkpt>
      <trkpt lat="46.31157" lon="-0.55251">
        <ele>63</ele>
        <time>2012-05-03T15:37:32Z</time>
      </trkpt>
      <trkpt lat="46.31157" lon="-0.55242">
        <ele>62</ele>
        <time>2012-05-03T15:37:37Z</time>
      </trkpt>
      <trkpt lat="46.31155" lon="-0.55237">
        <ele>62</ele>
        <time>2012-05-03T15:37:42Z</time>
      </trkpt>
      <trkpt lat="46.31153" lon="-0.55229">
        <ele>62</ele>
        <time>2012-05-03T15:37:47Z</time>
      </trkpt>
      <trkpt lat="46.31151" lon="-0.55222">
        <ele>64</ele>
        <time>2012-05-03T15:37:52Z</time>
      </trkpt>
      <trkpt lat="46.31151" lon="-0.55215">
        <ele>63</ele>
        <time>2012-05-03T15:37:57Z</time>
      </trkpt>
      <trkpt lat="46.3115" lon="-0.55209">
        <ele>63</ele>
        <time>2012-05-03T15:38:02Z</time>
      </trkpt>
      <trkpt lat="46.31149" lon="-0.552">
        <ele>63</ele>
        <time>2012-05-03T15:38:07Z</time>
      </trkpt>
      <trkpt lat="46.31148" lon="-0.55192">
        <ele>64</ele>
        <time>2012-05-03T15:38:12Z</time>
      </trkpt>
      <trkpt lat="46.31147" lon="-0.55184">
        <ele>64</ele>
        <time>2012-05-03T15:38:17Z</time>
      </trkpt>
      <trkpt lat="46.31145" lon="-0.55177">
        <ele>63</ele>
        <time>2012-05-03T15:38:22Z</time>
      </trkpt>
      <trkpt lat="46.31145" lon="-0.55169">
        <ele>63</ele>
        <time>2012-05-03T15:38:27Z</time>
      </trkpt>
      <trkpt lat="46.31144" lon="-0.55162">
        <ele>62</ele>
        <time>2012-05-03T15:38:32Z</time>
      </trkpt>
      <trkpt lat="46.31142" lon="-0.55155">
        <ele>62</ele>
        <time>2012-05-03T15:38:37Z</time>
      </trkpt>
      <trkpt lat="46.31141" lon="-0.55149">
        <ele>63</ele>
        <time>2012-05-03T15:38:42Z</time>
      </trkpt>
      <trkpt lat="46.31141" lon="-0.55142">
        <ele>63</ele>
        <time>2012-05-03T15:38:47Z</time>
      </trkpt>
      <trkpt lat="46.31139" lon="-0.55135">
        <ele>62</ele>
        <time>2012-05-03T15:38:52Z</time>
      </trkpt>
      <trkpt lat="46.31139" lon="-0.55131">
        <ele>62</ele>
        <time>2012-05-03T15:38:57Z</time>
      </trkpt>
      <trkpt lat="46.31137" lon="-0.55123">
        <ele>62</ele>
        <time>2012-05-03T15:39:02Z</time>
      </trkpt>
      <trkpt lat="46.31136" lon="-0.55117">
        <ele>61</ele>
        <time>2012-05-03T15:39:07Z</time>
      </trkpt>
      <trkpt lat="46.31135" lon="-0.55109">
        <ele>62</ele>
        <time>2012-05-03T15:39:12Z</time>
      </trkpt>
      <trkpt lat="46.31133" lon="-0.55101">
        <ele>61</ele>
        <time>2012-05-03T15:39:17Z</time>
      </trkpt>
      <trkpt lat="46.31134" lon="-0.55095">
        <ele>61</ele>
        <time>2012-05-03T15:39:22Z</time>
      </trkpt>
      <trkpt lat="46.31135" lon="-0.55088">
        <ele>62</ele>
        <time>2012-05-03T15:39:27Z</time>
      </trkpt>
      <trkpt lat="46.31139" lon="-0.55084">
        <ele>62</ele>
        <time>2012-05-03T15:39:32Z</time>
      </trkpt>
      <trkpt lat="46.31144" lon="-0.5508">
        <ele>61</ele>
        <time>2012-05-03T15:39:37Z</time>
      </trkpt>
      <trkpt lat="46.31149" lon="-0.55077">
        <ele>60</ele>
        <time>2012-05-03T15:39:42Z</time>
      </trkpt>
      <trkpt lat="46.31153" lon="-0.55073">
        <ele>61</ele>
        <time>2012-05-03T15:39:47Z</time>
      </trkpt>
      <trkpt lat="46.31158" lon="-0.55069">
        <ele>61</ele>
        <time>2012-05-03T15:39:52Z</time>
      </trkpt>
      <trkpt lat="46.31164" lon="-0.55066">
        <ele>62</ele>
        <time>2012-05-03T15:39:57Z</time>
      </trkpt>
      <trkpt lat="46.31169" lon="-0.55063">
        <ele>63</ele>
        <time>2012-05-03T15:40:02Z</time>
      </trkpt>
      <trkpt lat="46.31173" lon="-0.55059">
        <ele>62</ele>
        <time>2012-05-03T15:40:07Z</time>
      </trkpt>
      <trkpt lat="46.31178" lon="-0.55054">
        <ele>62</ele>
        <time>2012-05-03T15:40:12Z</time>
      </trkpt>
      <trkpt lat="46.3118" lon="-0.5505">
        <ele>61</ele>
        <time>2012-05-03T15:40:17Z</time>
      </trkpt>
      <trkpt lat="46.31185" lon="-0.55046">
        <ele>62</ele>
        <time>2012-05-03T15:40:22Z</time>
      </trkpt>
      <trkpt lat="46.3119" lon="-0.55041">
        <ele>61</ele>
        <time>2012-05-03T15:40:27Z</time>
      </trkpt>
      <trkpt lat="46.31194" lon="-0.55036">
        <ele>61</ele>
        <time>2012-05-03T15:40:32Z</time>
      </trkpt>
      <trkpt lat="46.31198" lon="-0.55031">
        <ele>62</ele>
        <time>2012-05-03T15:40:37Z</time>
      </trkpt>
      <trkpt lat="46.31202" lon="-0.55025">
        <ele>63</ele>
        <time>2012-05-03T15:40:42Z</time>
      </trkpt>
      <trkpt lat="46.31206" lon="-0.55019">
        <ele>62</ele>
        <time>2012-05-03T15:40:47Z</time>
      </trkpt>
      <trkpt lat="46.31208" lon="-0.55012">
        <ele>63</ele>
        <time>2012-05-03T15:40:52Z</time>
      </trkpt>
      <trkpt lat="46.31212" lon="-0.55006">
        <ele>63</ele>
        <time>2012-05-03T15:40:57Z</time>
      </trkpt>
      <trkpt lat="46.31215" lon="-0.54999">
        <ele>65</ele>
        <time>2012-05-03T15:41:02Z</time>
      </trkpt>
      <trkpt lat="46.31219" lon="-0.54993">
        <ele>66</ele>
        <time>2012-05-03T15:41:07Z</time>
      </trkpt>
      <trkpt lat="46.31223" lon="-0.54985">
        <ele>68</ele>
        <time>2012-05-03T15:41:12Z</time>
      </trkpt>
      <trkpt lat="46.31225" lon="-0.54979">
        <ele>68</ele>
        <time>2012-05-03T15:41:17Z</time>
      </trkpt>
      <trkpt lat="46.31226" lon="-0.54972">
        <ele>66</ele>
        <time>2012-05-03T15:41:22Z</time>
      </trkpt>
      <trkpt lat="46.31227" lon="-0.54966">
        <ele>66</ele>
        <time>2012-05-03T15:41:27Z</time>
      </trkpt>
      <trkpt lat="46.31228" lon="-0.54959">
        <ele>67</ele>
        <time>2012-05-03T15:41:32Z</time>
      </trkpt>
      <trkpt lat="46.31229" lon="-0.54953">
        <ele>68</ele>
        <time>2012-05-03T15:41:37Z</time>
      </trkpt>
      <trkpt lat="46.3123" lon="-0.54947">
        <ele>68</ele>
        <time>2012-05-03T15:41:42Z</time>
      </trkpt>
      <trkpt lat="46.31231" lon="-0.5494">
        <ele>67</ele>
        <time>2012-05-03T15:41:47Z</time>
      </trkpt>
      <trkpt lat="46.31231" lon="-0.54933">
        <ele>63</ele>
        <time>2012-05-03T15:41:52Z</time>
      </trkpt>
      <trkpt lat="46.31233" lon="-0.54926">
        <ele>61</ele>
        <time>2012-05-03T15:41:57Z</time>
      </trkpt>
      <trkpt lat="46.31236" lon="-0.54923">
        <ele>60</ele>
        <time>2012-05-03T15:42:02Z</time>
      </trkpt>
      <trkpt lat="46.3124" lon="-0.54917">
        <ele>60</ele>
        <time>2012-05-03T15:42:07Z</time>
      </trkpt>
      <trkpt lat="46.31242" lon="-0.54912">
        <ele>60</ele>
        <time>2012-05-03T15:42:12Z</time>
      </trkpt>
      <trkpt lat="46.31244" lon="-0.54906">
        <ele>59</ele>
        <time>2012-05-03T15:42:17Z</time>
      </trkpt>
      <trkpt lat="46.31247" lon="-0.54898">
        <ele>59</ele>
        <time>2012-05-03T15:42:22Z</time>
      </trkpt>
      <trkpt lat="46.3125" lon="-0.54893">
        <ele>60</ele>
        <time>2012-05-03T15:42:27Z</time>
      </trkpt>
      <trkpt lat="46.31252" lon="-0.54887">
        <ele>60</ele>
        <time>2012-05-03T15:42:32Z</time>
      </trkpt>
      <trkpt lat="46.31256" lon="-0.54882">
        <ele>63</ele>
        <time>2012-05-03T15:42:37Z</time>
      </trkpt>
      <trkpt lat="46.31259" lon="-0.54876">
        <ele>62</ele>
        <time>2012-05-03T15:42:42Z</time>
      </trkpt>
      <trkpt lat="46.31262" lon="-0.54869">
        <ele>63</ele>
        <time>2012-05-03T15:42:47Z</time>
      </trkpt>
      <trkpt lat="46.31265" lon="-0.54862">
        <ele>63</ele>
        <time>2012-05-03T15:42:52Z</time>
      </trkpt>
      <trkpt lat="46.31266" lon="-0.54854">
        <ele>61</ele>
        <time>2012-05-03T15:42:57Z</time>
      </trkpt>
      <trkpt lat="46.31268" lon="-0.54848">
        <ele>61</ele>
        <time>2012-05-03T15:43:02Z</time>
      </trkpt>
      <trkpt lat="46.31271" lon="-0.54841">
        <ele>61</ele>
        <time>2012-05-03T15:43:07Z</time>
      </trkpt>
      <trkpt lat="46.31274" lon="-0.54835">
        <ele>62</ele>
        <time>2012-05-03T15:43:12Z</time>
      </trkpt>
      <trkpt lat="46.31278" lon="-0.54828">
        <ele>64</ele>
        <time>2012-05-03T15:43:17Z</time>
      </trkpt>
      <trkpt lat="46.3128" lon="-0.5482">
        <ele>64</ele>
        <time>2012-05-03T15:43:22Z</time>
      </trkpt>
      <trkpt lat="46.31281" lon="-0.54814">
        <ele>66</ele>
        <time>2012-05-03T15:43:27Z</time>
      </trkpt>
      <trkpt lat="46.31284" lon="-0.54806">
        <ele>69</ele>
        <time>2012-05-03T15:43:32Z</time>
      </trkpt>
      <trkpt lat="46.31282" lon="-0.548">
        <ele>68</ele>
        <time>2012-05-03T15:43:37Z</time>
      </trkpt>
      <trkpt lat="46.31281" lon="-0.54793">
        <ele>68</ele>
        <time>2012-05-03T15:43:42Z</time>
      </trkpt>
      <trkpt lat="46.31282" lon="-0.54786">
        <ele>66</ele>
        <time>2012-05-03T15:43:47Z</time>
      </trkpt>
      <trkpt lat="46.31282" lon="-0.54777">
        <ele>64</ele>
        <time>2012-05-03T15:43:52Z</time>
      </trkpt>
      <trkpt lat="46.31286" lon="-0.54769">
        <ele>63</ele>
        <time>2012-05-03T15:43:57Z</time>
      </trkpt>
      <trkpt lat="46.31286" lon="-0.54762">
        <ele>63</ele>
        <time>2012-05-03T15:44:02Z</time>
      </trkpt>
      <trkpt lat="46.31286" lon="-0.54756">
        <ele>61</ele>
        <time>2012-05-03T15:44:07Z</time>
      </trkpt>
      <trkpt lat="46.31284" lon="-0.54749">
        <ele>60</ele>
        <time>2012-05-03T15:44:12Z</time>
      </trkpt>
      <trkpt lat="46.31283" lon="-0.54742">
        <ele>58</ele>
        <time>2012-05-03T15:44:17Z</time>
      </trkpt>
      <trkpt lat="46.31284" lon="-0.54736">
        <ele>58</ele>
        <time>2012-05-03T15:44:22Z</time>
      </trkpt>
      <trkpt lat="46.31286" lon="-0.54728">
        <ele>57</ele>
        <time>2012-05-03T15:44:27Z</time>
      </trkpt>
      <trkpt lat="46.31286" lon="-0.54722">
        <ele>56</ele>
        <time>2012-05-03T15:44:32Z</time>
      </trkpt>
      <trkpt lat="46.31286" lon="-0.54716">
        <ele>56</ele>
        <time>2012-05-03T15:44:37Z</time>
      </trkpt>
      <trkpt lat="46.31288" lon="-0.5471">
        <ele>57</ele>
        <time>2012-05-03T15:44:42Z</time>
      </trkpt>
      <trkpt lat="46.31291" lon="-0.54702">
        <ele>59</ele>
        <time>2012-05-03T15:44:47Z</time>
      </trkpt>
      <trkpt lat="46.31292" lon="-0.54694">
        <ele>59</ele>
        <time>2012-05-03T15:44:52Z</time>
      </trkpt>
      <trkpt lat="46.31292" lon="-0.54689">
        <ele>59</ele>
        <time>2012-05-03T15:44:57Z</time>
      </trkpt>
      <trkpt lat="46.31293" lon="-0.54681">
        <ele>59</ele>
        <time>2012-05-03T15:45:02Z</time>
      </trkpt>
      <trkpt lat="46.31295" lon="-0.54674">
        <ele>59</ele>
        <time>2012-05-03T15:45:07Z</time>
      </trkpt>
      <trkpt lat="46.31297" lon="-0.54667">
        <ele>59</ele>
        <time>2012-05-03T15:45:12Z</time>
      </trkpt>
      <trkpt lat="46.31298" lon="-0.54662">
        <ele>59</ele>
        <time>2012-05-03T15:45:17Z</time>
      </trkpt>
      <trkpt lat="46.31298" lon="-0.54655">
        <ele>58</ele>
        <time>2012-05-03T15:45:22Z</time>
      </trkpt>
      <trkpt lat="46.31301" lon="-0.54648">
        <ele>59</ele>
        <time>2012-05-03T15:45:27Z</time>
      </trkpt>
      <trkpt lat="46.31301" lon="-0.54641">
        <ele>58</ele>
        <time>2012-05-03T15:45:32Z</time>
      </trkpt>
      <trkpt lat="46.31302" lon="-0.54636">
        <ele>57</ele>
        <time>2012-05-03T15:45:37Z</time>
      </trkpt>
      <trkpt lat="46.31303" lon="-0.54629">
        <ele>57</ele>
        <time>2012-05-03T15:45:42Z</time>
      </trkpt>
      <trkpt lat="46.31305" lon="-0.54621">
        <ele>58</ele>
        <time>2012-05-03T15:45:47Z</time>
      </trkpt>
      <trkpt lat="46.31306" lon="-0.54614">
        <ele>58</ele>
        <time>2012-05-03T15:45:52Z</time>
      </trkpt>
      <trkpt lat="46.31309" lon="-0.54607">
        <ele>58</ele>
        <time>2012-05-03T15:45:57Z</time>
      </trkpt>
      <trkpt lat="46.31308" lon="-0.546">
        <ele>57</ele>
        <time>2012-05-03T15:46:02Z</time>
      </trkpt>
      <trkpt lat="46.3131" lon="-0.54594">
        <ele>58</ele>
        <time>2012-05-03T15:46:07Z</time>
      </trkpt>
      <trkpt lat="46.31311" lon="-0.54588">
        <ele>58</ele>
        <time>2012-05-03T15:46:12Z</time>
      </trkpt>
      <trkpt lat="46.3131" lon="-0.54588">
        <ele>57</ele>
        <time>2012-05-03T15:46:17Z</time>
      </trkpt>
      <trkpt lat="46.31309" lon="-0.54589">
        <ele>56</ele>
        <time>2012-05-03T15:46:22Z</time>
      </trkpt>
      <trkpt lat="46.31312" lon="-0.54589">
        <ele>56</ele>
        <time>2012-05-03T15:46:27Z</time>
      </trkpt>
      <trkpt lat="46.31313" lon="-0.54588">
        <ele>55</ele>
        <time>2012-05-03T15:46:32Z</time>
      </trkpt>
      <trkpt lat="46.31315" lon="-0.54582">
        <ele>55</ele>
        <time>2012-05-03T15:46:37Z</time>
      </trkpt>
      <trkpt lat="46.31315" lon="-0.54574">
        <ele>56</ele>
        <time>2012-05-03T15:46:42Z</time>
      </trkpt>
      <trkpt lat="46.31314" lon="-0.54566">
        <ele>56</ele>
        <time>2012-05-03T15:46:47Z</time>
      </trkpt>
      <trkpt lat="46.31315" lon="-0.54558">
        <ele>56</ele>
        <time>2012-05-03T15:46:52Z</time>
      </trkpt>
      <trkpt lat="46.31314" lon="-0.54552">
        <ele>55</ele>
        <time>2012-05-03T15:46:57Z</time>
      </trkpt>
      <trkpt lat="46.31316" lon="-0.54545">
        <ele>55</ele>
        <time>2012-05-03T15:47:03Z</time>
      </trkpt>
      <trkpt lat="46.31317" lon="-0.54537">
        <ele>54</ele>
        <time>2012-05-03T15:47:07Z</time>
      </trkpt>
      <trkpt lat="46.31318" lon="-0.54531">
        <ele>54</ele>
        <time>2012-05-03T15:47:12Z</time>
      </trkpt>
      <trkpt lat="46.3132" lon="-0.54525">
        <ele>54</ele>
        <time>2012-05-03T15:47:17Z</time>
      </trkpt>
      <trkpt lat="46.31323" lon="-0.5452">
        <ele>53</ele>
        <time>2012-05-03T15:47:22Z</time>
      </trkpt>
      <trkpt lat="46.31326" lon="-0.54514">
        <ele>52</ele>
        <time>2012-05-03T15:47:27Z</time>
      </trkpt>
      <trkpt lat="46.3133" lon="-0.54509">
        <ele>52</ele>
        <time>2012-05-03T15:47:32Z</time>
      </trkpt>
      <trkpt lat="46.31333" lon="-0.54503">
        <ele>53</ele>
        <time>2012-05-03T15:47:37Z</time>
      </trkpt>
      <trkpt lat="46.31335" lon="-0.54499">
        <ele>52</ele>
        <time>2012-05-03T15:47:42Z</time>
      </trkpt>
      <trkpt lat="46.31338" lon="-0.54493">
        <ele>52</ele>
        <time>2012-05-03T15:47:47Z</time>
      </trkpt>
      <trkpt lat="46.31342" lon="-0.54487">
        <ele>50</ele>
        <time>2012-05-03T15:47:52Z</time>
      </trkpt>
      <trkpt lat="46.31348" lon="-0.54484">
        <ele>52</ele>
        <time>2012-05-03T15:47:57Z</time>
      </trkpt>
      <trkpt lat="46.3135" lon="-0.5448">
        <ele>52</ele>
        <time>2012-05-03T15:48:02Z</time>
      </trkpt>
      <trkpt lat="46.31355" lon="-0.54478">
        <ele>50</ele>
        <time>2012-05-03T15:48:07Z</time>
      </trkpt>
      <trkpt lat="46.31356" lon="-0.54472">
        <ele>53</ele>
        <time>2012-05-03T15:48:12Z</time>
      </trkpt>
      <trkpt lat="46.3136" lon="-0.54468">
        <ele>55</ele>
        <time>2012-05-03T15:48:17Z</time>
      </trkpt>
      <trkpt lat="46.31367" lon="-0.54465">
        <ele>56</ele>
        <time>2012-05-03T15:48:22Z</time>
      </trkpt>
      <trkpt lat="46.31371" lon="-0.54462">
        <ele>55</ele>
        <time>2012-05-03T15:48:27Z</time>
      </trkpt>
      <trkpt lat="46.31372" lon="-0.54461">
        <ele>54</ele>
        <time>2012-05-03T15:48:32Z</time>
      </trkpt>
      <trkpt lat="46.31375" lon="-0.5446">
        <ele>55</ele>
        <time>2012-05-03T15:48:37Z</time>
      </trkpt>
      <trkpt lat="46.31379" lon="-0.54454">
        <ele>55</ele>
        <time>2012-05-03T15:48:42Z</time>
      </trkpt>
      <trkpt lat="46.31386" lon="-0.54452">
        <ele>57</ele>
        <time>2012-05-03T15:48:47Z</time>
      </trkpt>
      <trkpt lat="46.31393" lon="-0.5445">
        <ele>57</ele>
        <time>2012-05-03T15:48:52Z</time>
      </trkpt>
      <trkpt lat="46.31397" lon="-0.54447">
        <ele>58</ele>
        <time>2012-05-03T15:48:57Z</time>
      </trkpt>
      <trkpt lat="46.314" lon="-0.54443">
        <ele>59</ele>
        <time>2012-05-03T15:49:02Z</time>
      </trkpt>
      <trkpt lat="46.31402" lon="-0.54438">
        <ele>62</ele>
        <time>2012-05-03T15:49:07Z</time>
      </trkpt>
      <trkpt lat="46.31402" lon="-0.54436">
        <ele>61</ele>
        <time>2012-05-03T15:49:12Z</time>
      </trkpt>
      <trkpt lat="46.31403" lon="-0.54435">
        <ele>59</ele>
        <time>2012-05-03T15:49:17Z</time>
      </trkpt>
      <trkpt lat="46.31403" lon="-0.54435">
        <ele>60</ele>
        <time>2012-05-03T15:49:22Z</time>
      </trkpt>
      <trkpt lat="46.31404" lon="-0.54434">
        <ele>59</ele>
        <time>2012-05-03T15:49:27Z</time>
      </trkpt>
      <trkpt lat="46.31407" lon="-0.54432">
        <ele>60</ele>
        <time>2012-05-03T15:49:32Z</time>
      </trkpt>
      <trkpt lat="46.31412" lon="-0.54433">
        <ele>62</ele>
        <time>2012-05-03T15:49:37Z</time>
      </trkpt>
      <trkpt lat="46.31415" lon="-0.54433">
        <ele>62</ele>
        <time>2012-05-03T15:49:42Z</time>
      </trkpt>
      <trkpt lat="46.31416" lon="-0.54433">
        <ele>62</ele>
        <time>2012-05-03T15:49:47Z</time>
      </trkpt>
      <trkpt lat="46.31418" lon="-0.54432">
        <ele>61</ele>
        <time>2012-05-03T15:49:52Z</time>
      </trkpt>
      <trkpt lat="46.3142" lon="-0.54433">
        <ele>60</ele>
        <time>2012-05-03T15:49:57Z</time>
      </trkpt>
      <trkpt lat="46.31422" lon="-0.54432">
        <ele>60</ele>
        <time>2012-05-03T15:50:02Z</time>
      </trkpt>
      <trkpt lat="46.31426" lon="-0.54428">
        <ele>60</ele>
        <time>2012-05-03T15:50:07Z</time>
      </trkpt>
      <trkpt lat="46.31428" lon="-0.54427">
        <ele>60</ele>
        <time>2012-05-03T15:50:12Z</time>
      </trkpt>
      <trkpt lat="46.31431" lon="-0.54425">
        <ele>60</ele>
        <time>2012-05-03T15:50:17Z</time>
      </trkpt>
      <trkpt lat="46.31434" lon="-0.54425">
        <ele>61</ele>
        <time>2012-05-03T15:50:22Z</time>
      </trkpt>
      <trkpt lat="46.31442" lon="-0.54423">
        <ele>61</ele>
        <time>2012-05-03T15:50:27Z</time>
      </trkpt>
      <trkpt lat="46.31439" lon="-0.54411">
        <ele>60</ele>
        <time>2012-05-03T15:50:32Z</time>
      </trkpt>
      <trkpt lat="46.31438" lon="-0.54406">
        <ele>58</ele>
        <time>2012-05-03T15:50:37Z</time>
      </trkpt>
      <trkpt lat="46.3144" lon="-0.54396">
        <ele>58</ele>
        <time>2012-05-03T15:50:42Z</time>
      </trkpt>
      <trkpt lat="46.31442" lon="-0.54391">
        <ele>56</ele>
        <time>2012-05-03T15:50:47Z</time>
      </trkpt>
      <trkpt lat="46.31441" lon="-0.54383">
        <ele>56</ele>
        <time>2012-05-03T15:50:52Z</time>
      </trkpt>
      <trkpt lat="46.3144" lon="-0.54381">
        <ele>55</ele>
        <time>2012-05-03T15:50:57Z</time>
      </trkpt>
      <trkpt lat="46.31437" lon="-0.54375">
        <ele>56</ele>
        <time>2012-05-03T15:51:02Z</time>
      </trkpt>
      <trkpt lat="46.31437" lon="-0.54369">
        <ele>58</ele>
        <time>2012-05-03T15:51:07Z</time>
      </trkpt>
      <trkpt lat="46.31436" lon="-0.54364">
        <ele>60</ele>
        <time>2012-05-03T15:51:12Z</time>
      </trkpt>
      <trkpt lat="46.31435" lon="-0.54361">
        <ele>60</ele>
        <time>2012-05-03T15:51:17Z</time>
      </trkpt>
      <trkpt lat="46.3143" lon="-0.54356">
        <ele>60</ele>
        <time>2012-05-03T15:51:22Z</time>
      </trkpt>
      <trkpt lat="46.31428" lon="-0.54352">
        <ele>60</ele>
        <time>2012-05-03T15:51:27Z</time>
      </trkpt>
      <trkpt lat="46.31422" lon="-0.54346">
        <ele>59</ele>
        <time>2012-05-03T15:51:32Z</time>
      </trkpt>
      <trkpt lat="46.31419" lon="-0.54339">
        <ele>59</ele>
        <time>2012-05-03T15:51:37Z</time>
      </trkpt>
      <trkpt lat="46.31421" lon="-0.54334">
        <ele>59</ele>
        <time>2012-05-03T15:51:42Z</time>
      </trkpt>
      <trkpt lat="46.31418" lon="-0.54332">
        <ele>60</ele>
        <time>2012-05-03T15:51:47Z</time>
      </trkpt>
      <trkpt lat="46.31416" lon="-0.54331">
        <ele>60</ele>
        <time>2012-05-03T15:51:52Z</time>
      </trkpt>
      <trkpt lat="46.31417" lon="-0.54332">
        <ele>61</ele>
        <time>2012-05-03T15:51:57Z</time>
      </trkpt>
      <trkpt lat="46.3142" lon="-0.54329">
        <ele>62</ele>
        <time>2012-05-03T15:52:02Z</time>
      </trkpt>
      <trkpt lat="46.31421" lon="-0.54324">
        <ele>61</ele>
        <time>2012-05-03T15:52:07Z</time>
      </trkpt>
      <trkpt lat="46.31423" lon="-0.54317">
        <ele>62</ele>
        <time>2012-05-03T15:52:12Z</time>
      </trkpt>
      <trkpt lat="46.31426" lon="-0.54312">
        <ele>62</ele>
        <time>2012-05-03T15:52:17Z</time>
      </trkpt>
      <trkpt lat="46.31427" lon="-0.54307">
        <ele>62</ele>
        <time>2012-05-03T15:52:22Z</time>
      </trkpt>
      <trkpt lat="46.31428" lon="-0.54301">
        <ele>60</ele>
        <time>2012-05-03T15:52:27Z</time>
      </trkpt>
      <trkpt lat="46.31428" lon="-0.54294">
        <ele>58</ele>
        <time>2012-05-03T15:52:32Z</time>
      </trkpt>
      <trkpt lat="46.3143" lon="-0.54288">
        <ele>57</ele>
        <time>2012-05-03T15:52:37Z</time>
      </trkpt>
      <trkpt lat="46.31431" lon="-0.54283">
        <ele>57</ele>
        <time>2012-05-03T15:52:42Z</time>
      </trkpt>
      <trkpt lat="46.31431" lon="-0.54276">
        <ele>57</ele>
        <time>2012-05-03T15:52:47Z</time>
      </trkpt>
      <trkpt lat="46.31428" lon="-0.54276">
        <ele>56</ele>
        <time>2012-05-03T15:52:52Z</time>
      </trkpt>
      <trkpt lat="46.31428" lon="-0.54276">
        <ele>55</ele>
        <time>2012-05-03T15:52:57Z</time>
      </trkpt>
      <trkpt lat="46.31428" lon="-0.54276">
        <ele>55</ele>
        <time>2012-05-03T15:53:02Z</time>
      </trkpt>
      <trkpt lat="46.31429" lon="-0.54274">
        <ele>56</ele>
        <time>2012-05-03T15:53:07Z</time>
      </trkpt>
      <trkpt lat="46.31428" lon="-0.54273">
        <ele>57</ele>
        <time>2012-05-03T15:53:17Z</time>
      </trkpt>
      <trkpt lat="46.31426" lon="-0.54267">
        <ele>57</ele>
        <time>2012-05-03T15:53:22Z</time>
      </trkpt>
      <trkpt lat="46.31424" lon="-0.54262">
        <ele>58</ele>
        <time>2012-05-03T15:53:27Z</time>
      </trkpt>
      <trkpt lat="46.31423" lon="-0.54255">
        <ele>58</ele>
        <time>2012-05-03T15:53:32Z</time>
      </trkpt>
      <trkpt lat="46.31421" lon="-0.54246">
        <ele>58</ele>
        <time>2012-05-03T15:53:37Z</time>
      </trkpt>
      <trkpt lat="46.31419" lon="-0.54241">
        <ele>56</ele>
        <time>2012-05-03T15:53:42Z</time>
      </trkpt>
      <trkpt lat="46.31416" lon="-0.54237">
        <ele>56</ele>
        <time>2012-05-03T15:53:47Z</time>
      </trkpt>
      <trkpt lat="46.31409" lon="-0.54233">
        <ele>57</ele>
        <time>2012-05-03T15:53:52Z</time>
      </trkpt>
      <trkpt lat="46.31405" lon="-0.54231">
        <ele>58</ele>
        <time>2012-05-03T15:53:57Z</time>
      </trkpt>
      <trkpt lat="46.31398" lon="-0.54228">
        <ele>58</ele>
        <time>2012-05-03T15:54:02Z</time>
      </trkpt>
      <trkpt lat="46.31391" lon="-0.54226">
        <ele>57</ele>
        <time>2012-05-03T15:54:07Z</time>
      </trkpt>
      <trkpt lat="46.31388" lon="-0.54224">
        <ele>58</ele>
        <time>2012-05-03T15:54:12Z</time>
      </trkpt>
      <trkpt lat="46.31383" lon="-0.54222">
        <ele>57</ele>
        <time>2012-05-03T15:54:17Z</time>
      </trkpt>
      <trkpt lat="46.31376" lon="-0.5422">
        <ele>56</ele>
        <time>2012-05-03T15:54:22Z</time>
      </trkpt>
      <trkpt lat="46.31372" lon="-0.54219">
        <ele>56</ele>
        <time>2012-05-03T15:54:27Z</time>
      </trkpt>
      <trkpt lat="46.31366" lon="-0.54218">
        <ele>56</ele>
        <time>2012-05-03T15:54:32Z</time>
      </trkpt>
      <trkpt lat="46.31361" lon="-0.54217">
        <ele>56</ele>
        <time>2012-05-03T15:54:37Z</time>
      </trkpt>
      <trkpt lat="46.31356" lon="-0.54217">
        <ele>56</ele>
        <time>2012-05-03T15:54:42Z</time>
      </trkpt>
      <trkpt lat="46.31356" lon="-0.54217">
        <ele>55</ele>
        <time>2012-05-03T15:54:47Z</time>
      </trkpt>
      <trkpt lat="46.31355" lon="-0.54218">
        <ele>56</ele>
        <time>2012-05-03T15:54:52Z</time>
      </trkpt>
      <trkpt lat="46.31356" lon="-0.54217">
        <ele>56</ele>
        <time>2012-05-03T15:55:02Z</time>
      </trkpt>
    </trkseg>
  </trk>
</gpx>